<?xml version="1.0" encoding="UTF-8" standalone="no" ?>
<gpx xmlns="http://www.topografix.com/GPX/1/1" xmlns:xsi="http://www.w3.org/2001/XMLSchema-instance" xsi:schemaLocation="http://www.topografix.com/GPX/1/1 http://www.topografix.com/GPX/1/1/gpx.xsd" version="1.1" creator="VisuGPX - https://www.visugpx.com">
  <metadata>
    <name>2021-03-08 Monte Sibolet Valle Grana</name>
  </metadata>
  <trk>
    <name><![CDATA[2021-03-08 13:07:41]]></name>
    <trkseg>
      <trkpt lat="44.4003" lon="7.17">
        <ele>1761.75</ele>
        <time>2021-03-08T07:37:21Z</time>
      </trkpt>
      <trkpt lat="44.40031" lon="7.16993">
        <ele>1761.75</ele>
        <time>2021-03-08T07:37:26Z</time>
      </trkpt>
      <trkpt lat="44.4003" lon="7.1699">
        <ele>1761.75</ele>
        <time>2021-03-08T07:37:29Z</time>
      </trkpt>
      <trkpt lat="44.40029" lon="7.16981">
        <ele>1762.23</ele>
        <time>2021-03-08T07:37:36Z</time>
      </trkpt>
      <trkpt lat="44.40027" lon="7.16978">
        <ele>1762.23</ele>
        <time>2021-03-08T07:37:39Z</time>
      </trkpt>
      <trkpt lat="44.40023" lon="7.16968">
        <ele>1763.2</ele>
        <time>2021-03-08T07:37:47Z</time>
      </trkpt>
      <trkpt lat="44.40016" lon="7.16947">
        <ele>1762.23</ele>
        <time>2021-03-08T07:38:03Z</time>
      </trkpt>
      <trkpt lat="44.40013" lon="7.16941">
        <ele>1764.16</ele>
        <time>2021-03-08T07:38:11Z</time>
      </trkpt>
      <trkpt lat="44.40012" lon="7.16934">
        <ele>1766.56</ele>
        <time>2021-03-08T07:38:22Z</time>
      </trkpt>
      <trkpt lat="44.40012" lon="7.16934">
        <ele>1768.48</ele>
        <time>2021-03-08T07:38:35Z</time>
      </trkpt>
      <trkpt lat="44.40012" lon="7.16924">
        <ele>1770.89</ele>
        <time>2021-03-08T07:38:48Z</time>
      </trkpt>
      <trkpt lat="44.40012" lon="7.1692">
        <ele>1771.37</ele>
        <time>2021-03-08T07:38:52Z</time>
      </trkpt>
      <trkpt lat="44.40012" lon="7.16898">
        <ele>1774.73</ele>
        <time>2021-03-08T07:39:08Z</time>
      </trkpt>
      <trkpt lat="44.40013" lon="7.16896">
        <ele>1775.21</ele>
        <time>2021-03-08T07:39:09Z</time>
      </trkpt>
      <trkpt lat="44.40014" lon="7.16892">
        <ele>1775.21</ele>
        <time>2021-03-08T07:39:12Z</time>
      </trkpt>
      <trkpt lat="44.40018" lon="7.16878">
        <ele>1777.13</ele>
        <time>2021-03-08T07:39:23Z</time>
      </trkpt>
      <trkpt lat="44.4002" lon="7.16876">
        <ele>1777.61</ele>
        <time>2021-03-08T07:39:25Z</time>
      </trkpt>
      <trkpt lat="44.40026" lon="7.16866">
        <ele>1780.5</ele>
        <time>2021-03-08T07:39:36Z</time>
      </trkpt>
      <trkpt lat="44.40029" lon="7.16864">
        <ele>1780.5</ele>
        <time>2021-03-08T07:39:38Z</time>
      </trkpt>
      <trkpt lat="44.40031" lon="7.1686">
        <ele>1780.98</ele>
        <time>2021-03-08T07:39:41Z</time>
      </trkpt>
      <trkpt lat="44.40044" lon="7.16848">
        <ele>1783.86</ele>
        <time>2021-03-08T07:39:56Z</time>
      </trkpt>
      <trkpt lat="44.40046" lon="7.16848">
        <ele>1783.86</ele>
        <time>2021-03-08T07:39:58Z</time>
      </trkpt>
      <trkpt lat="44.40054" lon="7.16837">
        <ele>1785.79</ele>
        <time>2021-03-08T07:40:08Z</time>
      </trkpt>
      <trkpt lat="44.40058" lon="7.16814">
        <ele>1787.23</ele>
        <time>2021-03-08T07:40:24Z</time>
      </trkpt>
      <trkpt lat="44.40056" lon="7.16792">
        <ele>1788.67</ele>
        <time>2021-03-08T07:40:38Z</time>
      </trkpt>
      <trkpt lat="44.40055" lon="7.16777">
        <ele>1789.15</ele>
        <time>2021-03-08T07:40:49Z</time>
      </trkpt>
      <trkpt lat="44.40056" lon="7.16772">
        <ele>1789.63</ele>
        <time>2021-03-08T07:40:52Z</time>
      </trkpt>
      <trkpt lat="44.40056" lon="7.16754">
        <ele>1791.55</ele>
        <time>2021-03-08T07:41:05Z</time>
      </trkpt>
      <trkpt lat="44.40056" lon="7.16752">
        <ele>1792.03</ele>
        <time>2021-03-08T07:41:07Z</time>
      </trkpt>
      <trkpt lat="44.40056" lon="7.16734">
        <ele>1793.96</ele>
        <time>2021-03-08T07:41:20Z</time>
      </trkpt>
      <trkpt lat="44.40057" lon="7.16729">
        <ele>1793.96</ele>
        <time>2021-03-08T07:41:23Z</time>
      </trkpt>
      <trkpt lat="44.40058" lon="7.16726">
        <ele>1794.44</ele>
        <time>2021-03-08T07:41:25Z</time>
      </trkpt>
      <trkpt lat="44.40061" lon="7.16716">
        <ele>1795.4</ele>
        <time>2021-03-08T07:41:34Z</time>
      </trkpt>
      <trkpt lat="44.40073" lon="7.16703">
        <ele>1799.73</ele>
        <time>2021-03-08T07:41:50Z</time>
      </trkpt>
      <trkpt lat="44.40084" lon="7.1669">
        <ele>1802.13</ele>
        <time>2021-03-08T07:42:04Z</time>
      </trkpt>
      <trkpt lat="44.40095" lon="7.16682">
        <ele>1805.49</ele>
        <time>2021-03-08T07:42:17Z</time>
      </trkpt>
      <trkpt lat="44.4011" lon="7.16673">
        <ele>1808.38</ele>
        <time>2021-03-08T07:42:33Z</time>
      </trkpt>
      <trkpt lat="44.40128" lon="7.16667">
        <ele>1808.86</ele>
        <time>2021-03-08T07:42:48Z</time>
      </trkpt>
      <trkpt lat="44.40149" lon="7.16655">
        <ele>1809.34</ele>
        <time>2021-03-08T07:43:06Z</time>
      </trkpt>
      <trkpt lat="44.40155" lon="7.1665">
        <ele>1810.3</ele>
        <time>2021-03-08T07:43:13Z</time>
      </trkpt>
      <trkpt lat="44.40166" lon="7.16646">
        <ele>1811.74</ele>
        <time>2021-03-08T07:43:24Z</time>
      </trkpt>
      <trkpt lat="44.40181" lon="7.16645">
        <ele>1814.63</ele>
        <time>2021-03-08T07:43:38Z</time>
      </trkpt>
      <trkpt lat="44.40197" lon="7.16641">
        <ele>1814.15</ele>
        <time>2021-03-08T07:43:52Z</time>
      </trkpt>
      <trkpt lat="44.40213" lon="7.16629">
        <ele>1814.63</ele>
        <time>2021-03-08T07:44:06Z</time>
      </trkpt>
      <trkpt lat="44.40214" lon="7.16605">
        <ele>1813.66</ele>
        <time>2021-03-08T07:44:21Z</time>
      </trkpt>
      <trkpt lat="44.40202" lon="7.16582">
        <ele>1813.66</ele>
        <time>2021-03-08T07:44:37Z</time>
      </trkpt>
      <trkpt lat="44.40207" lon="7.16552">
        <ele>1811.74</ele>
        <time>2021-03-08T07:44:55Z</time>
      </trkpt>
      <trkpt lat="44.40214" lon="7.16526">
        <ele>1811.74</ele>
        <time>2021-03-08T07:45:11Z</time>
      </trkpt>
      <trkpt lat="44.4022" lon="7.16491">
        <ele>1810.3</ele>
        <time>2021-03-08T07:45:30Z</time>
      </trkpt>
      <trkpt lat="44.40219" lon="7.16454">
        <ele>1809.34</ele>
        <time>2021-03-08T07:45:50Z</time>
      </trkpt>
      <trkpt lat="44.40201" lon="7.16429">
        <ele>1809.82</ele>
        <time>2021-03-08T07:46:08Z</time>
      </trkpt>
      <trkpt lat="44.40184" lon="7.16416">
        <ele>1810.3</ele>
        <time>2021-03-08T07:46:22Z</time>
      </trkpt>
      <trkpt lat="44.40165" lon="7.16406">
        <ele>1810.3</ele>
        <time>2021-03-08T07:46:37Z</time>
      </trkpt>
      <trkpt lat="44.40145" lon="7.16409">
        <ele>1810.78</ele>
        <time>2021-03-08T07:46:55Z</time>
      </trkpt>
      <trkpt lat="44.40123" lon="7.16409">
        <ele>1811.74</ele>
        <time>2021-03-08T07:47:12Z</time>
      </trkpt>
      <trkpt lat="44.40103" lon="7.164">
        <ele>1814.15</ele>
        <time>2021-03-08T07:47:30Z</time>
      </trkpt>
      <trkpt lat="44.4009" lon="7.16384">
        <ele>1813.18</ele>
        <time>2021-03-08T07:47:45Z</time>
      </trkpt>
      <trkpt lat="44.40073" lon="7.16367">
        <ele>1815.59</ele>
        <time>2021-03-08T07:48:02Z</time>
      </trkpt>
      <trkpt lat="44.40063" lon="7.16364">
        <ele>1816.55</ele>
        <time>2021-03-08T07:48:10Z</time>
      </trkpt>
      <trkpt lat="44.40041" lon="7.1636">
        <ele>1819.43</ele>
        <time>2021-03-08T07:48:29Z</time>
      </trkpt>
      <trkpt lat="44.40028" lon="7.16365">
        <ele>1818.95</ele>
        <time>2021-03-08T07:48:42Z</time>
      </trkpt>
      <trkpt lat="44.40025" lon="7.16366">
        <ele>1818.95</ele>
        <time>2021-03-08T07:48:44Z</time>
      </trkpt>
      <trkpt lat="44.40021" lon="7.16369">
        <ele>1818.47</ele>
        <time>2021-03-08T07:48:48Z</time>
      </trkpt>
      <trkpt lat="44.40002" lon="7.16373">
        <ele>1819.43</ele>
        <time>2021-03-08T07:49:05Z</time>
      </trkpt>
      <trkpt lat="44.39986" lon="7.16353">
        <ele>1819.43</ele>
        <time>2021-03-08T07:49:21Z</time>
      </trkpt>
      <trkpt lat="44.39983" lon="7.16349">
        <ele>1819.43</ele>
        <time>2021-03-08T07:49:25Z</time>
      </trkpt>
      <trkpt lat="44.39959" lon="7.16336">
        <ele>1820.39</ele>
        <time>2021-03-08T07:49:44Z</time>
      </trkpt>
      <trkpt lat="44.39935" lon="7.16328">
        <ele>1823.28</ele>
        <time>2021-03-08T07:50:03Z</time>
      </trkpt>
      <trkpt lat="44.39923" lon="7.16324">
        <ele>1823.76</ele>
        <time>2021-03-08T07:50:13Z</time>
      </trkpt>
      <trkpt lat="44.39907" lon="7.16312">
        <ele>1822.32</ele>
        <time>2021-03-08T07:50:30Z</time>
      </trkpt>
      <trkpt lat="44.39889" lon="7.16301">
        <ele>1822.32</ele>
        <time>2021-03-08T07:50:47Z</time>
      </trkpt>
      <trkpt lat="44.39878" lon="7.163">
        <ele>1819.43</ele>
        <time>2021-03-08T07:51:01Z</time>
      </trkpt>
      <trkpt lat="44.39872" lon="7.16302">
        <ele>1820.39</ele>
        <time>2021-03-08T07:51:12Z</time>
      </trkpt>
      <trkpt lat="44.39866" lon="7.16301">
        <ele>1821.84</ele>
        <time>2021-03-08T07:51:19Z</time>
      </trkpt>
      <trkpt lat="44.39862" lon="7.163">
        <ele>1822.8</ele>
        <time>2021-03-08T07:51:23Z</time>
      </trkpt>
      <trkpt lat="44.39845" lon="7.16291">
        <ele>1824.72</ele>
        <time>2021-03-08T07:51:39Z</time>
      </trkpt>
      <trkpt lat="44.39829" lon="7.16278">
        <ele>1827.12</ele>
        <time>2021-03-08T07:51:56Z</time>
      </trkpt>
      <trkpt lat="44.3982" lon="7.16265">
        <ele>1828.08</ele>
        <time>2021-03-08T07:52:08Z</time>
      </trkpt>
      <trkpt lat="44.39815" lon="7.16257">
        <ele>1829.05</ele>
        <time>2021-03-08T07:52:23Z</time>
      </trkpt>
      <trkpt lat="44.39812" lon="7.1625">
        <ele>1830.01</ele>
        <time>2021-03-08T07:52:33Z</time>
      </trkpt>
      <trkpt lat="44.39806" lon="7.16229">
        <ele>1830.97</ele>
        <time>2021-03-08T07:52:48Z</time>
      </trkpt>
      <trkpt lat="44.39802" lon="7.1622">
        <ele>1832.41</ele>
        <time>2021-03-08T07:53:01Z</time>
      </trkpt>
      <trkpt lat="44.39801" lon="7.16219">
        <ele>1832.41</ele>
        <time>2021-03-08T07:53:02Z</time>
      </trkpt>
      <trkpt lat="44.39794" lon="7.16206">
        <ele>1833.85</ele>
        <time>2021-03-08T07:53:13Z</time>
      </trkpt>
      <trkpt lat="44.39793" lon="7.16204">
        <ele>1834.33</ele>
        <time>2021-03-08T07:53:15Z</time>
      </trkpt>
      <trkpt lat="44.39791" lon="7.162">
        <ele>1835.29</ele>
        <time>2021-03-08T07:53:18Z</time>
      </trkpt>
      <trkpt lat="44.3979" lon="7.16198">
        <ele>1835.77</ele>
        <time>2021-03-08T07:53:20Z</time>
      </trkpt>
      <trkpt lat="44.39789" lon="7.16194">
        <ele>1835.77</ele>
        <time>2021-03-08T07:53:23Z</time>
      </trkpt>
      <trkpt lat="44.39781" lon="7.16178">
        <ele>1838.66</ele>
        <time>2021-03-08T07:53:36Z</time>
      </trkpt>
      <trkpt lat="44.3977" lon="7.16162">
        <ele>1841.06</ele>
        <time>2021-03-08T07:53:52Z</time>
      </trkpt>
      <trkpt lat="44.39764" lon="7.16145">
        <ele>1840.1</ele>
        <time>2021-03-08T07:54:06Z</time>
      </trkpt>
      <trkpt lat="44.39763" lon="7.1614">
        <ele>1840.1</ele>
        <time>2021-03-08T07:54:10Z</time>
      </trkpt>
      <trkpt lat="44.39761" lon="7.16119">
        <ele>1842.02</ele>
        <time>2021-03-08T07:54:25Z</time>
      </trkpt>
      <trkpt lat="44.39758" lon="7.16102">
        <ele>1844.91</ele>
        <time>2021-03-08T07:54:38Z</time>
      </trkpt>
      <trkpt lat="44.39755" lon="7.16087">
        <ele>1847.31</ele>
        <time>2021-03-08T07:54:50Z</time>
      </trkpt>
      <trkpt lat="44.39753" lon="7.16083">
        <ele>1847.79</ele>
        <time>2021-03-08T07:54:53Z</time>
      </trkpt>
      <trkpt lat="44.39752" lon="7.16081">
        <ele>1847.79</ele>
        <time>2021-03-08T07:54:55Z</time>
      </trkpt>
      <trkpt lat="44.39751" lon="7.16077">
        <ele>1848.75</ele>
        <time>2021-03-08T07:55:07Z</time>
      </trkpt>
      <trkpt lat="44.39752" lon="7.16078">
        <ele>1850.68</ele>
        <time>2021-03-08T07:55:27Z</time>
      </trkpt>
      <trkpt lat="44.39748" lon="7.16075">
        <ele>1851.64</ele>
        <time>2021-03-08T07:55:40Z</time>
      </trkpt>
      <trkpt lat="44.39745" lon="7.16066">
        <ele>1853.08</ele>
        <time>2021-03-08T07:55:51Z</time>
      </trkpt>
      <trkpt lat="44.39744" lon="7.16064">
        <ele>1853.08</ele>
        <time>2021-03-08T07:55:53Z</time>
      </trkpt>
      <trkpt lat="44.39734" lon="7.16047">
        <ele>1855.48</ele>
        <time>2021-03-08T07:56:10Z</time>
      </trkpt>
      <trkpt lat="44.39727" lon="7.16044">
        <ele>1856.92</ele>
        <time>2021-03-08T07:56:21Z</time>
      </trkpt>
      <trkpt lat="44.39719" lon="7.16042">
        <ele>1858.37</ele>
        <time>2021-03-08T07:56:35Z</time>
      </trkpt>
      <trkpt lat="44.3971" lon="7.16042">
        <ele>1860.29</ele>
        <time>2021-03-08T07:56:49Z</time>
      </trkpt>
      <trkpt lat="44.39709" lon="7.16042">
        <ele>1860.29</ele>
        <time>2021-03-08T07:56:51Z</time>
      </trkpt>
      <trkpt lat="44.39707" lon="7.16041">
        <ele>1860.29</ele>
        <time>2021-03-08T07:56:53Z</time>
      </trkpt>
      <trkpt lat="44.39703" lon="7.16038">
        <ele>1861.25</ele>
        <time>2021-03-08T07:56:58Z</time>
      </trkpt>
      <trkpt lat="44.397" lon="7.16032">
        <ele>1860.77</ele>
        <time>2021-03-08T07:57:03Z</time>
      </trkpt>
      <trkpt lat="44.39696" lon="7.16015">
        <ele>1860.77</ele>
        <time>2021-03-08T07:57:18Z</time>
      </trkpt>
      <trkpt lat="44.39693" lon="7.15996">
        <ele>1861.73</ele>
        <time>2021-03-08T07:57:33Z</time>
      </trkpt>
      <trkpt lat="44.39691" lon="7.15981">
        <ele>1863.17</ele>
        <time>2021-03-08T07:57:46Z</time>
      </trkpt>
      <trkpt lat="44.39691" lon="7.15978">
        <ele>1863.65</ele>
        <time>2021-03-08T07:57:48Z</time>
      </trkpt>
      <trkpt lat="44.39691" lon="7.15975">
        <ele>1863.65</ele>
        <time>2021-03-08T07:57:50Z</time>
      </trkpt>
      <trkpt lat="44.39691" lon="7.15967">
        <ele>1865.09</ele>
        <time>2021-03-08T07:57:57Z</time>
      </trkpt>
      <trkpt lat="44.3969" lon="7.15957">
        <ele>1865.58</ele>
        <time>2021-03-08T07:58:04Z</time>
      </trkpt>
      <trkpt lat="44.39689" lon="7.15954">
        <ele>1866.06</ele>
        <time>2021-03-08T07:58:06Z</time>
      </trkpt>
      <trkpt lat="44.39689" lon="7.15935">
        <ele>1868.94</ele>
        <time>2021-03-08T07:58:21Z</time>
      </trkpt>
      <trkpt lat="44.39684" lon="7.15928">
        <ele>1869.9</ele>
        <time>2021-03-08T07:58:27Z</time>
      </trkpt>
      <trkpt lat="44.39681" lon="7.15926">
        <ele>1870.86</ele>
        <time>2021-03-08T07:58:30Z</time>
      </trkpt>
      <trkpt lat="44.39678" lon="7.15921">
        <ele>1870.86</ele>
        <time>2021-03-08T07:58:36Z</time>
      </trkpt>
      <trkpt lat="44.39671" lon="7.1591">
        <ele>1871.82</ele>
        <time>2021-03-08T07:58:48Z</time>
      </trkpt>
      <trkpt lat="44.39663" lon="7.159">
        <ele>1873.27</ele>
        <time>2021-03-08T07:59:00Z</time>
      </trkpt>
      <trkpt lat="44.39656" lon="7.15889">
        <ele>1874.23</ele>
        <time>2021-03-08T07:59:12Z</time>
      </trkpt>
      <trkpt lat="44.3965" lon="7.15884">
        <ele>1875.67</ele>
        <time>2021-03-08T07:59:25Z</time>
      </trkpt>
      <trkpt lat="44.3965" lon="7.15882">
        <ele>1876.15</ele>
        <time>2021-03-08T07:59:40Z</time>
      </trkpt>
      <trkpt lat="44.39649" lon="7.1588">
        <ele>1877.11</ele>
        <time>2021-03-08T07:59:48Z</time>
      </trkpt>
      <trkpt lat="44.39644" lon="7.15876">
        <ele>1879.03</ele>
        <time>2021-03-08T07:59:55Z</time>
      </trkpt>
      <trkpt lat="44.39628" lon="7.15875">
        <ele>1881.44</ele>
        <time>2021-03-08T08:00:11Z</time>
      </trkpt>
      <trkpt lat="44.39627" lon="7.15875">
        <ele>1881.44</ele>
        <time>2021-03-08T08:00:14Z</time>
      </trkpt>
      <trkpt lat="44.39625" lon="7.15875">
        <ele>1881.92</ele>
        <time>2021-03-08T08:00:16Z</time>
      </trkpt>
      <trkpt lat="44.39613" lon="7.15875">
        <ele>1882.4</ele>
        <time>2021-03-08T08:00:30Z</time>
      </trkpt>
      <trkpt lat="44.39602" lon="7.15873">
        <ele>1883.84</ele>
        <time>2021-03-08T08:00:44Z</time>
      </trkpt>
      <trkpt lat="44.39593" lon="7.15865">
        <ele>1884.32</ele>
        <time>2021-03-08T08:00:59Z</time>
      </trkpt>
      <trkpt lat="44.39583" lon="7.15854">
        <ele>1884.32</ele>
        <time>2021-03-08T08:01:15Z</time>
      </trkpt>
      <trkpt lat="44.39583" lon="7.15853">
        <ele>1884.32</ele>
        <time>2021-03-08T08:01:16Z</time>
      </trkpt>
      <trkpt lat="44.39577" lon="7.15841">
        <ele>1885.76</ele>
        <time>2021-03-08T08:01:28Z</time>
      </trkpt>
      <trkpt lat="44.39575" lon="7.15836">
        <ele>1885.28</ele>
        <time>2021-03-08T08:01:31Z</time>
      </trkpt>
      <trkpt lat="44.39572" lon="7.15816">
        <ele>1885.76</ele>
        <time>2021-03-08T08:01:46Z</time>
      </trkpt>
      <trkpt lat="44.39574" lon="7.1581">
        <ele>1886.24</ele>
        <time>2021-03-08T08:01:51Z</time>
      </trkpt>
      <trkpt lat="44.39576" lon="7.15807">
        <ele>1886.24</ele>
        <time>2021-03-08T08:01:54Z</time>
      </trkpt>
      <trkpt lat="44.39579" lon="7.15802">
        <ele>1887.21</ele>
        <time>2021-03-08T08:02:06Z</time>
      </trkpt>
      <trkpt lat="44.39586" lon="7.15786">
        <ele>1888.65</ele>
        <time>2021-03-08T08:02:19Z</time>
      </trkpt>
      <trkpt lat="44.39591" lon="7.15773">
        <ele>1890.09</ele>
        <time>2021-03-08T08:02:30Z</time>
      </trkpt>
      <trkpt lat="44.39597" lon="7.15756">
        <ele>1892.01</ele>
        <time>2021-03-08T08:02:45Z</time>
      </trkpt>
      <trkpt lat="44.39598" lon="7.15739">
        <ele>1893.45</ele>
        <time>2021-03-08T08:02:57Z</time>
      </trkpt>
      <trkpt lat="44.39597" lon="7.15721">
        <ele>1895.38</ele>
        <time>2021-03-08T08:03:10Z</time>
      </trkpt>
      <trkpt lat="44.39595" lon="7.15718">
        <ele>1896.34</ele>
        <time>2021-03-08T08:03:13Z</time>
      </trkpt>
      <trkpt lat="44.39589" lon="7.157">
        <ele>1898.26</ele>
        <time>2021-03-08T08:03:28Z</time>
      </trkpt>
      <trkpt lat="44.39582" lon="7.15688">
        <ele>1900.18</ele>
        <time>2021-03-08T08:03:40Z</time>
      </trkpt>
      <trkpt lat="44.3958" lon="7.15685">
        <ele>1900.66</ele>
        <time>2021-03-08T08:03:43Z</time>
      </trkpt>
      <trkpt lat="44.39579" lon="7.15665">
        <ele>1901.14</ele>
        <time>2021-03-08T08:03:58Z</time>
      </trkpt>
      <trkpt lat="44.3958" lon="7.1564">
        <ele>1902.59</ele>
        <time>2021-03-08T08:04:13Z</time>
      </trkpt>
      <trkpt lat="44.39581" lon="7.15628">
        <ele>1902.59</ele>
        <time>2021-03-08T08:04:22Z</time>
      </trkpt>
      <trkpt lat="44.3958" lon="7.15626">
        <ele>1902.59</ele>
        <time>2021-03-08T08:04:24Z</time>
      </trkpt>
      <trkpt lat="44.39581" lon="7.15602">
        <ele>1903.07</ele>
        <time>2021-03-08T08:04:42Z</time>
      </trkpt>
      <trkpt lat="44.39585" lon="7.15587">
        <ele>1903.07</ele>
        <time>2021-03-08T08:04:54Z</time>
      </trkpt>
      <trkpt lat="44.39586" lon="7.15585">
        <ele>1902.59</ele>
        <time>2021-03-08T08:04:56Z</time>
      </trkpt>
      <trkpt lat="44.39593" lon="7.15572">
        <ele>1903.55</ele>
        <time>2021-03-08T08:05:09Z</time>
      </trkpt>
      <trkpt lat="44.39605" lon="7.15555">
        <ele>1904.99</ele>
        <time>2021-03-08T08:05:24Z</time>
      </trkpt>
      <trkpt lat="44.39604" lon="7.1554">
        <ele>1904.03</ele>
        <time>2021-03-08T08:05:33Z</time>
      </trkpt>
      <trkpt lat="44.39601" lon="7.15519">
        <ele>1904.99</ele>
        <time>2021-03-08T08:05:47Z</time>
      </trkpt>
      <trkpt lat="44.39602" lon="7.15511">
        <ele>1905.95</ele>
        <time>2021-03-08T08:05:52Z</time>
      </trkpt>
      <trkpt lat="44.39602" lon="7.15482">
        <ele>1906.43</ele>
        <time>2021-03-08T08:06:09Z</time>
      </trkpt>
      <trkpt lat="44.39597" lon="7.15457">
        <ele>1908.35</ele>
        <time>2021-03-08T08:06:25Z</time>
      </trkpt>
      <trkpt lat="44.39592" lon="7.15435">
        <ele>1909.32</ele>
        <time>2021-03-08T08:06:40Z</time>
      </trkpt>
      <trkpt lat="44.39591" lon="7.15432">
        <ele>1909.32</ele>
        <time>2021-03-08T08:06:42Z</time>
      </trkpt>
      <trkpt lat="44.39586" lon="7.15416">
        <ele>1911.24</ele>
        <time>2021-03-08T08:06:57Z</time>
      </trkpt>
      <trkpt lat="44.39583" lon="7.15414">
        <ele>1911.72</ele>
        <time>2021-03-08T08:07:13Z</time>
      </trkpt>
      <trkpt lat="44.39584" lon="7.15412">
        <ele>1909.32</ele>
        <time>2021-03-08T08:07:32Z</time>
      </trkpt>
      <trkpt lat="44.39583" lon="7.15414">
        <ele>1912.2</ele>
        <time>2021-03-08T08:07:53Z</time>
      </trkpt>
      <trkpt lat="44.39583" lon="7.15412">
        <ele>1911.24</ele>
        <time>2021-03-08T08:08:17Z</time>
      </trkpt>
      <trkpt lat="44.39583" lon="7.15412">
        <ele>1910.76</ele>
        <time>2021-03-08T08:08:51Z</time>
      </trkpt>
      <trkpt lat="44.39583" lon="7.15412">
        <ele>1912.68</ele>
        <time>2021-03-08T08:09:24Z</time>
      </trkpt>
      <trkpt lat="44.39585" lon="7.15414">
        <ele>1915.56</ele>
        <time>2021-03-08T08:10:00Z</time>
      </trkpt>
      <trkpt lat="44.39583" lon="7.15413">
        <ele>1915.56</ele>
        <time>2021-03-08T08:10:28Z</time>
      </trkpt>
      <trkpt lat="44.39584" lon="7.15413">
        <ele>1911.24</ele>
        <time>2021-03-08T08:10:57Z</time>
      </trkpt>
      <trkpt lat="44.39582" lon="7.15414">
        <ele>1910.76</ele>
        <time>2021-03-08T08:11:30Z</time>
      </trkpt>
      <trkpt lat="44.39584" lon="7.15413">
        <ele>1907.87</ele>
        <time>2021-03-08T08:11:55Z</time>
      </trkpt>
      <trkpt lat="44.39584" lon="7.15413">
        <ele>1908.35</ele>
        <time>2021-03-08T08:12:25Z</time>
      </trkpt>
      <trkpt lat="44.39586" lon="7.15412">
        <ele>1908.83</ele>
        <time>2021-03-08T08:12:38Z</time>
      </trkpt>
      <trkpt lat="44.39584" lon="7.15412">
        <ele>1909.8</ele>
        <time>2021-03-08T08:12:56Z</time>
      </trkpt>
      <trkpt lat="44.39581" lon="7.15407">
        <ele>1910.76</ele>
        <time>2021-03-08T08:13:13Z</time>
      </trkpt>
      <trkpt lat="44.39574" lon="7.15396">
        <ele>1911.24</ele>
        <time>2021-03-08T08:13:25Z</time>
      </trkpt>
      <trkpt lat="44.3957" lon="7.15392">
        <ele>1910.76</ele>
        <time>2021-03-08T08:13:29Z</time>
      </trkpt>
      <trkpt lat="44.39562" lon="7.15387">
        <ele>1909.8</ele>
        <time>2021-03-08T08:13:44Z</time>
      </trkpt>
      <trkpt lat="44.39558" lon="7.15386">
        <ele>1910.76</ele>
        <time>2021-03-08T08:13:50Z</time>
      </trkpt>
      <trkpt lat="44.39555" lon="7.15385">
        <ele>1910.28</ele>
        <time>2021-03-08T08:13:55Z</time>
      </trkpt>
      <trkpt lat="44.39542" lon="7.15383">
        <ele>1911.72</ele>
        <time>2021-03-08T08:14:11Z</time>
      </trkpt>
      <trkpt lat="44.39529" lon="7.1538">
        <ele>1912.2</ele>
        <time>2021-03-08T08:14:25Z</time>
      </trkpt>
      <trkpt lat="44.39517" lon="7.15375">
        <ele>1914.6</ele>
        <time>2021-03-08T08:14:41Z</time>
      </trkpt>
      <trkpt lat="44.39507" lon="7.1537">
        <ele>1914.12</ele>
        <time>2021-03-08T08:14:57Z</time>
      </trkpt>
      <trkpt lat="44.39504" lon="7.15367">
        <ele>1915.56</ele>
        <time>2021-03-08T08:15:02Z</time>
      </trkpt>
      <trkpt lat="44.3949" lon="7.15362">
        <ele>1917.49</ele>
        <time>2021-03-08T08:15:20Z</time>
      </trkpt>
      <trkpt lat="44.39484" lon="7.15358">
        <ele>1916.53</ele>
        <time>2021-03-08T08:15:32Z</time>
      </trkpt>
      <trkpt lat="44.39482" lon="7.1535">
        <ele>1917.01</ele>
        <time>2021-03-08T08:15:44Z</time>
      </trkpt>
      <trkpt lat="44.39479" lon="7.15346">
        <ele>1918.45</ele>
        <time>2021-03-08T08:15:48Z</time>
      </trkpt>
      <trkpt lat="44.39467" lon="7.15335">
        <ele>1921.33</ele>
        <time>2021-03-08T08:16:03Z</time>
      </trkpt>
      <trkpt lat="44.3946" lon="7.15327">
        <ele>1923.25</ele>
        <time>2021-03-08T08:16:15Z</time>
      </trkpt>
      <trkpt lat="44.39451" lon="7.15321">
        <ele>1923.25</ele>
        <time>2021-03-08T08:16:28Z</time>
      </trkpt>
      <trkpt lat="44.3945" lon="7.15321">
        <ele>1923.25</ele>
        <time>2021-03-08T08:16:29Z</time>
      </trkpt>
      <trkpt lat="44.39438" lon="7.15323">
        <ele>1925.18</ele>
        <time>2021-03-08T08:16:44Z</time>
      </trkpt>
      <trkpt lat="44.39428" lon="7.15327">
        <ele>1926.14</ele>
        <time>2021-03-08T08:16:56Z</time>
      </trkpt>
      <trkpt lat="44.39423" lon="7.15328">
        <ele>1927.1</ele>
        <time>2021-03-08T08:17:02Z</time>
      </trkpt>
      <trkpt lat="44.39416" lon="7.15317">
        <ele>1926.62</ele>
        <time>2021-03-08T08:17:16Z</time>
      </trkpt>
      <trkpt lat="44.39407" lon="7.15303">
        <ele>1928.06</ele>
        <time>2021-03-08T08:17:30Z</time>
      </trkpt>
      <trkpt lat="44.39402" lon="7.15293">
        <ele>1927.1</ele>
        <time>2021-03-08T08:17:44Z</time>
      </trkpt>
      <trkpt lat="44.39393" lon="7.15281">
        <ele>1929.02</ele>
        <time>2021-03-08T08:17:59Z</time>
      </trkpt>
      <trkpt lat="44.39385" lon="7.1527">
        <ele>1929.5</ele>
        <time>2021-03-08T08:18:13Z</time>
      </trkpt>
      <trkpt lat="44.39374" lon="7.15263">
        <ele>1930.95</ele>
        <time>2021-03-08T08:18:28Z</time>
      </trkpt>
      <trkpt lat="44.39363" lon="7.15261">
        <ele>1932.39</ele>
        <time>2021-03-08T08:18:41Z</time>
      </trkpt>
      <trkpt lat="44.3935" lon="7.15258">
        <ele>1934.31</ele>
        <time>2021-03-08T08:18:58Z</time>
      </trkpt>
      <trkpt lat="44.39342" lon="7.15249">
        <ele>1936.71</ele>
        <time>2021-03-08T08:19:12Z</time>
      </trkpt>
      <trkpt lat="44.39339" lon="7.15239">
        <ele>1937.19</ele>
        <time>2021-03-08T08:19:26Z</time>
      </trkpt>
      <trkpt lat="44.39341" lon="7.1523">
        <ele>1938.64</ele>
        <time>2021-03-08T08:19:39Z</time>
      </trkpt>
      <trkpt lat="44.39343" lon="7.15223">
        <ele>1940.08</ele>
        <time>2021-03-08T08:19:52Z</time>
      </trkpt>
      <trkpt lat="44.39349" lon="7.15209">
        <ele>1942.96</ele>
        <time>2021-03-08T08:20:07Z</time>
      </trkpt>
      <trkpt lat="44.3935" lon="7.15205">
        <ele>1943.92</ele>
        <time>2021-03-08T08:20:12Z</time>
      </trkpt>
      <trkpt lat="44.39352" lon="7.15187">
        <ele>1944.88</ele>
        <time>2021-03-08T08:20:26Z</time>
      </trkpt>
      <trkpt lat="44.39356" lon="7.15173">
        <ele>1946.33</ele>
        <time>2021-03-08T08:20:42Z</time>
      </trkpt>
      <trkpt lat="44.39356" lon="7.15172">
        <ele>1945.36</ele>
        <time>2021-03-08T08:20:44Z</time>
      </trkpt>
      <trkpt lat="44.39362" lon="7.15156">
        <ele>1944.4</ele>
        <time>2021-03-08T08:21:00Z</time>
      </trkpt>
      <trkpt lat="44.39363" lon="7.15153">
        <ele>1944.88</ele>
        <time>2021-03-08T08:21:03Z</time>
      </trkpt>
      <trkpt lat="44.39368" lon="7.15136">
        <ele>1945.36</ele>
        <time>2021-03-08T08:21:17Z</time>
      </trkpt>
      <trkpt lat="44.39368" lon="7.15131">
        <ele>1945.85</ele>
        <time>2021-03-08T08:21:22Z</time>
      </trkpt>
      <trkpt lat="44.39365" lon="7.15122">
        <ele>1947.77</ele>
        <time>2021-03-08T08:21:30Z</time>
      </trkpt>
      <trkpt lat="44.39362" lon="7.15115">
        <ele>1948.73</ele>
        <time>2021-03-08T08:21:45Z</time>
      </trkpt>
      <trkpt lat="44.39362" lon="7.15115">
        <ele>1948.25</ele>
        <time>2021-03-08T08:21:46Z</time>
      </trkpt>
      <trkpt lat="44.3935" lon="7.15113">
        <ele>1949.21</ele>
        <time>2021-03-08T08:22:00Z</time>
      </trkpt>
      <trkpt lat="44.39338" lon="7.1511">
        <ele>1951.13</ele>
        <time>2021-03-08T08:22:13Z</time>
      </trkpt>
      <trkpt lat="44.39326" lon="7.151">
        <ele>1952.09</ele>
        <time>2021-03-08T08:22:27Z</time>
      </trkpt>
      <trkpt lat="44.39314" lon="7.1509">
        <ele>1953.54</ele>
        <time>2021-03-08T08:22:41Z</time>
      </trkpt>
      <trkpt lat="44.39304" lon="7.15085">
        <ele>1954.98</ele>
        <time>2021-03-08T08:22:52Z</time>
      </trkpt>
      <trkpt lat="44.39291" lon="7.15083">
        <ele>1956.42</ele>
        <time>2021-03-08T08:23:06Z</time>
      </trkpt>
      <trkpt lat="44.39278" lon="7.15083">
        <ele>1957.38</ele>
        <time>2021-03-08T08:23:21Z</time>
      </trkpt>
      <trkpt lat="44.39267" lon="7.15084">
        <ele>1958.82</ele>
        <time>2021-03-08T08:23:34Z</time>
      </trkpt>
      <trkpt lat="44.39255" lon="7.15085">
        <ele>1959.78</ele>
        <time>2021-03-08T08:23:48Z</time>
      </trkpt>
      <trkpt lat="44.39245" lon="7.1508">
        <ele>1960.75</ele>
        <time>2021-03-08T08:24:03Z</time>
      </trkpt>
      <trkpt lat="44.39235" lon="7.15079">
        <ele>1959.78</ele>
        <time>2021-03-08T08:24:14Z</time>
      </trkpt>
      <trkpt lat="44.39228" lon="7.15078">
        <ele>1960.27</ele>
        <time>2021-03-08T08:24:22Z</time>
      </trkpt>
      <trkpt lat="44.39215" lon="7.15081">
        <ele>1960.75</ele>
        <time>2021-03-08T08:24:36Z</time>
      </trkpt>
      <trkpt lat="44.39204" lon="7.15087">
        <ele>1962.19</ele>
        <time>2021-03-08T08:24:50Z</time>
      </trkpt>
      <trkpt lat="44.39198" lon="7.15088">
        <ele>1963.15</ele>
        <time>2021-03-08T08:24:57Z</time>
      </trkpt>
      <trkpt lat="44.39189" lon="7.1508">
        <ele>1965.07</ele>
        <time>2021-03-08T08:25:08Z</time>
      </trkpt>
      <trkpt lat="44.39181" lon="7.15068">
        <ele>1967.96</ele>
        <time>2021-03-08T08:25:25Z</time>
      </trkpt>
      <trkpt lat="44.39176" lon="7.15061">
        <ele>1969.88</ele>
        <time>2021-03-08T08:25:37Z</time>
      </trkpt>
      <trkpt lat="44.39174" lon="7.15059">
        <ele>1973.24</ele>
        <time>2021-03-08T08:25:54Z</time>
      </trkpt>
      <trkpt lat="44.39174" lon="7.15054">
        <ele>1973.72</ele>
        <time>2021-03-08T08:26:16Z</time>
      </trkpt>
      <trkpt lat="44.39174" lon="7.15059">
        <ele>1971.8</ele>
        <time>2021-03-08T08:26:27Z</time>
      </trkpt>
      <trkpt lat="44.39175" lon="7.15059">
        <ele>1971.8</ele>
        <time>2021-03-08T08:26:36Z</time>
      </trkpt>
      <trkpt lat="44.39172" lon="7.1506">
        <ele>1973.72</ele>
        <time>2021-03-08T08:26:52Z</time>
      </trkpt>
      <trkpt lat="44.3917" lon="7.15061">
        <ele>1970.84</ele>
        <time>2021-03-08T08:27:05Z</time>
      </trkpt>
      <trkpt lat="44.39172" lon="7.15061">
        <ele>1969.88</ele>
        <time>2021-03-08T08:27:22Z</time>
      </trkpt>
      <trkpt lat="44.39171" lon="7.15061">
        <ele>1969.4</ele>
        <time>2021-03-08T08:27:36Z</time>
      </trkpt>
      <trkpt lat="44.39166" lon="7.15055">
        <ele>1967.96</ele>
        <time>2021-03-08T08:27:58Z</time>
      </trkpt>
      <trkpt lat="44.39161" lon="7.15042">
        <ele>1967.96</ele>
        <time>2021-03-08T08:28:13Z</time>
      </trkpt>
      <trkpt lat="44.39155" lon="7.15033">
        <ele>1969.4</ele>
        <time>2021-03-08T08:28:29Z</time>
      </trkpt>
      <trkpt lat="44.39146" lon="7.15022">
        <ele>1967.48</ele>
        <time>2021-03-08T08:28:45Z</time>
      </trkpt>
      <trkpt lat="44.39141" lon="7.15012">
        <ele>1971.32</ele>
        <time>2021-03-08T08:29:03Z</time>
      </trkpt>
      <trkpt lat="44.39137" lon="7.15004">
        <ele>1979.01</ele>
        <time>2021-03-08T08:29:17Z</time>
      </trkpt>
      <trkpt lat="44.39137" lon="7.14998">
        <ele>1981.9</ele>
        <time>2021-03-08T08:29:31Z</time>
      </trkpt>
      <trkpt lat="44.39137" lon="7.14992">
        <ele>1983.82</ele>
        <time>2021-03-08T08:29:36Z</time>
      </trkpt>
      <trkpt lat="44.39141" lon="7.14977">
        <ele>1984.78</ele>
        <time>2021-03-08T08:29:50Z</time>
      </trkpt>
      <trkpt lat="44.39141" lon="7.14976">
        <ele>1985.26</ele>
        <time>2021-03-08T08:29:52Z</time>
      </trkpt>
      <trkpt lat="44.39147" lon="7.14968">
        <ele>1985.74</ele>
        <time>2021-03-08T08:30:03Z</time>
      </trkpt>
      <trkpt lat="44.39158" lon="7.14962">
        <ele>1985.74</ele>
        <time>2021-03-08T08:30:17Z</time>
      </trkpt>
      <trkpt lat="44.39163" lon="7.14962">
        <ele>1987.18</ele>
        <time>2021-03-08T08:30:29Z</time>
      </trkpt>
      <trkpt lat="44.39161" lon="7.14956">
        <ele>1986.7</ele>
        <time>2021-03-08T08:30:42Z</time>
      </trkpt>
      <trkpt lat="44.39156" lon="7.14946">
        <ele>1988.62</ele>
        <time>2021-03-08T08:30:57Z</time>
      </trkpt>
      <trkpt lat="44.39154" lon="7.14945">
        <ele>1991.99</ele>
        <time>2021-03-08T08:31:15Z</time>
      </trkpt>
      <trkpt lat="44.39162" lon="7.14948">
        <ele>1992.47</ele>
        <time>2021-03-08T08:31:31Z</time>
      </trkpt>
      <trkpt lat="44.39161" lon="7.14946">
        <ele>1993.43</ele>
        <time>2021-03-08T08:31:44Z</time>
      </trkpt>
      <trkpt lat="44.39156" lon="7.14937">
        <ele>1993.91</ele>
        <time>2021-03-08T08:31:57Z</time>
      </trkpt>
      <trkpt lat="44.39156" lon="7.14934">
        <ele>1994.87</ele>
        <time>2021-03-08T08:32:13Z</time>
      </trkpt>
      <trkpt lat="44.39164" lon="7.14934">
        <ele>1994.39</ele>
        <time>2021-03-08T08:32:24Z</time>
      </trkpt>
      <trkpt lat="44.3917" lon="7.14931">
        <ele>1995.83</ele>
        <time>2021-03-08T08:32:38Z</time>
      </trkpt>
      <trkpt lat="44.3916" lon="7.14924">
        <ele>1996.8</ele>
        <time>2021-03-08T08:32:51Z</time>
      </trkpt>
      <trkpt lat="44.39155" lon="7.14919">
        <ele>2001.12</ele>
        <time>2021-03-08T08:33:08Z</time>
      </trkpt>
      <trkpt lat="44.39166" lon="7.1492">
        <ele>2002.08</ele>
        <time>2021-03-08T08:33:25Z</time>
      </trkpt>
      <trkpt lat="44.39174" lon="7.1492">
        <ele>2005.45</ele>
        <time>2021-03-08T08:33:39Z</time>
      </trkpt>
      <trkpt lat="44.39178" lon="7.14917">
        <ele>2005.93</ele>
        <time>2021-03-08T08:33:45Z</time>
      </trkpt>
      <trkpt lat="44.39168" lon="7.14906">
        <ele>2006.89</ele>
        <time>2021-03-08T08:33:58Z</time>
      </trkpt>
      <trkpt lat="44.3917" lon="7.14899">
        <ele>2009.77</ele>
        <time>2021-03-08T08:34:13Z</time>
      </trkpt>
      <trkpt lat="44.39177" lon="7.14895">
        <ele>2008.81</ele>
        <time>2021-03-08T08:34:26Z</time>
      </trkpt>
      <trkpt lat="44.39175" lon="7.14888">
        <ele>2007.37</ele>
        <time>2021-03-08T08:34:38Z</time>
      </trkpt>
      <trkpt lat="44.39177" lon="7.14882">
        <ele>2010.25</ele>
        <time>2021-03-08T08:34:50Z</time>
      </trkpt>
      <trkpt lat="44.3918" lon="7.14874">
        <ele>2011.7</ele>
        <time>2021-03-08T08:35:02Z</time>
      </trkpt>
      <trkpt lat="44.39186" lon="7.14868">
        <ele>2013.62</ele>
        <time>2021-03-08T08:35:15Z</time>
      </trkpt>
      <trkpt lat="44.39194" lon="7.14865">
        <ele>2016.5</ele>
        <time>2021-03-08T08:35:31Z</time>
      </trkpt>
      <trkpt lat="44.392" lon="7.14864">
        <ele>2016.98</ele>
        <time>2021-03-08T08:35:43Z</time>
      </trkpt>
      <trkpt lat="44.39204" lon="7.14863">
        <ele>2017.94</ele>
        <time>2021-03-08T08:35:49Z</time>
      </trkpt>
      <trkpt lat="44.39208" lon="7.14865">
        <ele>2017.94</ele>
        <time>2021-03-08T08:36:01Z</time>
      </trkpt>
      <trkpt lat="44.39211" lon="7.14865">
        <ele>2018.43</ele>
        <time>2021-03-08T08:36:05Z</time>
      </trkpt>
      <trkpt lat="44.39223" lon="7.14868">
        <ele>2018.43</ele>
        <time>2021-03-08T08:36:17Z</time>
      </trkpt>
      <trkpt lat="44.39228" lon="7.1487">
        <ele>2018.43</ele>
        <time>2021-03-08T08:36:23Z</time>
      </trkpt>
      <trkpt lat="44.3924" lon="7.14875">
        <ele>2018.43</ele>
        <time>2021-03-08T08:36:36Z</time>
      </trkpt>
      <trkpt lat="44.3925" lon="7.14874">
        <ele>2018.43</ele>
        <time>2021-03-08T08:36:47Z</time>
      </trkpt>
      <trkpt lat="44.39258" lon="7.14868">
        <ele>2019.87</ele>
        <time>2021-03-08T08:36:57Z</time>
      </trkpt>
      <trkpt lat="44.3927" lon="7.14864">
        <ele>2020.83</ele>
        <time>2021-03-08T08:37:10Z</time>
      </trkpt>
      <trkpt lat="44.3928" lon="7.1486">
        <ele>2019.87</ele>
        <time>2021-03-08T08:37:21Z</time>
      </trkpt>
      <trkpt lat="44.39281" lon="7.1486">
        <ele>2020.35</ele>
        <time>2021-03-08T08:37:22Z</time>
      </trkpt>
      <trkpt lat="44.3929" lon="7.14866">
        <ele>2020.35</ele>
        <time>2021-03-08T08:37:33Z</time>
      </trkpt>
      <trkpt lat="44.39293" lon="7.14869">
        <ele>2020.35</ele>
        <time>2021-03-08T08:37:37Z</time>
      </trkpt>
      <trkpt lat="44.39297" lon="7.14872">
        <ele>2020.83</ele>
        <time>2021-03-08T08:37:42Z</time>
      </trkpt>
      <trkpt lat="44.39308" lon="7.14882">
        <ele>2021.31</ele>
        <time>2021-03-08T08:37:57Z</time>
      </trkpt>
      <trkpt lat="44.39317" lon="7.14885">
        <ele>2022.27</ele>
        <time>2021-03-08T08:38:11Z</time>
      </trkpt>
      <trkpt lat="44.39326" lon="7.14873">
        <ele>2025.64</ele>
        <time>2021-03-08T08:38:26Z</time>
      </trkpt>
      <trkpt lat="44.39334" lon="7.14861">
        <ele>2027.08</ele>
        <time>2021-03-08T08:38:39Z</time>
      </trkpt>
      <trkpt lat="44.39342" lon="7.14849">
        <ele>2030.44</ele>
        <time>2021-03-08T08:38:54Z</time>
      </trkpt>
      <trkpt lat="44.39347" lon="7.14839">
        <ele>2030.92</ele>
        <time>2021-03-08T08:39:06Z</time>
      </trkpt>
      <trkpt lat="44.39349" lon="7.14837">
        <ele>2030.92</ele>
        <time>2021-03-08T08:39:08Z</time>
      </trkpt>
      <trkpt lat="44.39355" lon="7.14826">
        <ele>2032.36</ele>
        <time>2021-03-08T08:39:22Z</time>
      </trkpt>
      <trkpt lat="44.39362" lon="7.14814">
        <ele>2034.29</ele>
        <time>2021-03-08T08:39:36Z</time>
      </trkpt>
      <trkpt lat="44.39368" lon="7.14803">
        <ele>2035.25</ele>
        <time>2021-03-08T08:39:49Z</time>
      </trkpt>
      <trkpt lat="44.39375" lon="7.1479">
        <ele>2036.69</ele>
        <time>2021-03-08T08:40:03Z</time>
      </trkpt>
      <trkpt lat="44.3938" lon="7.14779">
        <ele>2039.57</ele>
        <time>2021-03-08T08:40:15Z</time>
      </trkpt>
      <trkpt lat="44.39383" lon="7.14771">
        <ele>2041.02</ele>
        <time>2021-03-08T08:40:25Z</time>
      </trkpt>
      <trkpt lat="44.39389" lon="7.14759">
        <ele>2041.98</ele>
        <time>2021-03-08T08:40:38Z</time>
      </trkpt>
      <trkpt lat="44.39397" lon="7.14743">
        <ele>2041.98</ele>
        <time>2021-03-08T08:40:52Z</time>
      </trkpt>
      <trkpt lat="44.39402" lon="7.14728">
        <ele>2041.98</ele>
        <time>2021-03-08T08:41:04Z</time>
      </trkpt>
      <trkpt lat="44.39407" lon="7.14715">
        <ele>2041.98</ele>
        <time>2021-03-08T08:41:16Z</time>
      </trkpt>
      <trkpt lat="44.39413" lon="7.14702">
        <ele>2041.98</ele>
        <time>2021-03-08T08:41:29Z</time>
      </trkpt>
      <trkpt lat="44.39421" lon="7.14689">
        <ele>2041.98</ele>
        <time>2021-03-08T08:41:43Z</time>
      </trkpt>
      <trkpt lat="44.39428" lon="7.14679">
        <ele>2042.94</ele>
        <time>2021-03-08T08:41:55Z</time>
      </trkpt>
      <trkpt lat="44.39435" lon="7.1467">
        <ele>2044.86</ele>
        <time>2021-03-08T08:42:06Z</time>
      </trkpt>
      <trkpt lat="44.39444" lon="7.14657">
        <ele>2046.78</ele>
        <time>2021-03-08T08:42:21Z</time>
      </trkpt>
      <trkpt lat="44.39449" lon="7.14647">
        <ele>2046.3</ele>
        <time>2021-03-08T08:42:34Z</time>
      </trkpt>
      <trkpt lat="44.39455" lon="7.14637">
        <ele>2048.23</ele>
        <time>2021-03-08T08:42:49Z</time>
      </trkpt>
      <trkpt lat="44.3946" lon="7.14626">
        <ele>2049.19</ele>
        <time>2021-03-08T08:43:04Z</time>
      </trkpt>
      <trkpt lat="44.39467" lon="7.14615">
        <ele>2050.63</ele>
        <time>2021-03-08T08:43:19Z</time>
      </trkpt>
      <trkpt lat="44.39471" lon="7.14607">
        <ele>2050.63</ele>
        <time>2021-03-08T08:43:27Z</time>
      </trkpt>
      <trkpt lat="44.39477" lon="7.14592">
        <ele>2051.59</ele>
        <time>2021-03-08T08:43:42Z</time>
      </trkpt>
      <trkpt lat="44.39481" lon="7.14586">
        <ele>2053.03</ele>
        <time>2021-03-08T08:43:51Z</time>
      </trkpt>
      <trkpt lat="44.39485" lon="7.14577">
        <ele>2055.44</ele>
        <time>2021-03-08T08:44:04Z</time>
      </trkpt>
      <trkpt lat="44.39487" lon="7.14568">
        <ele>2056.88</ele>
        <time>2021-03-08T08:44:17Z</time>
      </trkpt>
      <trkpt lat="44.39491" lon="7.14556">
        <ele>2056.4</ele>
        <time>2021-03-08T08:44:31Z</time>
      </trkpt>
      <trkpt lat="44.39493" lon="7.14546">
        <ele>2057.36</ele>
        <time>2021-03-08T08:44:45Z</time>
      </trkpt>
      <trkpt lat="44.39495" lon="7.14545">
        <ele>2057.36</ele>
        <time>2021-03-08T08:44:47Z</time>
      </trkpt>
      <trkpt lat="44.39503" lon="7.14536">
        <ele>2058.8</ele>
        <time>2021-03-08T08:45:00Z</time>
      </trkpt>
      <trkpt lat="44.3951" lon="7.14524">
        <ele>2059.76</ele>
        <time>2021-03-08T08:45:15Z</time>
      </trkpt>
      <trkpt lat="44.39517" lon="7.14516">
        <ele>2060.72</ele>
        <time>2021-03-08T08:45:28Z</time>
      </trkpt>
      <trkpt lat="44.39524" lon="7.14507">
        <ele>2061.68</ele>
        <time>2021-03-08T08:45:42Z</time>
      </trkpt>
      <trkpt lat="44.39527" lon="7.14502">
        <ele>2063.13</ele>
        <time>2021-03-08T08:45:55Z</time>
      </trkpt>
      <trkpt lat="44.39531" lon="7.14496">
        <ele>2065.05</ele>
        <time>2021-03-08T08:46:11Z</time>
      </trkpt>
      <trkpt lat="44.39537" lon="7.14489">
        <ele>2066.01</ele>
        <time>2021-03-08T08:46:24Z</time>
      </trkpt>
      <trkpt lat="44.39543" lon="7.14479">
        <ele>2067.93</ele>
        <time>2021-03-08T08:46:36Z</time>
      </trkpt>
      <trkpt lat="44.39548" lon="7.14469">
        <ele>2069.86</ele>
        <time>2021-03-08T08:46:50Z</time>
      </trkpt>
      <trkpt lat="44.39556" lon="7.14459">
        <ele>2069.86</ele>
        <time>2021-03-08T08:47:04Z</time>
      </trkpt>
      <trkpt lat="44.39563" lon="7.14449">
        <ele>2070.82</ele>
        <time>2021-03-08T08:47:16Z</time>
      </trkpt>
      <trkpt lat="44.39571" lon="7.14439">
        <ele>2075.14</ele>
        <time>2021-03-08T08:47:29Z</time>
      </trkpt>
      <trkpt lat="44.3958" lon="7.14425">
        <ele>2078.99</ele>
        <time>2021-03-08T08:47:44Z</time>
      </trkpt>
      <trkpt lat="44.39583" lon="7.14417">
        <ele>2078.99</ele>
        <time>2021-03-08T08:47:56Z</time>
      </trkpt>
      <trkpt lat="44.39583" lon="7.14416">
        <ele>2080.91</ele>
        <time>2021-03-08T08:48:21Z</time>
      </trkpt>
      <trkpt lat="44.39587" lon="7.14407">
        <ele>2081.39</ele>
        <time>2021-03-08T08:48:36Z</time>
      </trkpt>
      <trkpt lat="44.3959" lon="7.14391">
        <ele>2082.35</ele>
        <time>2021-03-08T08:48:49Z</time>
      </trkpt>
      <trkpt lat="44.39595" lon="7.14377">
        <ele>2082.35</ele>
        <time>2021-03-08T08:49:04Z</time>
      </trkpt>
      <trkpt lat="44.39601" lon="7.14369">
        <ele>2081.39</ele>
        <time>2021-03-08T08:49:17Z</time>
      </trkpt>
      <trkpt lat="44.39609" lon="7.14357">
        <ele>2083.31</ele>
        <time>2021-03-08T08:49:32Z</time>
      </trkpt>
      <trkpt lat="44.39614" lon="7.14349">
        <ele>2084.28</ele>
        <time>2021-03-08T08:49:44Z</time>
      </trkpt>
      <trkpt lat="44.39623" lon="7.14341">
        <ele>2083.31</ele>
        <time>2021-03-08T08:49:58Z</time>
      </trkpt>
      <trkpt lat="44.39629" lon="7.14331">
        <ele>2085.24</ele>
        <time>2021-03-08T08:50:13Z</time>
      </trkpt>
      <trkpt lat="44.39635" lon="7.14321">
        <ele>2087.64</ele>
        <time>2021-03-08T08:50:25Z</time>
      </trkpt>
      <trkpt lat="44.39639" lon="7.14309">
        <ele>2090.52</ele>
        <time>2021-03-08T08:50:39Z</time>
      </trkpt>
      <trkpt lat="44.39644" lon="7.14296">
        <ele>2089.56</ele>
        <time>2021-03-08T08:50:53Z</time>
      </trkpt>
      <trkpt lat="44.39649" lon="7.14287">
        <ele>2089.08</ele>
        <time>2021-03-08T08:51:06Z</time>
      </trkpt>
      <trkpt lat="44.39657" lon="7.14276">
        <ele>2090.52</ele>
        <time>2021-03-08T08:51:23Z</time>
      </trkpt>
      <trkpt lat="44.39664" lon="7.14265">
        <ele>2091</ele>
        <time>2021-03-08T08:51:37Z</time>
      </trkpt>
      <trkpt lat="44.39669" lon="7.14256">
        <ele>2092.45</ele>
        <time>2021-03-08T08:51:51Z</time>
      </trkpt>
      <trkpt lat="44.39671" lon="7.14251">
        <ele>2095.33</ele>
        <time>2021-03-08T08:52:02Z</time>
      </trkpt>
      <trkpt lat="44.39672" lon="7.14248">
        <ele>2096.77</ele>
        <time>2021-03-08T08:52:17Z</time>
      </trkpt>
      <trkpt lat="44.39673" lon="7.14246">
        <ele>2096.77</ele>
        <time>2021-03-08T08:52:33Z</time>
      </trkpt>
      <trkpt lat="44.39673" lon="7.14245">
        <ele>2097.25</ele>
        <time>2021-03-08T08:52:46Z</time>
      </trkpt>
      <trkpt lat="44.39678" lon="7.14233">
        <ele>2096.77</ele>
        <time>2021-03-08T08:52:59Z</time>
      </trkpt>
      <trkpt lat="44.39685" lon="7.1422">
        <ele>2096.77</ele>
        <time>2021-03-08T08:53:13Z</time>
      </trkpt>
      <trkpt lat="44.39692" lon="7.14206">
        <ele>2096.77</ele>
        <time>2021-03-08T08:53:29Z</time>
      </trkpt>
      <trkpt lat="44.39695" lon="7.14196">
        <ele>2098.21</ele>
        <time>2021-03-08T08:53:43Z</time>
      </trkpt>
      <trkpt lat="44.397" lon="7.14187">
        <ele>2100.62</ele>
        <time>2021-03-08T08:53:59Z</time>
      </trkpt>
      <trkpt lat="44.39707" lon="7.14176">
        <ele>2101.58</ele>
        <time>2021-03-08T08:54:14Z</time>
      </trkpt>
      <trkpt lat="44.39711" lon="7.14165">
        <ele>2103.98</ele>
        <time>2021-03-08T08:54:26Z</time>
      </trkpt>
      <trkpt lat="44.39711" lon="7.14163">
        <ele>2103.98</ele>
        <time>2021-03-08T08:54:28Z</time>
      </trkpt>
      <trkpt lat="44.39713" lon="7.14152">
        <ele>2104.94</ele>
        <time>2021-03-08T08:54:41Z</time>
      </trkpt>
      <trkpt lat="44.39715" lon="7.14138">
        <ele>2105.91</ele>
        <time>2021-03-08T08:54:55Z</time>
      </trkpt>
      <trkpt lat="44.39718" lon="7.14126">
        <ele>2107.35</ele>
        <time>2021-03-08T08:55:08Z</time>
      </trkpt>
      <trkpt lat="44.39721" lon="7.14116">
        <ele>2107.35</ele>
        <time>2021-03-08T08:55:22Z</time>
      </trkpt>
      <trkpt lat="44.39723" lon="7.14103">
        <ele>2107.83</ele>
        <time>2021-03-08T08:55:35Z</time>
      </trkpt>
      <trkpt lat="44.39724" lon="7.14093">
        <ele>2107.83</ele>
        <time>2021-03-08T08:55:48Z</time>
      </trkpt>
      <trkpt lat="44.39724" lon="7.1408">
        <ele>2110.23</ele>
        <time>2021-03-08T08:56:00Z</time>
      </trkpt>
      <trkpt lat="44.3973" lon="7.14066">
        <ele>2110.71</ele>
        <time>2021-03-08T08:56:14Z</time>
      </trkpt>
      <trkpt lat="44.39731" lon="7.14063">
        <ele>2111.67</ele>
        <time>2021-03-08T08:56:17Z</time>
      </trkpt>
      <trkpt lat="44.39739" lon="7.14049">
        <ele>2115.52</ele>
        <time>2021-03-08T08:56:31Z</time>
      </trkpt>
      <trkpt lat="44.39744" lon="7.1404">
        <ele>2116.48</ele>
        <time>2021-03-08T08:56:44Z</time>
      </trkpt>
      <trkpt lat="44.3975" lon="7.14025">
        <ele>2119.36</ele>
        <time>2021-03-08T08:57:00Z</time>
      </trkpt>
      <trkpt lat="44.39754" lon="7.14014">
        <ele>2121.29</ele>
        <time>2021-03-08T08:57:13Z</time>
      </trkpt>
      <trkpt lat="44.39756" lon="7.14004">
        <ele>2121.29</ele>
        <time>2021-03-08T08:57:24Z</time>
      </trkpt>
      <trkpt lat="44.39759" lon="7.13995">
        <ele>2123.21</ele>
        <time>2021-03-08T08:57:35Z</time>
      </trkpt>
      <trkpt lat="44.39763" lon="7.13983">
        <ele>2124.17</ele>
        <time>2021-03-08T08:57:47Z</time>
      </trkpt>
      <trkpt lat="44.39767" lon="7.13968">
        <ele>2126.57</ele>
        <time>2021-03-08T08:58:01Z</time>
      </trkpt>
      <trkpt lat="44.39769" lon="7.13958">
        <ele>2126.09</ele>
        <time>2021-03-08T08:58:14Z</time>
      </trkpt>
      <trkpt lat="44.39771" lon="7.13945">
        <ele>2127.53</ele>
        <time>2021-03-08T08:58:27Z</time>
      </trkpt>
      <trkpt lat="44.39771" lon="7.13936">
        <ele>2126.57</ele>
        <time>2021-03-08T08:58:40Z</time>
      </trkpt>
      <trkpt lat="44.39772" lon="7.13927">
        <ele>2126.09</ele>
        <time>2021-03-08T08:58:53Z</time>
      </trkpt>
      <trkpt lat="44.39773" lon="7.13916">
        <ele>2127.05</ele>
        <time>2021-03-08T08:59:05Z</time>
      </trkpt>
      <trkpt lat="44.39772" lon="7.13901">
        <ele>2128.02</ele>
        <time>2021-03-08T08:59:20Z</time>
      </trkpt>
      <trkpt lat="44.39771" lon="7.13896">
        <ele>2128.5</ele>
        <time>2021-03-08T08:59:36Z</time>
      </trkpt>
      <trkpt lat="44.39774" lon="7.13898">
        <ele>2133.3</ele>
        <time>2021-03-08T09:00:01Z</time>
      </trkpt>
      <trkpt lat="44.39773" lon="7.13887">
        <ele>2130.9</ele>
        <time>2021-03-08T09:00:19Z</time>
      </trkpt>
      <trkpt lat="44.39773" lon="7.13882">
        <ele>2132.34</ele>
        <time>2021-03-08T09:00:24Z</time>
      </trkpt>
      <trkpt lat="44.39774" lon="7.1387">
        <ele>2133.3</ele>
        <time>2021-03-08T09:00:35Z</time>
      </trkpt>
      <trkpt lat="44.39776" lon="7.13856">
        <ele>2133.78</ele>
        <time>2021-03-08T09:00:48Z</time>
      </trkpt>
      <trkpt lat="44.39777" lon="7.13846">
        <ele>2135.71</ele>
        <time>2021-03-08T09:00:59Z</time>
      </trkpt>
      <trkpt lat="44.39778" lon="7.13843">
        <ele>2135.71</ele>
        <time>2021-03-08T09:01:02Z</time>
      </trkpt>
      <trkpt lat="44.39779" lon="7.13831">
        <ele>2137.63</ele>
        <time>2021-03-08T09:01:15Z</time>
      </trkpt>
      <trkpt lat="44.39777" lon="7.13824">
        <ele>2138.11</ele>
        <time>2021-03-08T09:01:25Z</time>
      </trkpt>
      <trkpt lat="44.39779" lon="7.13815">
        <ele>2139.55</ele>
        <time>2021-03-08T09:01:37Z</time>
      </trkpt>
      <trkpt lat="44.3978" lon="7.13806">
        <ele>2140.99</ele>
        <time>2021-03-08T09:01:49Z</time>
      </trkpt>
      <trkpt lat="44.39781" lon="7.13804">
        <ele>2141.95</ele>
        <time>2021-03-08T09:01:55Z</time>
      </trkpt>
      <trkpt lat="44.39785" lon="7.13793">
        <ele>2141.47</ele>
        <time>2021-03-08T09:02:09Z</time>
      </trkpt>
      <trkpt lat="44.39785" lon="7.13789">
        <ele>2141.47</ele>
        <time>2021-03-08T09:02:12Z</time>
      </trkpt>
      <trkpt lat="44.39786" lon="7.13775">
        <ele>2142.92</ele>
        <time>2021-03-08T09:02:25Z</time>
      </trkpt>
      <trkpt lat="44.39786" lon="7.13761">
        <ele>2144.84</ele>
        <time>2021-03-08T09:02:39Z</time>
      </trkpt>
      <trkpt lat="44.39783" lon="7.13752">
        <ele>2147.24</ele>
        <time>2021-03-08T09:02:53Z</time>
      </trkpt>
      <trkpt lat="44.39767" lon="7.1375">
        <ele>2144.36</ele>
        <time>2021-03-08T09:03:04Z</time>
      </trkpt>
      <trkpt lat="44.39755" lon="7.13744">
        <ele>2144.84</ele>
        <time>2021-03-08T09:03:18Z</time>
      </trkpt>
      <trkpt lat="44.39747" lon="7.13741">
        <ele>2144.84</ele>
        <time>2021-03-08T09:03:30Z</time>
      </trkpt>
      <trkpt lat="44.39735" lon="7.13737">
        <ele>2146.28</ele>
        <time>2021-03-08T09:03:43Z</time>
      </trkpt>
      <trkpt lat="44.39724" lon="7.13733">
        <ele>2148.2</ele>
        <time>2021-03-08T09:03:57Z</time>
      </trkpt>
      <trkpt lat="44.39713" lon="7.13732">
        <ele>2149.65</ele>
        <time>2021-03-08T09:04:12Z</time>
      </trkpt>
      <trkpt lat="44.39703" lon="7.13731">
        <ele>2150.13</ele>
        <time>2021-03-08T09:04:31Z</time>
      </trkpt>
      <trkpt lat="44.39705" lon="7.13724">
        <ele>2151.57</ele>
        <time>2021-03-08T09:04:45Z</time>
      </trkpt>
      <trkpt lat="44.39709" lon="7.13719">
        <ele>2154.93</ele>
        <time>2021-03-08T09:05:00Z</time>
      </trkpt>
      <trkpt lat="44.39698" lon="7.13718">
        <ele>2155.41</ele>
        <time>2021-03-08T09:05:16Z</time>
      </trkpt>
      <trkpt lat="44.39699" lon="7.13709">
        <ele>2157.82</ele>
        <time>2021-03-08T09:05:27Z</time>
      </trkpt>
      <trkpt lat="44.39711" lon="7.13703">
        <ele>2164.06</ele>
        <time>2021-03-08T09:05:44Z</time>
      </trkpt>
      <trkpt lat="44.39718" lon="7.13698">
        <ele>2164.55</ele>
        <time>2021-03-08T09:05:57Z</time>
      </trkpt>
      <trkpt lat="44.39718" lon="7.13694">
        <ele>2166.95</ele>
        <time>2021-03-08T09:06:10Z</time>
      </trkpt>
      <trkpt lat="44.39732" lon="7.13691">
        <ele>2167.91</ele>
        <time>2021-03-08T09:06:28Z</time>
      </trkpt>
      <trkpt lat="44.39739" lon="7.13689">
        <ele>2172.24</ele>
        <time>2021-03-08T09:06:44Z</time>
      </trkpt>
      <trkpt lat="44.39742" lon="7.13681">
        <ele>2173.68</ele>
        <time>2021-03-08T09:06:59Z</time>
      </trkpt>
      <trkpt lat="44.39736" lon="7.13673">
        <ele>2176.56</ele>
        <time>2021-03-08T09:07:13Z</time>
      </trkpt>
      <trkpt lat="44.39728" lon="7.13669">
        <ele>2178</ele>
        <time>2021-03-08T09:07:29Z</time>
      </trkpt>
      <trkpt lat="44.39735" lon="7.13667">
        <ele>2179.45</ele>
        <time>2021-03-08T09:07:44Z</time>
      </trkpt>
      <trkpt lat="44.39743" lon="7.13663">
        <ele>2182.33</ele>
        <time>2021-03-08T09:08:00Z</time>
      </trkpt>
      <trkpt lat="44.3975" lon="7.13662">
        <ele>2182.81</ele>
        <time>2021-03-08T09:08:15Z</time>
      </trkpt>
      <trkpt lat="44.39753" lon="7.13659">
        <ele>2185.21</ele>
        <time>2021-03-08T09:08:32Z</time>
      </trkpt>
      <trkpt lat="44.39751" lon="7.13654">
        <ele>2185.69</ele>
        <time>2021-03-08T09:08:47Z</time>
      </trkpt>
      <trkpt lat="44.39744" lon="7.13645">
        <ele>2192.9</ele>
        <time>2021-03-08T09:09:08Z</time>
      </trkpt>
      <trkpt lat="44.39752" lon="7.13645">
        <ele>2195.79</ele>
        <time>2021-03-08T09:09:19Z</time>
      </trkpt>
      <trkpt lat="44.39761" lon="7.13642">
        <ele>2197.23</ele>
        <time>2021-03-08T09:09:34Z</time>
      </trkpt>
      <trkpt lat="44.39769" lon="7.13639">
        <ele>2197.71</ele>
        <time>2021-03-08T09:09:53Z</time>
      </trkpt>
      <trkpt lat="44.39774" lon="7.13634">
        <ele>2200.11</ele>
        <time>2021-03-08T09:10:12Z</time>
      </trkpt>
      <trkpt lat="44.39769" lon="7.13626">
        <ele>2202.04</ele>
        <time>2021-03-08T09:10:24Z</time>
      </trkpt>
      <trkpt lat="44.39758" lon="7.13617">
        <ele>2200.59</ele>
        <time>2021-03-08T09:10:39Z</time>
      </trkpt>
      <trkpt lat="44.39756" lon="7.13616">
        <ele>2201.56</ele>
        <time>2021-03-08T09:10:53Z</time>
      </trkpt>
      <trkpt lat="44.39767" lon="7.13615">
        <ele>2202.52</ele>
        <time>2021-03-08T09:11:08Z</time>
      </trkpt>
      <trkpt lat="44.39776" lon="7.13613">
        <ele>2205.88</ele>
        <time>2021-03-08T09:11:24Z</time>
      </trkpt>
      <trkpt lat="44.39775" lon="7.13615">
        <ele>2198.67</ele>
        <time>2021-03-08T09:11:46Z</time>
      </trkpt>
      <trkpt lat="44.3978" lon="7.13612">
        <ele>2200.11</ele>
        <time>2021-03-08T09:12:07Z</time>
      </trkpt>
      <trkpt lat="44.39788" lon="7.13607">
        <ele>2202.52</ele>
        <time>2021-03-08T09:12:22Z</time>
      </trkpt>
      <trkpt lat="44.39799" lon="7.13606">
        <ele>2206.36</ele>
        <time>2021-03-08T09:12:37Z</time>
      </trkpt>
      <trkpt lat="44.39801" lon="7.13599">
        <ele>2209.25</ele>
        <time>2021-03-08T09:12:51Z</time>
      </trkpt>
      <trkpt lat="44.39809" lon="7.13596">
        <ele>2211.65</ele>
        <time>2021-03-08T09:13:06Z</time>
      </trkpt>
      <trkpt lat="44.39815" lon="7.13593">
        <ele>2214.53</ele>
        <time>2021-03-08T09:13:18Z</time>
      </trkpt>
      <trkpt lat="44.3982" lon="7.1359">
        <ele>2215.01</ele>
        <time>2021-03-08T09:13:31Z</time>
      </trkpt>
      <trkpt lat="44.39818" lon="7.13585">
        <ele>2215.5</ele>
        <time>2021-03-08T09:13:42Z</time>
      </trkpt>
      <trkpt lat="44.39825" lon="7.13583">
        <ele>2215.5</ele>
        <time>2021-03-08T09:13:59Z</time>
      </trkpt>
      <trkpt lat="44.39834" lon="7.1358">
        <ele>2218.38</ele>
        <time>2021-03-08T09:14:12Z</time>
      </trkpt>
      <trkpt lat="44.39839" lon="7.13571">
        <ele>2219.82</ele>
        <time>2021-03-08T09:14:25Z</time>
      </trkpt>
      <trkpt lat="44.39845" lon="7.13561">
        <ele>2221.74</ele>
        <time>2021-03-08T09:14:40Z</time>
      </trkpt>
      <trkpt lat="44.39847" lon="7.13559">
        <ele>2222.71</ele>
        <time>2021-03-08T09:14:43Z</time>
      </trkpt>
      <trkpt lat="44.39854" lon="7.1355">
        <ele>2225.11</ele>
        <time>2021-03-08T09:14:58Z</time>
      </trkpt>
      <trkpt lat="44.39863" lon="7.13547">
        <ele>2223.67</ele>
        <time>2021-03-08T09:15:16Z</time>
      </trkpt>
      <trkpt lat="44.39871" lon="7.13546">
        <ele>2225.11</ele>
        <time>2021-03-08T09:15:29Z</time>
      </trkpt>
      <trkpt lat="44.39879" lon="7.13539">
        <ele>2228.95</ele>
        <time>2021-03-08T09:15:44Z</time>
      </trkpt>
      <trkpt lat="44.39886" lon="7.13534">
        <ele>2229.43</ele>
        <time>2021-03-08T09:15:57Z</time>
      </trkpt>
      <trkpt lat="44.39892" lon="7.13527">
        <ele>2231.84</ele>
        <time>2021-03-08T09:16:09Z</time>
      </trkpt>
      <trkpt lat="44.39897" lon="7.13519">
        <ele>2236.64</ele>
        <time>2021-03-08T09:16:20Z</time>
      </trkpt>
      <trkpt lat="44.399" lon="7.13513">
        <ele>2236.64</ele>
        <time>2021-03-08T09:16:33Z</time>
      </trkpt>
      <trkpt lat="44.39902" lon="7.13506">
        <ele>2239.53</ele>
        <time>2021-03-08T09:16:45Z</time>
      </trkpt>
      <trkpt lat="44.39906" lon="7.13497">
        <ele>2241.45</ele>
        <time>2021-03-08T09:16:59Z</time>
      </trkpt>
      <trkpt lat="44.39907" lon="7.13494">
        <ele>2242.41</ele>
        <time>2021-03-08T09:17:11Z</time>
      </trkpt>
      <trkpt lat="44.39908" lon="7.13486">
        <ele>2247.22</ele>
        <time>2021-03-08T09:17:24Z</time>
      </trkpt>
      <trkpt lat="44.39915" lon="7.13476">
        <ele>2250.58</ele>
        <time>2021-03-08T09:17:37Z</time>
      </trkpt>
      <trkpt lat="44.39917" lon="7.13469">
        <ele>2250.58</ele>
        <time>2021-03-08T09:17:50Z</time>
      </trkpt>
      <trkpt lat="44.39922" lon="7.13473">
        <ele>2247.7</ele>
        <time>2021-03-08T09:18:02Z</time>
      </trkpt>
      <trkpt lat="44.39927" lon="7.13481">
        <ele>2246.26</ele>
        <time>2021-03-08T09:18:14Z</time>
      </trkpt>
      <trkpt lat="44.39929" lon="7.13489">
        <ele>2246.74</ele>
        <time>2021-03-08T09:18:26Z</time>
      </trkpt>
      <trkpt lat="44.39932" lon="7.1349">
        <ele>2246.74</ele>
        <time>2021-03-08T09:18:41Z</time>
      </trkpt>
      <trkpt lat="44.39935" lon="7.13489">
        <ele>2247.22</ele>
        <time>2021-03-08T09:18:48Z</time>
      </trkpt>
      <trkpt lat="44.39945" lon="7.13482">
        <ele>2250.58</ele>
        <time>2021-03-08T09:19:03Z</time>
      </trkpt>
      <trkpt lat="44.39957" lon="7.13473">
        <ele>2254.43</ele>
        <time>2021-03-08T09:19:19Z</time>
      </trkpt>
      <trkpt lat="44.39967" lon="7.13465">
        <ele>2259.24</ele>
        <time>2021-03-08T09:19:34Z</time>
      </trkpt>
      <trkpt lat="44.39978" lon="7.13454">
        <ele>2263.56</ele>
        <time>2021-03-08T09:19:50Z</time>
      </trkpt>
      <trkpt lat="44.39985" lon="7.13445">
        <ele>2265.96</ele>
        <time>2021-03-08T09:20:05Z</time>
      </trkpt>
      <trkpt lat="44.39994" lon="7.13435">
        <ele>2265.96</ele>
        <time>2021-03-08T09:20:23Z</time>
      </trkpt>
      <trkpt lat="44.40003" lon="7.1343">
        <ele>2267.89</ele>
        <time>2021-03-08T09:20:38Z</time>
      </trkpt>
      <trkpt lat="44.4001" lon="7.13424">
        <ele>2269.81</ele>
        <time>2021-03-08T09:20:52Z</time>
      </trkpt>
      <trkpt lat="44.40017" lon="7.13417">
        <ele>2271.25</ele>
        <time>2021-03-08T09:21:06Z</time>
      </trkpt>
      <trkpt lat="44.40026" lon="7.13411">
        <ele>2271.25</ele>
        <time>2021-03-08T09:21:21Z</time>
      </trkpt>
      <trkpt lat="44.40035" lon="7.13406">
        <ele>2270.29</ele>
        <time>2021-03-08T09:21:36Z</time>
      </trkpt>
      <trkpt lat="44.40044" lon="7.13399">
        <ele>2272.21</ele>
        <time>2021-03-08T09:21:51Z</time>
      </trkpt>
      <trkpt lat="44.40046" lon="7.13397">
        <ele>2273.17</ele>
        <time>2021-03-08T09:22:06Z</time>
      </trkpt>
      <trkpt lat="44.40053" lon="7.13394">
        <ele>2272.21</ele>
        <time>2021-03-08T09:22:22Z</time>
      </trkpt>
      <trkpt lat="44.40062" lon="7.13391">
        <ele>2273.17</ele>
        <time>2021-03-08T09:22:35Z</time>
      </trkpt>
      <trkpt lat="44.40071" lon="7.1339">
        <ele>2274.62</ele>
        <time>2021-03-08T09:22:49Z</time>
      </trkpt>
      <trkpt lat="44.4008" lon="7.1339">
        <ele>2275.1</ele>
        <time>2021-03-08T09:23:04Z</time>
      </trkpt>
      <trkpt lat="44.40088" lon="7.13386">
        <ele>2275.1</ele>
        <time>2021-03-08T09:23:19Z</time>
      </trkpt>
      <trkpt lat="44.40092" lon="7.1338">
        <ele>2277.98</ele>
        <time>2021-03-08T09:23:33Z</time>
      </trkpt>
      <trkpt lat="44.40095" lon="7.1337">
        <ele>2276.06</ele>
        <time>2021-03-08T09:23:47Z</time>
      </trkpt>
      <trkpt lat="44.40099" lon="7.13368">
        <ele>2278.94</ele>
        <time>2021-03-08T09:24:00Z</time>
      </trkpt>
      <trkpt lat="44.40105" lon="7.13363">
        <ele>2285.67</ele>
        <time>2021-03-08T09:24:16Z</time>
      </trkpt>
      <trkpt lat="44.40111" lon="7.13352">
        <ele>2289.04</ele>
        <time>2021-03-08T09:24:31Z</time>
      </trkpt>
      <trkpt lat="44.40112" lon="7.13341">
        <ele>2289.52</ele>
        <time>2021-03-08T09:24:43Z</time>
      </trkpt>
      <trkpt lat="44.40113" lon="7.13327">
        <ele>2289.52</ele>
        <time>2021-03-08T09:24:58Z</time>
      </trkpt>
      <trkpt lat="44.40115" lon="7.1332">
        <ele>2289.52</ele>
        <time>2021-03-08T09:25:06Z</time>
      </trkpt>
      <trkpt lat="44.40113" lon="7.13312">
        <ele>2288.08</ele>
        <time>2021-03-08T09:25:20Z</time>
      </trkpt>
      <trkpt lat="44.40113" lon="7.13304">
        <ele>2290.48</ele>
        <time>2021-03-08T09:25:35Z</time>
      </trkpt>
      <trkpt lat="44.40114" lon="7.13299">
        <ele>2292.4</ele>
        <time>2021-03-08T09:25:43Z</time>
      </trkpt>
      <trkpt lat="44.4012" lon="7.13289">
        <ele>2294.32</ele>
        <time>2021-03-08T09:25:57Z</time>
      </trkpt>
      <trkpt lat="44.40123" lon="7.13281">
        <ele>2299.13</ele>
        <time>2021-03-08T09:26:09Z</time>
      </trkpt>
      <trkpt lat="44.40125" lon="7.13273">
        <ele>2302.98</ele>
        <time>2021-03-08T09:26:21Z</time>
      </trkpt>
      <trkpt lat="44.40127" lon="7.13269">
        <ele>2305.38</ele>
        <time>2021-03-08T09:26:34Z</time>
      </trkpt>
      <trkpt lat="44.4013" lon="7.13262">
        <ele>2308.74</ele>
        <time>2021-03-08T09:26:47Z</time>
      </trkpt>
      <trkpt lat="44.40133" lon="7.13254">
        <ele>2310.67</ele>
        <time>2021-03-08T09:27:01Z</time>
      </trkpt>
      <trkpt lat="44.40134" lon="7.13248">
        <ele>2310.67</ele>
        <time>2021-03-08T09:27:13Z</time>
      </trkpt>
      <trkpt lat="44.40136" lon="7.13247">
        <ele>2309.7</ele>
        <time>2021-03-08T09:27:26Z</time>
      </trkpt>
      <trkpt lat="44.40135" lon="7.13241">
        <ele>2311.15</ele>
        <time>2021-03-08T09:27:39Z</time>
      </trkpt>
      <trkpt lat="44.40132" lon="7.13235">
        <ele>2311.63</ele>
        <time>2021-03-08T09:27:54Z</time>
      </trkpt>
      <trkpt lat="44.40132" lon="7.13228">
        <ele>2313.55</ele>
        <time>2021-03-08T09:28:03Z</time>
      </trkpt>
      <trkpt lat="44.40129" lon="7.1322">
        <ele>2316.43</ele>
        <time>2021-03-08T09:28:16Z</time>
      </trkpt>
      <trkpt lat="44.40126" lon="7.13209">
        <ele>2316.43</ele>
        <time>2021-03-08T09:28:32Z</time>
      </trkpt>
      <trkpt lat="44.40129" lon="7.13202">
        <ele>2317.88</ele>
        <time>2021-03-08T09:28:43Z</time>
      </trkpt>
      <trkpt lat="44.40136" lon="7.13199">
        <ele>2317.4</ele>
        <time>2021-03-08T09:28:56Z</time>
      </trkpt>
      <trkpt lat="44.40139" lon="7.13194">
        <ele>2322.2</ele>
        <time>2021-03-08T09:29:09Z</time>
      </trkpt>
      <trkpt lat="44.40138" lon="7.13187">
        <ele>2323.64</ele>
        <time>2021-03-08T09:29:23Z</time>
      </trkpt>
      <trkpt lat="44.40135" lon="7.13178">
        <ele>2325.09</ele>
        <time>2021-03-08T09:29:34Z</time>
      </trkpt>
      <trkpt lat="44.40134" lon="7.13171">
        <ele>2327.01</ele>
        <time>2021-03-08T09:29:43Z</time>
      </trkpt>
      <trkpt lat="44.40133" lon="7.13166">
        <ele>2327.97</ele>
        <time>2021-03-08T09:29:46Z</time>
      </trkpt>
      <trkpt lat="44.40129" lon="7.13159">
        <ele>2329.41</ele>
        <time>2021-03-08T09:29:56Z</time>
      </trkpt>
      <trkpt lat="44.40129" lon="7.13156">
        <ele>2328.45</ele>
        <time>2021-03-08T09:29:59Z</time>
      </trkpt>
      <trkpt lat="44.40129" lon="7.13145">
        <ele>2328.93</ele>
        <time>2021-03-08T09:30:11Z</time>
      </trkpt>
      <trkpt lat="44.40127" lon="7.13134">
        <ele>2332.3</ele>
        <time>2021-03-08T09:30:23Z</time>
      </trkpt>
      <trkpt lat="44.40129" lon="7.13128">
        <ele>2333.26</ele>
        <time>2021-03-08T09:30:35Z</time>
      </trkpt>
      <trkpt lat="44.4013" lon="7.13121">
        <ele>2334.7</ele>
        <time>2021-03-08T09:30:46Z</time>
      </trkpt>
      <trkpt lat="44.4013" lon="7.13114">
        <ele>2333.26</ele>
        <time>2021-03-08T09:31:01Z</time>
      </trkpt>
      <trkpt lat="44.40129" lon="7.13108">
        <ele>2332.3</ele>
        <time>2021-03-08T09:31:11Z</time>
      </trkpt>
      <trkpt lat="44.40135" lon="7.13096">
        <ele>2327.97</ele>
        <time>2021-03-08T09:31:24Z</time>
      </trkpt>
      <trkpt lat="44.40144" lon="7.13086">
        <ele>2330.37</ele>
        <time>2021-03-08T09:31:40Z</time>
      </trkpt>
      <trkpt lat="44.40146" lon="7.13085">
        <ele>2329.89</ele>
        <time>2021-03-08T09:31:42Z</time>
      </trkpt>
      <trkpt lat="44.4016" lon="7.13079">
        <ele>2329.89</ele>
        <time>2021-03-08T09:32:00Z</time>
      </trkpt>
      <trkpt lat="44.40163" lon="7.13077">
        <ele>2330.85</ele>
        <time>2021-03-08T09:32:12Z</time>
      </trkpt>
      <trkpt lat="44.40164" lon="7.13074">
        <ele>2333.74</ele>
        <time>2021-03-08T09:32:36Z</time>
      </trkpt>
      <trkpt lat="44.4016" lon="7.1306">
        <ele>2333.74</ele>
        <time>2021-03-08T09:32:50Z</time>
      </trkpt>
      <trkpt lat="44.40158" lon="7.13045">
        <ele>2336.14</ele>
        <time>2021-03-08T09:33:04Z</time>
      </trkpt>
      <trkpt lat="44.40158" lon="7.13037">
        <ele>2337.1</ele>
        <time>2021-03-08T09:33:18Z</time>
      </trkpt>
      <trkpt lat="44.40155" lon="7.13026">
        <ele>2337.58</ele>
        <time>2021-03-08T09:33:31Z</time>
      </trkpt>
      <trkpt lat="44.40157" lon="7.13026">
        <ele>2337.58</ele>
        <time>2021-03-08T09:33:44Z</time>
      </trkpt>
      <trkpt lat="44.40157" lon="7.13014">
        <ele>2337.1</ele>
        <time>2021-03-08T09:34:01Z</time>
      </trkpt>
      <trkpt lat="44.40156" lon="7.13011">
        <ele>2337.1</ele>
        <time>2021-03-08T09:34:03Z</time>
      </trkpt>
      <trkpt lat="44.40157" lon="7.12996">
        <ele>2340.47</ele>
        <time>2021-03-08T09:34:17Z</time>
      </trkpt>
      <trkpt lat="44.4016" lon="7.12981">
        <ele>2343.35</ele>
        <time>2021-03-08T09:34:32Z</time>
      </trkpt>
      <trkpt lat="44.4016" lon="7.12973">
        <ele>2345.27</ele>
        <time>2021-03-08T09:34:39Z</time>
      </trkpt>
      <trkpt lat="44.4016" lon="7.12961">
        <ele>2346.72</ele>
        <time>2021-03-08T09:34:54Z</time>
      </trkpt>
      <trkpt lat="44.40159" lon="7.12947">
        <ele>2348.16</ele>
        <time>2021-03-08T09:35:14Z</time>
      </trkpt>
      <trkpt lat="44.40158" lon="7.12936">
        <ele>2351.04</ele>
        <time>2021-03-08T09:35:28Z</time>
      </trkpt>
      <trkpt lat="44.40157" lon="7.12929">
        <ele>2353.93</ele>
        <time>2021-03-08T09:35:44Z</time>
      </trkpt>
      <trkpt lat="44.40156" lon="7.12922">
        <ele>2354.89</ele>
        <time>2021-03-08T09:35:57Z</time>
      </trkpt>
      <trkpt lat="44.40153" lon="7.12915">
        <ele>2355.85</ele>
        <time>2021-03-08T09:36:11Z</time>
      </trkpt>
      <trkpt lat="44.40158" lon="7.12918">
        <ele>2357.77</ele>
        <time>2021-03-08T09:36:25Z</time>
      </trkpt>
      <trkpt lat="44.40169" lon="7.12922">
        <ele>2362.58</ele>
        <time>2021-03-08T09:36:40Z</time>
      </trkpt>
      <trkpt lat="44.40177" lon="7.12924">
        <ele>2366.42</ele>
        <time>2021-03-08T09:36:53Z</time>
      </trkpt>
      <trkpt lat="44.40182" lon="7.12925">
        <ele>2367.38</ele>
        <time>2021-03-08T09:37:08Z</time>
      </trkpt>
      <trkpt lat="44.40188" lon="7.12927">
        <ele>2371.23</ele>
        <time>2021-03-08T09:37:26Z</time>
      </trkpt>
      <trkpt lat="44.40198" lon="7.1293">
        <ele>2373.63</ele>
        <time>2021-03-08T09:37:42Z</time>
      </trkpt>
      <trkpt lat="44.40205" lon="7.12929">
        <ele>2374.11</ele>
        <time>2021-03-08T09:37:56Z</time>
      </trkpt>
      <trkpt lat="44.40212" lon="7.1293">
        <ele>2376.04</ele>
        <time>2021-03-08T09:38:16Z</time>
      </trkpt>
      <trkpt lat="44.4022" lon="7.12932">
        <ele>2377.48</ele>
        <time>2021-03-08T09:38:29Z</time>
      </trkpt>
      <trkpt lat="44.40227" lon="7.12932">
        <ele>2376.52</ele>
        <time>2021-03-08T09:38:49Z</time>
      </trkpt>
      <trkpt lat="44.40232" lon="7.12932">
        <ele>2376.04</ele>
        <time>2021-03-08T09:39:04Z</time>
      </trkpt>
      <trkpt lat="44.40238" lon="7.1293">
        <ele>2373.63</ele>
        <time>2021-03-08T09:39:16Z</time>
      </trkpt>
      <trkpt lat="44.40241" lon="7.1293">
        <ele>2374.59</ele>
        <time>2021-03-08T09:39:30Z</time>
      </trkpt>
      <trkpt lat="44.40245" lon="7.1293">
        <ele>2377.48</ele>
        <time>2021-03-08T09:39:43Z</time>
      </trkpt>
      <trkpt lat="44.40246" lon="7.12931">
        <ele>2379.4</ele>
        <time>2021-03-08T09:40:04Z</time>
      </trkpt>
      <trkpt lat="44.40251" lon="7.1293">
        <ele>2378.92</ele>
        <time>2021-03-08T09:40:24Z</time>
      </trkpt>
      <trkpt lat="44.40255" lon="7.12931">
        <ele>2380.84</ele>
        <time>2021-03-08T09:40:40Z</time>
      </trkpt>
      <trkpt lat="44.40254" lon="7.12928">
        <ele>2381.32</ele>
        <time>2021-03-08T09:40:55Z</time>
      </trkpt>
      <trkpt lat="44.40252" lon="7.12924">
        <ele>2384.69</ele>
        <time>2021-03-08T09:41:08Z</time>
      </trkpt>
      <trkpt lat="44.4026" lon="7.12926">
        <ele>2385.65</ele>
        <time>2021-03-08T09:41:23Z</time>
      </trkpt>
      <trkpt lat="44.40268" lon="7.12926">
        <ele>2388.53</ele>
        <time>2021-03-08T09:41:37Z</time>
      </trkpt>
      <trkpt lat="44.40275" lon="7.12927">
        <ele>2394.3</ele>
        <time>2021-03-08T09:41:53Z</time>
      </trkpt>
      <trkpt lat="44.4028" lon="7.12926">
        <ele>2393.34</ele>
        <time>2021-03-08T09:42:01Z</time>
      </trkpt>
      <trkpt lat="44.40292" lon="7.12925">
        <ele>2392.38</ele>
        <time>2021-03-08T09:42:17Z</time>
      </trkpt>
      <trkpt lat="44.40295" lon="7.12925">
        <ele>2391.42</ele>
        <time>2021-03-08T09:42:23Z</time>
      </trkpt>
      <trkpt lat="44.40306" lon="7.12925">
        <ele>2391.9</ele>
        <time>2021-03-08T09:42:38Z</time>
      </trkpt>
      <trkpt lat="44.40314" lon="7.1292">
        <ele>2396.22</ele>
        <time>2021-03-08T09:42:53Z</time>
      </trkpt>
      <trkpt lat="44.40324" lon="7.12918">
        <ele>2397.67</ele>
        <time>2021-03-08T09:43:07Z</time>
      </trkpt>
      <trkpt lat="44.40336" lon="7.12918">
        <ele>2399.11</ele>
        <time>2021-03-08T09:43:21Z</time>
      </trkpt>
      <trkpt lat="44.40346" lon="7.12915">
        <ele>2397.18</ele>
        <time>2021-03-08T09:43:36Z</time>
      </trkpt>
      <trkpt lat="44.40353" lon="7.12916">
        <ele>2397.67</ele>
        <time>2021-03-08T09:43:51Z</time>
      </trkpt>
      <trkpt lat="44.40364" lon="7.12915">
        <ele>2399.59</ele>
        <time>2021-03-08T09:44:05Z</time>
      </trkpt>
      <trkpt lat="44.40373" lon="7.12914">
        <ele>2399.59</ele>
        <time>2021-03-08T09:44:19Z</time>
      </trkpt>
      <trkpt lat="44.40383" lon="7.12913">
        <ele>2401.51</ele>
        <time>2021-03-08T09:44:35Z</time>
      </trkpt>
      <trkpt lat="44.40396" lon="7.12915">
        <ele>2404.39</ele>
        <time>2021-03-08T09:44:52Z</time>
      </trkpt>
      <trkpt lat="44.40407" lon="7.12914">
        <ele>2405.84</ele>
        <time>2021-03-08T09:45:10Z</time>
      </trkpt>
      <trkpt lat="44.40416" lon="7.12917">
        <ele>2408.24</ele>
        <time>2021-03-08T09:45:24Z</time>
      </trkpt>
      <trkpt lat="44.40425" lon="7.12919">
        <ele>2405.36</ele>
        <time>2021-03-08T09:45:39Z</time>
      </trkpt>
      <trkpt lat="44.40436" lon="7.1292">
        <ele>2406.32</ele>
        <time>2021-03-08T09:45:54Z</time>
      </trkpt>
      <trkpt lat="44.40447" lon="7.12922">
        <ele>2408.72</ele>
        <time>2021-03-08T09:46:09Z</time>
      </trkpt>
      <trkpt lat="44.40455" lon="7.12924">
        <ele>2410.64</ele>
        <time>2021-03-08T09:46:21Z</time>
      </trkpt>
      <trkpt lat="44.40461" lon="7.12925">
        <ele>2408.72</ele>
        <time>2021-03-08T09:46:38Z</time>
      </trkpt>
      <trkpt lat="44.40463" lon="7.12924">
        <ele>2412.09</ele>
        <time>2021-03-08T09:46:53Z</time>
      </trkpt>
      <trkpt lat="44.40463" lon="7.12919">
        <ele>2410.16</ele>
        <time>2021-03-08T09:47:23Z</time>
      </trkpt>
      <trkpt lat="44.40467" lon="7.12919">
        <ele>2409.2</ele>
        <time>2021-03-08T09:47:33Z</time>
      </trkpt>
      <trkpt lat="44.40472" lon="7.12919">
        <ele>2406.8</ele>
        <time>2021-03-08T09:47:47Z</time>
      </trkpt>
      <trkpt lat="44.40479" lon="7.12915">
        <ele>2406.32</ele>
        <time>2021-03-08T09:48:01Z</time>
      </trkpt>
      <trkpt lat="44.4049" lon="7.12912">
        <ele>2406.8</ele>
        <time>2021-03-08T09:48:15Z</time>
      </trkpt>
      <trkpt lat="44.40501" lon="7.12912">
        <ele>2405.84</ele>
        <time>2021-03-08T09:48:30Z</time>
      </trkpt>
      <trkpt lat="44.40514" lon="7.12916">
        <ele>2405.84</ele>
        <time>2021-03-08T09:48:45Z</time>
      </trkpt>
      <trkpt lat="44.40528" lon="7.1292">
        <ele>2406.8</ele>
        <time>2021-03-08T09:49:02Z</time>
      </trkpt>
      <trkpt lat="44.40544" lon="7.12923">
        <ele>2408.72</ele>
        <time>2021-03-08T09:49:18Z</time>
      </trkpt>
      <trkpt lat="44.40554" lon="7.12924">
        <ele>2406.8</ele>
        <time>2021-03-08T09:49:31Z</time>
      </trkpt>
      <trkpt lat="44.40568" lon="7.12927">
        <ele>2407.76</ele>
        <time>2021-03-08T09:49:48Z</time>
      </trkpt>
      <trkpt lat="44.40579" lon="7.1293">
        <ele>2407.76</ele>
        <time>2021-03-08T09:50:03Z</time>
      </trkpt>
      <trkpt lat="44.4059" lon="7.12933">
        <ele>2410.16</ele>
        <time>2021-03-08T09:50:17Z</time>
      </trkpt>
      <trkpt lat="44.406" lon="7.12936">
        <ele>2414.97</ele>
        <time>2021-03-08T09:50:31Z</time>
      </trkpt>
      <trkpt lat="44.4061" lon="7.12939">
        <ele>2416.41</ele>
        <time>2021-03-08T09:50:46Z</time>
      </trkpt>
      <trkpt lat="44.40619" lon="7.1294">
        <ele>2415.93</ele>
        <time>2021-03-08T09:51:02Z</time>
      </trkpt>
      <trkpt lat="44.40627" lon="7.1294">
        <ele>2414.49</ele>
        <time>2021-03-08T09:51:15Z</time>
      </trkpt>
      <trkpt lat="44.40637" lon="7.12941">
        <ele>2414.97</ele>
        <time>2021-03-08T09:51:30Z</time>
      </trkpt>
      <trkpt lat="44.40645" lon="7.12946">
        <ele>2419.78</ele>
        <time>2021-03-08T09:51:45Z</time>
      </trkpt>
      <trkpt lat="44.40654" lon="7.12948">
        <ele>2419.3</ele>
        <time>2021-03-08T09:51:58Z</time>
      </trkpt>
      <trkpt lat="44.40662" lon="7.12953">
        <ele>2421.7</ele>
        <time>2021-03-08T09:52:12Z</time>
      </trkpt>
      <trkpt lat="44.40672" lon="7.12957">
        <ele>2426.5</ele>
        <time>2021-03-08T09:52:27Z</time>
      </trkpt>
      <trkpt lat="44.4068" lon="7.1296">
        <ele>2427.47</ele>
        <time>2021-03-08T09:52:40Z</time>
      </trkpt>
      <trkpt lat="44.40687" lon="7.12963">
        <ele>2423.62</ele>
        <time>2021-03-08T09:52:55Z</time>
      </trkpt>
      <trkpt lat="44.40691" lon="7.12966">
        <ele>2423.62</ele>
        <time>2021-03-08T09:53:08Z</time>
      </trkpt>
      <trkpt lat="44.40695" lon="7.12966">
        <ele>2424.1</ele>
        <time>2021-03-08T09:53:22Z</time>
      </trkpt>
      <trkpt lat="44.40695" lon="7.12968">
        <ele>2425.54</ele>
        <time>2021-03-08T09:53:40Z</time>
      </trkpt>
      <trkpt lat="44.40697" lon="7.1297">
        <ele>2425.54</ele>
        <time>2021-03-08T09:54:01Z</time>
      </trkpt>
      <trkpt lat="44.40702" lon="7.1297">
        <ele>2426.5</ele>
        <time>2021-03-08T09:54:17Z</time>
      </trkpt>
      <trkpt lat="44.40711" lon="7.12973">
        <ele>2429.39</ele>
        <time>2021-03-08T09:54:31Z</time>
      </trkpt>
      <trkpt lat="44.40722" lon="7.12979">
        <ele>2432.75</ele>
        <time>2021-03-08T09:54:46Z</time>
      </trkpt>
      <trkpt lat="44.40731" lon="7.12982">
        <ele>2435.64</ele>
        <time>2021-03-08T09:55:01Z</time>
      </trkpt>
      <trkpt lat="44.40738" lon="7.12982">
        <ele>2438.04</ele>
        <time>2021-03-08T09:55:15Z</time>
      </trkpt>
      <trkpt lat="44.40747" lon="7.12984">
        <ele>2440.44</ele>
        <time>2021-03-08T09:55:31Z</time>
      </trkpt>
      <trkpt lat="44.40748" lon="7.12982">
        <ele>2438.52</ele>
        <time>2021-03-08T09:55:44Z</time>
      </trkpt>
      <trkpt lat="44.40757" lon="7.12983">
        <ele>2439</ele>
        <time>2021-03-08T09:56:00Z</time>
      </trkpt>
      <trkpt lat="44.40762" lon="7.12986">
        <ele>2441.89</ele>
        <time>2021-03-08T09:56:15Z</time>
      </trkpt>
      <trkpt lat="44.40764" lon="7.1299">
        <ele>2444.29</ele>
        <time>2021-03-08T09:56:37Z</time>
      </trkpt>
      <trkpt lat="44.40771" lon="7.1299">
        <ele>2445.25</ele>
        <time>2021-03-08T09:56:56Z</time>
      </trkpt>
      <trkpt lat="44.40778" lon="7.12989">
        <ele>2442.85</ele>
        <time>2021-03-08T09:57:08Z</time>
      </trkpt>
      <trkpt lat="44.40785" lon="7.1299">
        <ele>2443.33</ele>
        <time>2021-03-08T09:57:21Z</time>
      </trkpt>
      <trkpt lat="44.40791" lon="7.12997">
        <ele>2447.65</ele>
        <time>2021-03-08T09:57:35Z</time>
      </trkpt>
      <trkpt lat="44.40797" lon="7.12998">
        <ele>2451.5</ele>
        <time>2021-03-08T09:57:48Z</time>
      </trkpt>
      <trkpt lat="44.40805" lon="7.13001">
        <ele>2455.82</ele>
        <time>2021-03-08T09:58:03Z</time>
      </trkpt>
      <trkpt lat="44.40812" lon="7.13004">
        <ele>2458.23</ele>
        <time>2021-03-08T09:58:18Z</time>
      </trkpt>
      <trkpt lat="44.40819" lon="7.13008">
        <ele>2461.59</ele>
        <time>2021-03-08T09:58:34Z</time>
      </trkpt>
      <trkpt lat="44.40823" lon="7.1301">
        <ele>2463.04</ele>
        <time>2021-03-08T09:58:52Z</time>
      </trkpt>
      <trkpt lat="44.40824" lon="7.13011">
        <ele>2463.52</ele>
        <time>2021-03-08T09:59:20Z</time>
      </trkpt>
      <trkpt lat="44.40828" lon="7.13008">
        <ele>2462.55</ele>
        <time>2021-03-08T09:59:40Z</time>
      </trkpt>
      <trkpt lat="44.40834" lon="7.13012">
        <ele>2464.96</ele>
        <time>2021-03-08T09:59:55Z</time>
      </trkpt>
      <trkpt lat="44.40837" lon="7.13013">
        <ele>2464</ele>
        <time>2021-03-08T10:00:09Z</time>
      </trkpt>
      <trkpt lat="44.40841" lon="7.13015">
        <ele>2463.52</ele>
        <time>2021-03-08T10:00:23Z</time>
      </trkpt>
      <trkpt lat="44.40849" lon="7.13016">
        <ele>2467.36</ele>
        <time>2021-03-08T10:00:38Z</time>
      </trkpt>
      <trkpt lat="44.40857" lon="7.13017">
        <ele>2471.21</ele>
        <time>2021-03-08T10:00:53Z</time>
      </trkpt>
      <trkpt lat="44.40862" lon="7.13019">
        <ele>2472.65</ele>
        <time>2021-03-08T10:01:08Z</time>
      </trkpt>
      <trkpt lat="44.40866" lon="7.13021">
        <ele>2473.13</ele>
        <time>2021-03-08T10:01:28Z</time>
      </trkpt>
      <trkpt lat="44.40869" lon="7.13018">
        <ele>2474.09</ele>
        <time>2021-03-08T10:01:40Z</time>
      </trkpt>
      <trkpt lat="44.40865" lon="7.1301">
        <ele>2476.97</ele>
        <time>2021-03-08T10:01:59Z</time>
      </trkpt>
      <trkpt lat="44.40863" lon="7.12998">
        <ele>2479.86</ele>
        <time>2021-03-08T10:02:15Z</time>
      </trkpt>
      <trkpt lat="44.40862" lon="7.12991">
        <ele>2483.22</ele>
        <time>2021-03-08T10:02:32Z</time>
      </trkpt>
      <trkpt lat="44.4086" lon="7.12982">
        <ele>2486.59</ele>
        <time>2021-03-08T10:02:51Z</time>
      </trkpt>
      <trkpt lat="44.40857" lon="7.12968">
        <ele>2487.55</ele>
        <time>2021-03-08T10:03:12Z</time>
      </trkpt>
      <trkpt lat="44.40857" lon="7.12957">
        <ele>2489.95</ele>
        <time>2021-03-08T10:03:30Z</time>
      </trkpt>
      <trkpt lat="44.40863" lon="7.12962">
        <ele>2488.99</ele>
        <time>2021-03-08T10:03:42Z</time>
      </trkpt>
      <trkpt lat="44.40869" lon="7.12967">
        <ele>2491.87</ele>
        <time>2021-03-08T10:03:56Z</time>
      </trkpt>
      <trkpt lat="44.4087" lon="7.12966">
        <ele>2491.87</ele>
        <time>2021-03-08T10:03:57Z</time>
      </trkpt>
      <trkpt lat="44.40879" lon="7.1297">
        <ele>2495.24</ele>
        <time>2021-03-08T10:04:12Z</time>
      </trkpt>
      <trkpt lat="44.40886" lon="7.12976">
        <ele>2498.12</ele>
        <time>2021-03-08T10:04:25Z</time>
      </trkpt>
      <trkpt lat="44.40888" lon="7.1298">
        <ele>2501.97</ele>
        <time>2021-03-08T10:04:49Z</time>
      </trkpt>
      <trkpt lat="44.40895" lon="7.12983">
        <ele>2503.89</ele>
        <time>2021-03-08T10:05:03Z</time>
      </trkpt>
      <trkpt lat="44.40895" lon="7.12986">
        <ele>2503.41</ele>
        <time>2021-03-08T10:05:23Z</time>
      </trkpt>
      <trkpt lat="44.40902" lon="7.12988">
        <ele>2504.85</ele>
        <time>2021-03-08T10:05:37Z</time>
      </trkpt>
      <trkpt lat="44.40904" lon="7.12991">
        <ele>2504.37</ele>
        <time>2021-03-08T10:05:55Z</time>
      </trkpt>
      <trkpt lat="44.4091" lon="7.12995">
        <ele>2504.85</ele>
        <time>2021-03-08T10:06:10Z</time>
      </trkpt>
      <trkpt lat="44.40918" lon="7.13001">
        <ele>2507.26</ele>
        <time>2021-03-08T10:06:24Z</time>
      </trkpt>
      <trkpt lat="44.40922" lon="7.13002">
        <ele>2507.74</ele>
        <time>2021-03-08T10:06:41Z</time>
      </trkpt>
      <trkpt lat="44.40925" lon="7.13001">
        <ele>2507.26</ele>
        <time>2021-03-08T10:07:00Z</time>
      </trkpt>
      <trkpt lat="44.4092" lon="7.12992">
        <ele>2506.77</ele>
        <time>2021-03-08T10:07:12Z</time>
      </trkpt>
      <trkpt lat="44.40917" lon="7.12979">
        <ele>2510.14</ele>
        <time>2021-03-08T10:07:27Z</time>
      </trkpt>
      <trkpt lat="44.40916" lon="7.12972">
        <ele>2510.14</ele>
        <time>2021-03-08T10:07:43Z</time>
      </trkpt>
      <trkpt lat="44.40911" lon="7.12965">
        <ele>2510.62</ele>
        <time>2021-03-08T10:07:58Z</time>
      </trkpt>
      <trkpt lat="44.40908" lon="7.12959">
        <ele>2510.62</ele>
        <time>2021-03-08T10:08:14Z</time>
      </trkpt>
      <trkpt lat="44.40913" lon="7.12961">
        <ele>2509.18</ele>
        <time>2021-03-08T10:08:27Z</time>
      </trkpt>
      <trkpt lat="44.40917" lon="7.12964">
        <ele>2512.54</ele>
        <time>2021-03-08T10:08:49Z</time>
      </trkpt>
      <trkpt lat="44.40922" lon="7.12971">
        <ele>2514.95</ele>
        <time>2021-03-08T10:09:03Z</time>
      </trkpt>
      <trkpt lat="44.40928" lon="7.12977">
        <ele>2515.91</ele>
        <time>2021-03-08T10:09:17Z</time>
      </trkpt>
      <trkpt lat="44.40936" lon="7.12989">
        <ele>2516.87</ele>
        <time>2021-03-08T10:09:32Z</time>
      </trkpt>
      <trkpt lat="44.4094" lon="7.12991">
        <ele>2517.35</ele>
        <time>2021-03-08T10:09:46Z</time>
      </trkpt>
      <trkpt lat="44.40942" lon="7.12992">
        <ele>2517.35</ele>
        <time>2021-03-08T10:10:03Z</time>
      </trkpt>
      <trkpt lat="44.40942" lon="7.12991">
        <ele>2517.35</ele>
        <time>2021-03-08T10:10:23Z</time>
      </trkpt>
      <trkpt lat="44.40941" lon="7.12992">
        <ele>2516.87</ele>
        <time>2021-03-08T10:10:42Z</time>
      </trkpt>
      <trkpt lat="44.40943" lon="7.12991">
        <ele>2516.87</ele>
        <time>2021-03-08T10:11:05Z</time>
      </trkpt>
      <trkpt lat="44.40942" lon="7.12993">
        <ele>2516.39</ele>
        <time>2021-03-08T10:11:25Z</time>
      </trkpt>
      <trkpt lat="44.40946" lon="7.12999">
        <ele>2519.75</ele>
        <time>2021-03-08T10:11:38Z</time>
      </trkpt>
      <trkpt lat="44.40953" lon="7.13009">
        <ele>2519.75</ele>
        <time>2021-03-08T10:11:52Z</time>
      </trkpt>
      <trkpt lat="44.40956" lon="7.13012">
        <ele>2519.75</ele>
        <time>2021-03-08T10:12:05Z</time>
      </trkpt>
      <trkpt lat="44.40957" lon="7.13013">
        <ele>2519.75</ele>
        <time>2021-03-08T10:12:21Z</time>
      </trkpt>
      <trkpt lat="44.40987" lon="7.13087">
        <ele>2508.578125</ele>
      </trkpt>
      <trkpt lat="44.41011" lon="7.13126">
        <ele>2516.9921875</ele>
      </trkpt>
      <trkpt lat="44.4103" lon="7.13161">
        <ele>2526.4453125</ele>
      </trkpt>
      <trkpt lat="44.41049" lon="7.132">
        <ele>2537.62890625</ele>
      </trkpt>
      <trkpt lat="44.41063" lon="7.13258">
        <ele>2550.53515625</ele>
      </trkpt>
      <trkpt lat="44.41068" lon="7.13285">
        <ele>2556.2265625</ele>
      </trkpt>
      <trkpt lat="44.41076" lon="7.13316">
        <ele>2562.3828125</ele>
      </trkpt>
      <trkpt lat="44.40959" lon="7.13016">
        <ele>2519.75</ele>
        <time>2021-03-08T10:12:37Z</time>
      </trkpt>
      <trkpt lat="44.40959" lon="7.13016">
        <ele>2518.79</ele>
        <time>2021-03-08T10:13:00Z</time>
      </trkpt>
      <trkpt lat="44.40957" lon="7.13019">
        <ele>2518.79</ele>
        <time>2021-03-08T10:13:21Z</time>
      </trkpt>
      <trkpt lat="44.40957" lon="7.1302">
        <ele>2520.23</ele>
        <time>2021-03-08T10:13:39Z</time>
      </trkpt>
      <trkpt lat="44.40957" lon="7.13019">
        <ele>2520.23</ele>
        <time>2021-03-08T10:13:52Z</time>
      </trkpt>
      <trkpt lat="44.40956" lon="7.13017">
        <ele>2517.83</ele>
        <time>2021-03-08T10:14:05Z</time>
      </trkpt>
      <trkpt lat="44.40955" lon="7.13016">
        <ele>2516.39</ele>
        <time>2021-03-08T10:14:29Z</time>
      </trkpt>
      <trkpt lat="44.40955" lon="7.13015">
        <ele>2517.35</ele>
        <time>2021-03-08T10:14:54Z</time>
      </trkpt>
      <trkpt lat="44.40953" lon="7.13015">
        <ele>2516.87</ele>
        <time>2021-03-08T10:15:16Z</time>
      </trkpt>
      <trkpt lat="44.40955" lon="7.13015">
        <ele>2516.39</ele>
        <time>2021-03-08T10:15:36Z</time>
      </trkpt>
      <trkpt lat="44.40955" lon="7.13015">
        <ele>2516.39</ele>
        <time>2021-03-08T10:15:54Z</time>
      </trkpt>
      <trkpt lat="44.40957" lon="7.13015">
        <ele>2516.39</ele>
        <time>2021-03-08T10:16:05Z</time>
      </trkpt>
      <trkpt lat="44.40954" lon="7.13014">
        <ele>2516.39</ele>
        <time>2021-03-08T10:16:20Z</time>
      </trkpt>
      <trkpt lat="44.40954" lon="7.13014">
        <ele>2515.91</ele>
        <time>2021-03-08T10:16:30Z</time>
      </trkpt>
      <trkpt lat="44.40957" lon="7.13014">
        <ele>2519.27</ele>
        <time>2021-03-08T10:17:02Z</time>
      </trkpt>
      <trkpt lat="44.40954" lon="7.13016">
        <ele>2518.31</ele>
        <time>2021-03-08T10:17:37Z</time>
      </trkpt>
      <trkpt lat="44.40954" lon="7.13018">
        <ele>2517.35</ele>
        <time>2021-03-08T10:18:11Z</time>
      </trkpt>
      <trkpt lat="44.40954" lon="7.13016">
        <ele>2515.43</ele>
        <time>2021-03-08T10:18:46Z</time>
      </trkpt>
      <trkpt lat="44.40954" lon="7.13017">
        <ele>2515.91</ele>
        <time>2021-03-08T10:19:23Z</time>
      </trkpt>
      <trkpt lat="44.40954" lon="7.13016">
        <ele>2517.83</ele>
        <time>2021-03-08T10:19:51Z</time>
      </trkpt>
      <trkpt lat="44.40954" lon="7.13017">
        <ele>2519.27</ele>
        <time>2021-03-08T10:20:31Z</time>
      </trkpt>
      <trkpt lat="44.40954" lon="7.13017">
        <ele>2516.87</ele>
        <time>2021-03-08T10:21:05Z</time>
      </trkpt>
      <trkpt lat="44.40953" lon="7.13015">
        <ele>2516.87</ele>
        <time>2021-03-08T10:21:34Z</time>
      </trkpt>
      <trkpt lat="44.40955" lon="7.13014">
        <ele>2518.31</ele>
        <time>2021-03-08T10:22:17Z</time>
      </trkpt>
      <trkpt lat="44.40955" lon="7.13013">
        <ele>2519.75</ele>
        <time>2021-03-08T10:22:44Z</time>
      </trkpt>
      <trkpt lat="44.40954" lon="7.13014">
        <ele>2518.79</ele>
        <time>2021-03-08T10:23:18Z</time>
      </trkpt>
      <trkpt lat="44.40954" lon="7.13016">
        <ele>2519.75</ele>
        <time>2021-03-08T10:23:57Z</time>
      </trkpt>
      <trkpt lat="44.40954" lon="7.13016">
        <ele>2516.39</ele>
        <time>2021-03-08T10:24:29Z</time>
      </trkpt>
      <trkpt lat="44.40954" lon="7.13018">
        <ele>2513.98</ele>
        <time>2021-03-08T10:25:11Z</time>
      </trkpt>
      <trkpt lat="44.40953" lon="7.13016">
        <ele>2514.47</ele>
        <time>2021-03-08T10:25:39Z</time>
      </trkpt>
      <trkpt lat="44.40953" lon="7.13016">
        <ele>2514.47</ele>
        <time>2021-03-08T10:26:19Z</time>
      </trkpt>
      <trkpt lat="44.40954" lon="7.13016">
        <ele>2514.95</ele>
        <time>2021-03-08T10:26:48Z</time>
      </trkpt>
      <trkpt lat="44.40953" lon="7.13016">
        <ele>2515.43</ele>
        <time>2021-03-08T10:27:24Z</time>
      </trkpt>
      <trkpt lat="44.40953" lon="7.13016">
        <ele>2515.43</ele>
        <time>2021-03-08T10:27:55Z</time>
      </trkpt>
      <trkpt lat="44.40952" lon="7.13016">
        <ele>2515.91</ele>
        <time>2021-03-08T10:28:26Z</time>
      </trkpt>
      <trkpt lat="44.40953" lon="7.13018">
        <ele>2516.39</ele>
        <time>2021-03-08T10:29:01Z</time>
      </trkpt>
      <trkpt lat="44.40952" lon="7.13017">
        <ele>2517.35</ele>
        <time>2021-03-08T10:29:37Z</time>
      </trkpt>
      <trkpt lat="44.40952" lon="7.13014">
        <ele>2516.39</ele>
        <time>2021-03-08T10:30:15Z</time>
      </trkpt>
      <trkpt lat="44.40954" lon="7.13015">
        <ele>2520.23</ele>
        <time>2021-03-08T10:30:52Z</time>
      </trkpt>
      <trkpt lat="44.40955" lon="7.13015">
        <ele>2515.43</ele>
        <time>2021-03-08T10:31:23Z</time>
      </trkpt>
      <trkpt lat="44.40954" lon="7.13016">
        <ele>2514.95</ele>
        <time>2021-03-08T10:31:52Z</time>
      </trkpt>
      <trkpt lat="44.40954" lon="7.13017">
        <ele>2517.83</ele>
        <time>2021-03-08T10:32:31Z</time>
      </trkpt>
      <trkpt lat="44.40956" lon="7.13018">
        <ele>2518.31</ele>
        <time>2021-03-08T10:33:00Z</time>
      </trkpt>
      <trkpt lat="44.40954" lon="7.13013">
        <ele>2515.91</ele>
        <time>2021-03-08T10:33:29Z</time>
      </trkpt>
      <trkpt lat="44.40954" lon="7.13014">
        <ele>2516.87</ele>
        <time>2021-03-08T10:33:45Z</time>
      </trkpt>
      <trkpt lat="44.40954" lon="7.13015">
        <ele>2515.91</ele>
        <time>2021-03-08T10:34:08Z</time>
      </trkpt>
      <trkpt lat="44.40952" lon="7.13017">
        <ele>2518.79</ele>
        <time>2021-03-08T10:34:48Z</time>
      </trkpt>
      <trkpt lat="44.40955" lon="7.13015">
        <ele>2517.83</ele>
        <time>2021-03-08T10:35:19Z</time>
      </trkpt>
      <trkpt lat="44.40959" lon="7.13015">
        <ele>2517.83</ele>
        <time>2021-03-08T10:35:46Z</time>
      </trkpt>
      <trkpt lat="44.40958" lon="7.13012">
        <ele>2516.39</ele>
        <time>2021-03-08T10:36:13Z</time>
      </trkpt>
      <trkpt lat="44.40956" lon="7.13011">
        <ele>2518.31</ele>
        <time>2021-03-08T10:36:31Z</time>
      </trkpt>
      <trkpt lat="44.40954" lon="7.13011">
        <ele>2516.39</ele>
        <time>2021-03-08T10:36:48Z</time>
      </trkpt>
      <trkpt lat="44.40955" lon="7.13013">
        <ele>2515.91</ele>
        <time>2021-03-08T10:37:02Z</time>
      </trkpt>
      <trkpt lat="44.40957" lon="7.13014">
        <ele>2515.91</ele>
        <time>2021-03-08T10:37:13Z</time>
      </trkpt>
      <trkpt lat="44.40954" lon="7.13013">
        <ele>2514.47</ele>
        <time>2021-03-08T10:37:36Z</time>
      </trkpt>
      <trkpt lat="44.40954" lon="7.13013">
        <ele>2515.43</ele>
        <time>2021-03-08T10:37:57Z</time>
      </trkpt>
      <trkpt lat="44.40953" lon="7.1301">
        <ele>2515.91</ele>
        <time>2021-03-08T10:38:12Z</time>
      </trkpt>
      <trkpt lat="44.40952" lon="7.13009">
        <ele>2515.91</ele>
        <time>2021-03-08T10:38:16Z</time>
      </trkpt>
      <trkpt lat="44.40946" lon="7.13003">
        <ele>2514.95</ele>
        <time>2021-03-08T10:38:30Z</time>
      </trkpt>
      <trkpt lat="44.40944" lon="7.13001">
        <ele>2514.95</ele>
        <time>2021-03-08T10:38:38Z</time>
      </trkpt>
      <trkpt lat="44.40938" lon="7.12992">
        <ele>2513.98</ele>
        <time>2021-03-08T10:38:44Z</time>
      </trkpt>
      <trkpt lat="44.40937" lon="7.12991">
        <ele>2513.5</ele>
        <time>2021-03-08T10:38:45Z</time>
      </trkpt>
      <trkpt lat="44.40935" lon="7.1299">
        <ele>2513.02</ele>
        <time>2021-03-08T10:38:46Z</time>
      </trkpt>
      <trkpt lat="44.40932" lon="7.12986">
        <ele>2511.1</ele>
        <time>2021-03-08T10:38:57Z</time>
      </trkpt>
      <trkpt lat="44.40931" lon="7.12989">
        <ele>2511.58</ele>
        <time>2021-03-08T10:39:14Z</time>
      </trkpt>
      <trkpt lat="44.4093" lon="7.12987">
        <ele>2510.62</ele>
        <time>2021-03-08T10:39:21Z</time>
      </trkpt>
      <trkpt lat="44.40928" lon="7.12986">
        <ele>2510.14</ele>
        <time>2021-03-08T10:39:22Z</time>
      </trkpt>
      <trkpt lat="44.40927" lon="7.12986">
        <ele>2509.18</ele>
        <time>2021-03-08T10:39:36Z</time>
      </trkpt>
      <trkpt lat="44.40926" lon="7.12985">
        <ele>2508.7</ele>
        <time>2021-03-08T10:39:46Z</time>
      </trkpt>
      <trkpt lat="44.40924" lon="7.12985">
        <ele>2508.7</ele>
        <time>2021-03-08T10:39:47Z</time>
      </trkpt>
      <trkpt lat="44.40917" lon="7.12991">
        <ele>2505.33</ele>
        <time>2021-03-08T10:39:52Z</time>
      </trkpt>
      <trkpt lat="44.40914" lon="7.12988">
        <ele>2503.89</ele>
        <time>2021-03-08T10:39:54Z</time>
      </trkpt>
      <trkpt lat="44.40883" lon="7.12947">
        <ele>2499.57</ele>
        <time>2021-03-08T10:40:07Z</time>
      </trkpt>
      <trkpt lat="44.40881" lon="7.12945">
        <ele>2500.53</ele>
        <time>2021-03-08T10:40:17Z</time>
      </trkpt>
      <trkpt lat="44.40881" lon="7.12946">
        <ele>2499.57</ele>
        <time>2021-03-08T10:40:39Z</time>
      </trkpt>
      <trkpt lat="44.40881" lon="7.12944">
        <ele>2499.57</ele>
        <time>2021-03-08T10:41:05Z</time>
      </trkpt>
      <trkpt lat="44.40881" lon="7.12944">
        <ele>2499.57</ele>
        <time>2021-03-08T10:41:09Z</time>
      </trkpt>
      <trkpt lat="44.4088" lon="7.12943">
        <ele>2499.57</ele>
        <time>2021-03-08T10:41:10Z</time>
      </trkpt>
      <trkpt lat="44.40877" lon="7.12942">
        <ele>2499.08</ele>
        <time>2021-03-08T10:41:11Z</time>
      </trkpt>
      <trkpt lat="44.40875" lon="7.12944">
        <ele>2498.12</ele>
        <time>2021-03-08T10:41:12Z</time>
      </trkpt>
      <trkpt lat="44.40872" lon="7.12951">
        <ele>2495.72</ele>
        <time>2021-03-08T10:41:15Z</time>
      </trkpt>
      <trkpt lat="44.40869" lon="7.1295">
        <ele>2494.28</ele>
        <time>2021-03-08T10:41:16Z</time>
      </trkpt>
      <trkpt lat="44.40867" lon="7.12951">
        <ele>2493.32</ele>
        <time>2021-03-08T10:41:17Z</time>
      </trkpt>
      <trkpt lat="44.40855" lon="7.12966">
        <ele>2485.15</ele>
        <time>2021-03-08T10:41:24Z</time>
      </trkpt>
      <trkpt lat="44.4084" lon="7.12958">
        <ele>2480.34</ele>
        <time>2021-03-08T10:41:28Z</time>
      </trkpt>
      <trkpt lat="44.40827" lon="7.1296">
        <ele>2475.05</ele>
        <time>2021-03-08T10:41:31Z</time>
      </trkpt>
      <trkpt lat="44.40832" lon="7.12962">
        <ele>2473.61</ele>
        <time>2021-03-08T10:41:39Z</time>
      </trkpt>
      <trkpt lat="44.40832" lon="7.12962">
        <ele>2472.17</ele>
        <time>2021-03-08T10:42:05Z</time>
      </trkpt>
      <trkpt lat="44.40807" lon="7.12936">
        <ele>2469.76</ele>
        <time>2021-03-08T10:42:17Z</time>
      </trkpt>
      <trkpt lat="44.4079" lon="7.12925">
        <ele>2469.76</ele>
        <time>2021-03-08T10:42:32Z</time>
      </trkpt>
      <trkpt lat="44.40789" lon="7.12924">
        <ele>2470.73</ele>
        <time>2021-03-08T10:42:52Z</time>
      </trkpt>
      <trkpt lat="44.40789" lon="7.12921">
        <ele>2470.24</ele>
        <time>2021-03-08T10:43:22Z</time>
      </trkpt>
      <trkpt lat="44.40789" lon="7.12919">
        <ele>2472.65</ele>
        <time>2021-03-08T10:43:42Z</time>
      </trkpt>
      <trkpt lat="44.40787" lon="7.12922">
        <ele>2472.65</ele>
        <time>2021-03-08T10:43:49Z</time>
      </trkpt>
      <trkpt lat="44.4078" lon="7.12936">
        <ele>2470.24</ele>
        <time>2021-03-08T10:43:55Z</time>
      </trkpt>
      <trkpt lat="44.40772" lon="7.12955">
        <ele>2465.92</ele>
        <time>2021-03-08T10:44:00Z</time>
      </trkpt>
      <trkpt lat="44.40761" lon="7.12974">
        <ele>2462.07</ele>
        <time>2021-03-08T10:44:05Z</time>
      </trkpt>
      <trkpt lat="44.40751" lon="7.12986">
        <ele>2455.82</ele>
        <time>2021-03-08T10:44:10Z</time>
      </trkpt>
      <trkpt lat="44.40755" lon="7.1297">
        <ele>2439.96</ele>
        <time>2021-03-08T10:44:24Z</time>
      </trkpt>
      <trkpt lat="44.40755" lon="7.12967">
        <ele>2434.68</ele>
        <time>2021-03-08T10:44:33Z</time>
      </trkpt>
      <trkpt lat="44.40752" lon="7.1297">
        <ele>2433.71</ele>
        <time>2021-03-08T10:44:37Z</time>
      </trkpt>
      <trkpt lat="44.40723" lon="7.12947">
        <ele>2433.23</ele>
        <time>2021-03-08T10:44:49Z</time>
      </trkpt>
      <trkpt lat="44.407" lon="7.12935">
        <ele>2433.71</ele>
        <time>2021-03-08T10:44:58Z</time>
      </trkpt>
      <trkpt lat="44.40697" lon="7.12933">
        <ele>2433.23</ele>
        <time>2021-03-08T10:44:59Z</time>
      </trkpt>
      <trkpt lat="44.4069" lon="7.12936">
        <ele>2433.23</ele>
        <time>2021-03-08T10:45:01Z</time>
      </trkpt>
      <trkpt lat="44.40688" lon="7.12954">
        <ele>2432.75</ele>
        <time>2021-03-08T10:45:04Z</time>
      </trkpt>
      <trkpt lat="44.40676" lon="7.12968">
        <ele>2431.31</ele>
        <time>2021-03-08T10:45:09Z</time>
      </trkpt>
      <trkpt lat="44.40673" lon="7.1297">
        <ele>2431.31</ele>
        <time>2021-03-08T10:45:10Z</time>
      </trkpt>
      <trkpt lat="44.40668" lon="7.1297">
        <ele>2431.31</ele>
        <time>2021-03-08T10:45:12Z</time>
      </trkpt>
      <trkpt lat="44.40651" lon="7.12997">
        <ele>2427.95</ele>
        <time>2021-03-08T10:45:17Z</time>
      </trkpt>
      <trkpt lat="44.40636" lon="7.13016">
        <ele>2426.02</ele>
        <time>2021-03-08T10:45:20Z</time>
      </trkpt>
      <trkpt lat="44.40632" lon="7.13019">
        <ele>2425.54</ele>
        <time>2021-03-08T10:45:21Z</time>
      </trkpt>
      <trkpt lat="44.40627" lon="7.13022">
        <ele>2425.54</ele>
        <time>2021-03-08T10:45:22Z</time>
      </trkpt>
      <trkpt lat="44.40601" lon="7.13033">
        <ele>2423.62</ele>
        <time>2021-03-08T10:45:29Z</time>
      </trkpt>
      <trkpt lat="44.40572" lon="7.13033">
        <ele>2420.74</ele>
        <time>2021-03-08T10:45:35Z</time>
      </trkpt>
      <trkpt lat="44.40522" lon="7.12998">
        <ele>2417.85</ele>
        <time>2021-03-08T10:45:50Z</time>
      </trkpt>
      <trkpt lat="44.40512" lon="7.12998">
        <ele>2416.89</ele>
        <time>2021-03-08T10:45:53Z</time>
      </trkpt>
      <trkpt lat="44.40504" lon="7.13">
        <ele>2416.41</ele>
        <time>2021-03-08T10:45:55Z</time>
      </trkpt>
      <trkpt lat="44.40446" lon="7.12999">
        <ele>2412.57</ele>
        <time>2021-03-08T10:46:08Z</time>
      </trkpt>
      <trkpt lat="44.40435" lon="7.13002">
        <ele>2412.09</ele>
        <time>2021-03-08T10:46:19Z</time>
      </trkpt>
      <trkpt lat="44.40434" lon="7.13003">
        <ele>2412.57</ele>
        <time>2021-03-08T10:46:21Z</time>
      </trkpt>
      <trkpt lat="44.40422" lon="7.13013">
        <ele>2413.05</ele>
        <time>2021-03-08T10:46:29Z</time>
      </trkpt>
      <trkpt lat="44.40388" lon="7.13022">
        <ele>2404.39</ele>
        <time>2021-03-08T10:46:44Z</time>
      </trkpt>
      <trkpt lat="44.40382" lon="7.13022">
        <ele>2403.91</ele>
        <time>2021-03-08T10:46:48Z</time>
      </trkpt>
      <trkpt lat="44.40377" lon="7.13024">
        <ele>2403.43</ele>
        <time>2021-03-08T10:46:52Z</time>
      </trkpt>
      <trkpt lat="44.40371" lon="7.13025">
        <ele>2403.91</ele>
        <time>2021-03-08T10:47:03Z</time>
      </trkpt>
      <trkpt lat="44.40371" lon="7.13023">
        <ele>2401.03</ele>
        <time>2021-03-08T10:47:17Z</time>
      </trkpt>
      <trkpt lat="44.40371" lon="7.13023">
        <ele>2400.55</ele>
        <time>2021-03-08T10:47:18Z</time>
      </trkpt>
      <trkpt lat="44.40363" lon="7.1302">
        <ele>2398.63</ele>
        <time>2021-03-08T10:47:22Z</time>
      </trkpt>
      <trkpt lat="44.40347" lon="7.13023">
        <ele>2393.34</ele>
        <time>2021-03-08T10:47:27Z</time>
      </trkpt>
      <trkpt lat="44.4032" lon="7.13019">
        <ele>2385.17</ele>
        <time>2021-03-08T10:47:34Z</time>
      </trkpt>
      <trkpt lat="44.40319" lon="7.13023">
        <ele>2384.21</ele>
        <time>2021-03-08T10:47:35Z</time>
      </trkpt>
      <trkpt lat="44.40302" lon="7.13032">
        <ele>2380.84</ele>
        <time>2021-03-08T10:47:43Z</time>
      </trkpt>
      <trkpt lat="44.40301" lon="7.13032">
        <ele>2381.8</ele>
        <time>2021-03-08T10:47:57Z</time>
      </trkpt>
      <trkpt lat="44.40301" lon="7.13032">
        <ele>2381.8</ele>
        <time>2021-03-08T10:48:08Z</time>
      </trkpt>
      <trkpt lat="44.40299" lon="7.13054">
        <ele>2377</ele>
        <time>2021-03-08T10:48:14Z</time>
      </trkpt>
      <trkpt lat="44.40294" lon="7.13073">
        <ele>2369.79</ele>
        <time>2021-03-08T10:48:19Z</time>
      </trkpt>
      <trkpt lat="44.40288" lon="7.13093">
        <ele>2361.62</ele>
        <time>2021-03-08T10:48:24Z</time>
      </trkpt>
      <trkpt lat="44.40285" lon="7.13116">
        <ele>2352.48</ele>
        <time>2021-03-08T10:48:29Z</time>
      </trkpt>
      <trkpt lat="44.40279" lon="7.13139">
        <ele>2342.39</ele>
        <time>2021-03-08T10:48:34Z</time>
      </trkpt>
      <trkpt lat="44.40276" lon="7.13157">
        <ele>2331.81</ele>
        <time>2021-03-08T10:48:39Z</time>
      </trkpt>
      <trkpt lat="44.40274" lon="7.13172">
        <ele>2320.28</ele>
        <time>2021-03-08T10:48:44Z</time>
      </trkpt>
      <trkpt lat="44.4027" lon="7.13187">
        <ele>2312.59</ele>
        <time>2021-03-08T10:48:48Z</time>
      </trkpt>
      <trkpt lat="44.40266" lon="7.13197">
        <ele>2304.9</ele>
        <time>2021-03-08T10:48:53Z</time>
      </trkpt>
      <trkpt lat="44.40267" lon="7.13195">
        <ele>2306.82</ele>
        <time>2021-03-08T10:49:12Z</time>
      </trkpt>
      <trkpt lat="44.40266" lon="7.13198">
        <ele>2307.3</ele>
        <time>2021-03-08T10:49:29Z</time>
      </trkpt>
      <trkpt lat="44.40267" lon="7.13197">
        <ele>2309.22</ele>
        <time>2021-03-08T10:49:49Z</time>
      </trkpt>
      <trkpt lat="44.40273" lon="7.13214">
        <ele>2311.15</ele>
        <time>2021-03-08T10:50:01Z</time>
      </trkpt>
      <trkpt lat="44.40277" lon="7.13225">
        <ele>2311.63</ele>
        <time>2021-03-08T10:50:04Z</time>
      </trkpt>
      <trkpt lat="44.40272" lon="7.13233">
        <ele>2311.63</ele>
        <time>2021-03-08T10:50:07Z</time>
      </trkpt>
      <trkpt lat="44.40256" lon="7.13253">
        <ele>2307.3</ele>
        <time>2021-03-08T10:50:12Z</time>
      </trkpt>
      <trkpt lat="44.40251" lon="7.1326">
        <ele>2306.82</ele>
        <time>2021-03-08T10:50:14Z</time>
      </trkpt>
      <trkpt lat="44.4023" lon="7.13288">
        <ele>2302.01</ele>
        <time>2021-03-08T10:50:23Z</time>
      </trkpt>
      <trkpt lat="44.40217" lon="7.13308">
        <ele>2297.21</ele>
        <time>2021-03-08T10:50:30Z</time>
      </trkpt>
      <trkpt lat="44.40216" lon="7.13312">
        <ele>2296.25</ele>
        <time>2021-03-08T10:50:32Z</time>
      </trkpt>
      <trkpt lat="44.40218" lon="7.13324">
        <ele>2296.25</ele>
        <time>2021-03-08T10:50:46Z</time>
      </trkpt>
      <trkpt lat="44.40215" lon="7.1333">
        <ele>2299.61</ele>
        <time>2021-03-08T10:51:02Z</time>
      </trkpt>
      <trkpt lat="44.40215" lon="7.1333">
        <ele>2299.13</ele>
        <time>2021-03-08T10:51:06Z</time>
      </trkpt>
      <trkpt lat="44.40212" lon="7.13344">
        <ele>2299.13</ele>
        <time>2021-03-08T10:51:12Z</time>
      </trkpt>
      <trkpt lat="44.40198" lon="7.13352">
        <ele>2292.88</ele>
        <time>2021-03-08T10:51:17Z</time>
      </trkpt>
      <trkpt lat="44.40183" lon="7.13373">
        <ele>2287.59</ele>
        <time>2021-03-08T10:51:22Z</time>
      </trkpt>
      <trkpt lat="44.40169" lon="7.13395">
        <ele>2283.27</ele>
        <time>2021-03-08T10:51:26Z</time>
      </trkpt>
      <trkpt lat="44.40145" lon="7.13393">
        <ele>2278.46</ele>
        <time>2021-03-08T10:51:33Z</time>
      </trkpt>
      <trkpt lat="44.40141" lon="7.13396">
        <ele>2277.02</ele>
        <time>2021-03-08T10:51:34Z</time>
      </trkpt>
      <trkpt lat="44.40137" lon="7.134">
        <ele>2276.06</ele>
        <time>2021-03-08T10:51:35Z</time>
      </trkpt>
      <trkpt lat="44.40134" lon="7.13403">
        <ele>2275.1</ele>
        <time>2021-03-08T10:51:36Z</time>
      </trkpt>
      <trkpt lat="44.4013" lon="7.13403">
        <ele>2273.66</ele>
        <time>2021-03-08T10:51:37Z</time>
      </trkpt>
      <trkpt lat="44.40125" lon="7.13401">
        <ele>2273.17</ele>
        <time>2021-03-08T10:51:38Z</time>
      </trkpt>
      <trkpt lat="44.40121" lon="7.13402">
        <ele>2272.21</ele>
        <time>2021-03-08T10:51:39Z</time>
      </trkpt>
      <trkpt lat="44.40117" lon="7.13406">
        <ele>2271.25</ele>
        <time>2021-03-08T10:51:40Z</time>
      </trkpt>
      <trkpt lat="44.40112" lon="7.13411">
        <ele>2270.29</ele>
        <time>2021-03-08T10:51:41Z</time>
      </trkpt>
      <trkpt lat="44.40091" lon="7.13433">
        <ele>2265.96</ele>
        <time>2021-03-08T10:51:47Z</time>
      </trkpt>
      <trkpt lat="44.40088" lon="7.13433">
        <ele>2265.48</ele>
        <time>2021-03-08T10:51:48Z</time>
      </trkpt>
      <trkpt lat="44.40086" lon="7.13432">
        <ele>2265.48</ele>
        <time>2021-03-08T10:51:58Z</time>
      </trkpt>
      <trkpt lat="44.4009" lon="7.13431">
        <ele>2268.37</ele>
        <time>2021-03-08T10:52:21Z</time>
      </trkpt>
      <trkpt lat="44.4009" lon="7.13429">
        <ele>2270.77</ele>
        <time>2021-03-08T10:52:48Z</time>
      </trkpt>
      <trkpt lat="44.4009" lon="7.13432">
        <ele>2270.29</ele>
        <time>2021-03-08T10:53:08Z</time>
      </trkpt>
      <trkpt lat="44.40089" lon="7.1343">
        <ele>2268.37</ele>
        <time>2021-03-08T10:53:25Z</time>
      </trkpt>
      <trkpt lat="44.40088" lon="7.13429">
        <ele>2269.81</ele>
        <time>2021-03-08T10:53:42Z</time>
      </trkpt>
      <trkpt lat="44.40084" lon="7.1343">
        <ele>2268.37</ele>
        <time>2021-03-08T10:53:55Z</time>
      </trkpt>
      <trkpt lat="44.40083" lon="7.13429">
        <ele>2268.85</ele>
        <time>2021-03-08T10:53:56Z</time>
      </trkpt>
      <trkpt lat="44.40083" lon="7.13427">
        <ele>2268.37</ele>
        <time>2021-03-08T10:53:57Z</time>
      </trkpt>
      <trkpt lat="44.40083" lon="7.13426">
        <ele>2268.37</ele>
        <time>2021-03-08T10:53:58Z</time>
      </trkpt>
      <trkpt lat="44.40082" lon="7.13424">
        <ele>2268.37</ele>
        <time>2021-03-08T10:53:59Z</time>
      </trkpt>
      <trkpt lat="44.40066" lon="7.13398">
        <ele>2268.85</ele>
        <time>2021-03-08T10:54:14Z</time>
      </trkpt>
      <trkpt lat="44.40033" lon="7.13406">
        <ele>2265.48</ele>
        <time>2021-03-08T10:54:27Z</time>
      </trkpt>
      <trkpt lat="44.39992" lon="7.13434">
        <ele>2263.56</ele>
        <time>2021-03-08T10:54:43Z</time>
      </trkpt>
      <trkpt lat="44.39967" lon="7.1345">
        <ele>2261.64</ele>
        <time>2021-03-08T10:54:55Z</time>
      </trkpt>
      <trkpt lat="44.39959" lon="7.13452">
        <ele>2260.68</ele>
        <time>2021-03-08T10:55:01Z</time>
      </trkpt>
      <trkpt lat="44.39958" lon="7.13452">
        <ele>2260.2</ele>
        <time>2021-03-08T10:55:02Z</time>
      </trkpt>
      <trkpt lat="44.39957" lon="7.13452">
        <ele>2260.2</ele>
        <time>2021-03-08T10:55:03Z</time>
      </trkpt>
      <trkpt lat="44.39953" lon="7.13449">
        <ele>2260.2</ele>
        <time>2021-03-08T10:55:15Z</time>
      </trkpt>
      <trkpt lat="44.39949" lon="7.13446">
        <ele>2259.24</ele>
        <time>2021-03-08T10:55:31Z</time>
      </trkpt>
      <trkpt lat="44.39947" lon="7.13444">
        <ele>2259.24</ele>
        <time>2021-03-08T10:55:32Z</time>
      </trkpt>
      <trkpt lat="44.3994" lon="7.13446">
        <ele>2259.72</ele>
        <time>2021-03-08T10:55:34Z</time>
      </trkpt>
      <trkpt lat="44.39934" lon="7.13455">
        <ele>2259.24</ele>
        <time>2021-03-08T10:55:36Z</time>
      </trkpt>
      <trkpt lat="44.3993" lon="7.13458">
        <ele>2259.24</ele>
        <time>2021-03-08T10:55:37Z</time>
      </trkpt>
      <trkpt lat="44.39927" lon="7.13464">
        <ele>2258.75</ele>
        <time>2021-03-08T10:55:38Z</time>
      </trkpt>
      <trkpt lat="44.39924" lon="7.1347">
        <ele>2258.75</ele>
        <time>2021-03-08T10:55:39Z</time>
      </trkpt>
      <trkpt lat="44.39921" lon="7.13471">
        <ele>2258.27</ele>
        <time>2021-03-08T10:55:40Z</time>
      </trkpt>
      <trkpt lat="44.39916" lon="7.1347">
        <ele>2257.79</ele>
        <time>2021-03-08T10:55:41Z</time>
      </trkpt>
      <trkpt lat="44.39912" lon="7.13472">
        <ele>2257.31</ele>
        <time>2021-03-08T10:55:42Z</time>
      </trkpt>
      <trkpt lat="44.39909" lon="7.13479">
        <ele>2256.35</ele>
        <time>2021-03-08T10:55:43Z</time>
      </trkpt>
      <trkpt lat="44.39906" lon="7.13484">
        <ele>2255.87</ele>
        <time>2021-03-08T10:55:44Z</time>
      </trkpt>
      <trkpt lat="44.39901" lon="7.13486">
        <ele>2254.91</ele>
        <time>2021-03-08T10:55:45Z</time>
      </trkpt>
      <trkpt lat="44.39897" lon="7.1349">
        <ele>2254.43</ele>
        <time>2021-03-08T10:55:46Z</time>
      </trkpt>
      <trkpt lat="44.39894" lon="7.13496">
        <ele>2253.47</ele>
        <time>2021-03-08T10:55:47Z</time>
      </trkpt>
      <trkpt lat="44.39891" lon="7.13503">
        <ele>2252.99</ele>
        <time>2021-03-08T10:55:48Z</time>
      </trkpt>
      <trkpt lat="44.39885" lon="7.13506">
        <ele>2252.03</ele>
        <time>2021-03-08T10:55:49Z</time>
      </trkpt>
      <trkpt lat="44.3988" lon="7.13509">
        <ele>2251.06</ele>
        <time>2021-03-08T10:55:50Z</time>
      </trkpt>
      <trkpt lat="44.39876" lon="7.13514">
        <ele>2250.1</ele>
        <time>2021-03-08T10:55:51Z</time>
      </trkpt>
      <trkpt lat="44.39873" lon="7.13519">
        <ele>2249.14</ele>
        <time>2021-03-08T10:55:52Z</time>
      </trkpt>
      <trkpt lat="44.39868" lon="7.1352">
        <ele>2248.18</ele>
        <time>2021-03-08T10:55:53Z</time>
      </trkpt>
      <trkpt lat="44.39863" lon="7.1352">
        <ele>2247.7</ele>
        <time>2021-03-08T10:55:54Z</time>
      </trkpt>
      <trkpt lat="44.3986" lon="7.13521">
        <ele>2246.74</ele>
        <time>2021-03-08T10:55:55Z</time>
      </trkpt>
      <trkpt lat="44.39864" lon="7.1352">
        <ele>2241.93</ele>
        <time>2021-03-08T10:56:04Z</time>
      </trkpt>
      <trkpt lat="44.39866" lon="7.13516">
        <ele>2237.61</ele>
        <time>2021-03-08T10:56:21Z</time>
      </trkpt>
      <trkpt lat="44.39869" lon="7.13508">
        <ele>2235.2</ele>
        <time>2021-03-08T10:56:52Z</time>
      </trkpt>
      <trkpt lat="44.3987" lon="7.13507">
        <ele>2234.24</ele>
        <time>2021-03-08T10:57:11Z</time>
      </trkpt>
      <trkpt lat="44.39871" lon="7.13504">
        <ele>2233.28</ele>
        <time>2021-03-08T10:57:23Z</time>
      </trkpt>
      <trkpt lat="44.39869" lon="7.13506">
        <ele>2232.32</ele>
        <time>2021-03-08T10:57:38Z</time>
      </trkpt>
      <trkpt lat="44.39869" lon="7.13509">
        <ele>2230.88</ele>
        <time>2021-03-08T10:57:46Z</time>
      </trkpt>
      <trkpt lat="44.39867" lon="7.1351">
        <ele>2230.88</ele>
        <time>2021-03-08T10:57:47Z</time>
      </trkpt>
      <trkpt lat="44.39863" lon="7.13512">
        <ele>2230.4</ele>
        <time>2021-03-08T10:57:48Z</time>
      </trkpt>
      <trkpt lat="44.39832" lon="7.13522">
        <ele>2228.47</ele>
        <time>2021-03-08T10:57:56Z</time>
      </trkpt>
      <trkpt lat="44.39827" lon="7.13524">
        <ele>2227.99</ele>
        <time>2021-03-08T10:57:57Z</time>
      </trkpt>
      <trkpt lat="44.39823" lon="7.13527">
        <ele>2227.99</ele>
        <time>2021-03-08T10:57:58Z</time>
      </trkpt>
      <trkpt lat="44.39814" lon="7.13532">
        <ele>2227.03</ele>
        <time>2021-03-08T10:58:00Z</time>
      </trkpt>
      <trkpt lat="44.3981" lon="7.13536">
        <ele>2226.55</ele>
        <time>2021-03-08T10:58:01Z</time>
      </trkpt>
      <trkpt lat="44.39785" lon="7.13558">
        <ele>2225.11</ele>
        <time>2021-03-08T10:58:10Z</time>
      </trkpt>
      <trkpt lat="44.39782" lon="7.13559">
        <ele>2224.15</ele>
        <time>2021-03-08T10:58:22Z</time>
      </trkpt>
      <trkpt lat="44.39781" lon="7.13559">
        <ele>2223.67</ele>
        <time>2021-03-08T10:58:30Z</time>
      </trkpt>
      <trkpt lat="44.39784" lon="7.13563">
        <ele>2223.19</ele>
        <time>2021-03-08T10:58:34Z</time>
      </trkpt>
      <trkpt lat="44.39787" lon="7.13564">
        <ele>2222.71</ele>
        <time>2021-03-08T10:58:49Z</time>
      </trkpt>
      <trkpt lat="44.39796" lon="7.13562">
        <ele>2221.26</ele>
        <time>2021-03-08T10:59:05Z</time>
      </trkpt>
      <trkpt lat="44.39803" lon="7.13564">
        <ele>2220.3</ele>
        <time>2021-03-08T10:59:08Z</time>
      </trkpt>
      <trkpt lat="44.39812" lon="7.13585">
        <ele>2215.5</ele>
        <time>2021-03-08T10:59:14Z</time>
      </trkpt>
      <trkpt lat="44.39793" lon="7.13592">
        <ele>2210.69</ele>
        <time>2021-03-08T10:59:19Z</time>
      </trkpt>
      <trkpt lat="44.3978" lon="7.1361">
        <ele>2206.36</ele>
        <time>2021-03-08T10:59:23Z</time>
      </trkpt>
      <trkpt lat="44.39756" lon="7.13612">
        <ele>2200.59</ele>
        <time>2021-03-08T10:59:31Z</time>
      </trkpt>
      <trkpt lat="44.39758" lon="7.13625">
        <ele>2198.19</ele>
        <time>2021-03-08T10:59:34Z</time>
      </trkpt>
      <trkpt lat="44.39762" lon="7.1363">
        <ele>2197.23</ele>
        <time>2021-03-08T10:59:35Z</time>
      </trkpt>
      <trkpt lat="44.39767" lon="7.13635">
        <ele>2195.79</ele>
        <time>2021-03-08T10:59:37Z</time>
      </trkpt>
      <trkpt lat="44.39755" lon="7.13655">
        <ele>2189.06</ele>
        <time>2021-03-08T10:59:43Z</time>
      </trkpt>
      <trkpt lat="44.39746" lon="7.13645">
        <ele>2183.29</ele>
        <time>2021-03-08T10:59:51Z</time>
      </trkpt>
      <trkpt lat="44.39746" lon="7.13644">
        <ele>2181.37</ele>
        <time>2021-03-08T10:59:57Z</time>
      </trkpt>
      <trkpt lat="44.39739" lon="7.13663">
        <ele>2178.48</ele>
        <time>2021-03-08T11:00:04Z</time>
      </trkpt>
      <trkpt lat="44.3973" lon="7.13677">
        <ele>2171.76</ele>
        <time>2021-03-08T11:00:09Z</time>
      </trkpt>
      <trkpt lat="44.3972" lon="7.13685">
        <ele>2164.06</ele>
        <time>2021-03-08T11:00:15Z</time>
      </trkpt>
      <trkpt lat="44.39715" lon="7.13691">
        <ele>2157.34</ele>
        <time>2021-03-08T11:00:20Z</time>
      </trkpt>
      <trkpt lat="44.39706" lon="7.13706">
        <ele>2149.65</ele>
        <time>2021-03-08T11:00:25Z</time>
      </trkpt>
      <trkpt lat="44.39705" lon="7.13706">
        <ele>2147.72</ele>
        <time>2021-03-08T11:00:27Z</time>
      </trkpt>
      <trkpt lat="44.39699" lon="7.13715">
        <ele>2144.36</ele>
        <time>2021-03-08T11:00:31Z</time>
      </trkpt>
      <trkpt lat="44.39697" lon="7.13718">
        <ele>2143.88</ele>
        <time>2021-03-08T11:00:32Z</time>
      </trkpt>
      <trkpt lat="44.39684" lon="7.13752">
        <ele>2143.4</ele>
        <time>2021-03-08T11:00:43Z</time>
      </trkpt>
      <trkpt lat="44.3968" lon="7.13761">
        <ele>2142.92</ele>
        <time>2021-03-08T11:00:53Z</time>
      </trkpt>
      <trkpt lat="44.39678" lon="7.13765">
        <ele>2145.8</ele>
        <time>2021-03-08T11:01:10Z</time>
      </trkpt>
      <trkpt lat="44.39678" lon="7.13766">
        <ele>2147.72</ele>
        <time>2021-03-08T11:01:29Z</time>
      </trkpt>
      <trkpt lat="44.39672" lon="7.13774">
        <ele>2146.76</ele>
        <time>2021-03-08T11:01:44Z</time>
      </trkpt>
      <trkpt lat="44.39665" lon="7.13785">
        <ele>2148.68</ele>
        <time>2021-03-08T11:01:59Z</time>
      </trkpt>
      <trkpt lat="44.3966" lon="7.13792">
        <ele>2150.13</ele>
        <time>2021-03-08T11:02:11Z</time>
      </trkpt>
      <trkpt lat="44.39653" lon="7.13804">
        <ele>2152.05</ele>
        <time>2021-03-08T11:02:26Z</time>
      </trkpt>
      <trkpt lat="44.39647" lon="7.13816">
        <ele>2153.01</ele>
        <time>2021-03-08T11:02:40Z</time>
      </trkpt>
      <trkpt lat="44.3964" lon="7.13824">
        <ele>2152.05</ele>
        <time>2021-03-08T11:02:54Z</time>
      </trkpt>
      <trkpt lat="44.39633" lon="7.13836">
        <ele>2155.89</ele>
        <time>2021-03-08T11:03:07Z</time>
      </trkpt>
      <trkpt lat="44.39625" lon="7.13837">
        <ele>2158.78</ele>
        <time>2021-03-08T11:03:22Z</time>
      </trkpt>
      <trkpt lat="44.39615" lon="7.13837">
        <ele>2162.62</ele>
        <time>2021-03-08T11:03:36Z</time>
      </trkpt>
      <trkpt lat="44.3961" lon="7.13834">
        <ele>2164.06</ele>
        <time>2021-03-08T11:03:41Z</time>
      </trkpt>
      <trkpt lat="44.39603" lon="7.13826">
        <ele>2164.06</ele>
        <time>2021-03-08T11:03:54Z</time>
      </trkpt>
      <trkpt lat="44.39597" lon="7.13822">
        <ele>2164.55</ele>
        <time>2021-03-08T11:04:06Z</time>
      </trkpt>
      <trkpt lat="44.39597" lon="7.1382">
        <ele>2165.51</ele>
        <time>2021-03-08T11:04:21Z</time>
      </trkpt>
      <trkpt lat="44.39597" lon="7.13829">
        <ele>2164.06</ele>
        <time>2021-03-08T11:04:40Z</time>
      </trkpt>
      <trkpt lat="44.39598" lon="7.13832">
        <ele>2164.06</ele>
        <time>2021-03-08T11:04:42Z</time>
      </trkpt>
      <trkpt lat="44.39601" lon="7.1383">
        <ele>2162.62</ele>
        <time>2021-03-08T11:04:55Z</time>
      </trkpt>
      <trkpt lat="44.39603" lon="7.1383">
        <ele>2163.58</ele>
        <time>2021-03-08T11:05:13Z</time>
      </trkpt>
      <trkpt lat="44.39603" lon="7.1383">
        <ele>2163.1</ele>
        <time>2021-03-08T11:05:32Z</time>
      </trkpt>
      <trkpt lat="44.39605" lon="7.1383">
        <ele>2162.14</ele>
        <time>2021-03-08T11:05:51Z</time>
      </trkpt>
      <trkpt lat="44.39604" lon="7.13831">
        <ele>2165.03</ele>
        <time>2021-03-08T11:06:09Z</time>
      </trkpt>
      <trkpt lat="44.39606" lon="7.13832">
        <ele>2164.55</ele>
        <time>2021-03-08T11:06:11Z</time>
      </trkpt>
      <trkpt lat="44.39608" lon="7.13834">
        <ele>2164.06</ele>
        <time>2021-03-08T11:06:12Z</time>
      </trkpt>
      <trkpt lat="44.3961" lon="7.13835">
        <ele>2163.58</ele>
        <time>2021-03-08T11:06:13Z</time>
      </trkpt>
      <trkpt lat="44.39612" lon="7.13833">
        <ele>2162.14</ele>
        <time>2021-03-08T11:06:24Z</time>
      </trkpt>
      <trkpt lat="44.39614" lon="7.13835">
        <ele>2162.62</ele>
        <time>2021-03-08T11:06:39Z</time>
      </trkpt>
      <trkpt lat="44.39613" lon="7.13834">
        <ele>2160.22</ele>
        <time>2021-03-08T11:07:02Z</time>
      </trkpt>
      <trkpt lat="44.39621" lon="7.13841">
        <ele>2159.26</ele>
        <time>2021-03-08T11:07:08Z</time>
      </trkpt>
      <trkpt lat="44.39617" lon="7.13849">
        <ele>2157.34</ele>
        <time>2021-03-08T11:07:11Z</time>
      </trkpt>
      <trkpt lat="44.39617" lon="7.13855">
        <ele>2156.37</ele>
        <time>2021-03-08T11:07:12Z</time>
      </trkpt>
      <trkpt lat="44.39616" lon="7.13858">
        <ele>2155.41</ele>
        <time>2021-03-08T11:07:13Z</time>
      </trkpt>
      <trkpt lat="44.39614" lon="7.1386">
        <ele>2154.45</ele>
        <time>2021-03-08T11:07:14Z</time>
      </trkpt>
      <trkpt lat="44.39597" lon="7.13882">
        <ele>2148.2</ele>
        <time>2021-03-08T11:07:21Z</time>
      </trkpt>
      <trkpt lat="44.39588" lon="7.13904">
        <ele>2143.4</ele>
        <time>2021-03-08T11:07:26Z</time>
      </trkpt>
      <trkpt lat="44.39586" lon="7.13909">
        <ele>2141.95</ele>
        <time>2021-03-08T11:07:27Z</time>
      </trkpt>
      <trkpt lat="44.39574" lon="7.13933">
        <ele>2135.71</ele>
        <time>2021-03-08T11:07:32Z</time>
      </trkpt>
      <trkpt lat="44.39574" lon="7.13933">
        <ele>2131.86</ele>
        <time>2021-03-08T11:07:41Z</time>
      </trkpt>
      <trkpt lat="44.39575" lon="7.13933">
        <ele>2132.34</ele>
        <time>2021-03-08T11:08:00Z</time>
      </trkpt>
      <trkpt lat="44.39576" lon="7.13932">
        <ele>2135.71</ele>
        <time>2021-03-08T11:08:21Z</time>
      </trkpt>
      <trkpt lat="44.39576" lon="7.13934">
        <ele>2135.71</ele>
        <time>2021-03-08T11:08:23Z</time>
      </trkpt>
      <trkpt lat="44.39579" lon="7.13939">
        <ele>2135.23</ele>
        <time>2021-03-08T11:08:25Z</time>
      </trkpt>
      <trkpt lat="44.39578" lon="7.13943">
        <ele>2134.74</ele>
        <time>2021-03-08T11:08:26Z</time>
      </trkpt>
      <trkpt lat="44.39575" lon="7.13947">
        <ele>2134.26</ele>
        <time>2021-03-08T11:08:27Z</time>
      </trkpt>
      <trkpt lat="44.39572" lon="7.13953">
        <ele>2133.78</ele>
        <time>2021-03-08T11:08:28Z</time>
      </trkpt>
      <trkpt lat="44.39571" lon="7.13973">
        <ele>2130.9</ele>
        <time>2021-03-08T11:08:31Z</time>
      </trkpt>
      <trkpt lat="44.39568" lon="7.13979">
        <ele>2129.94</ele>
        <time>2021-03-08T11:08:32Z</time>
      </trkpt>
      <trkpt lat="44.39567" lon="7.13985">
        <ele>2128.98</ele>
        <time>2021-03-08T11:08:33Z</time>
      </trkpt>
      <trkpt lat="44.39568" lon="7.13991">
        <ele>2128.02</ele>
        <time>2021-03-08T11:08:34Z</time>
      </trkpt>
      <trkpt lat="44.39567" lon="7.13997">
        <ele>2126.57</ele>
        <time>2021-03-08T11:08:35Z</time>
      </trkpt>
      <trkpt lat="44.39563" lon="7.14">
        <ele>2126.09</ele>
        <time>2021-03-08T11:08:36Z</time>
      </trkpt>
      <trkpt lat="44.39559" lon="7.14002">
        <ele>2125.13</ele>
        <time>2021-03-08T11:08:37Z</time>
      </trkpt>
      <trkpt lat="44.39554" lon="7.14004">
        <ele>2124.17</ele>
        <time>2021-03-08T11:08:38Z</time>
      </trkpt>
      <trkpt lat="44.3955" lon="7.14006">
        <ele>2123.21</ele>
        <time>2021-03-08T11:08:39Z</time>
      </trkpt>
      <trkpt lat="44.39549" lon="7.1401">
        <ele>2122.73</ele>
        <time>2021-03-08T11:08:40Z</time>
      </trkpt>
      <trkpt lat="44.39554" lon="7.14012">
        <ele>2119.84</ele>
        <time>2021-03-08T11:08:42Z</time>
      </trkpt>
      <trkpt lat="44.39556" lon="7.14023">
        <ele>2116.96</ele>
        <time>2021-03-08T11:08:45Z</time>
      </trkpt>
      <trkpt lat="44.39553" lon="7.14025">
        <ele>2115.52</ele>
        <time>2021-03-08T11:08:46Z</time>
      </trkpt>
      <trkpt lat="44.39552" lon="7.14028">
        <ele>2114.08</ele>
        <time>2021-03-08T11:08:47Z</time>
      </trkpt>
      <trkpt lat="44.39552" lon="7.14031">
        <ele>2111.19</ele>
        <time>2021-03-08T11:08:49Z</time>
      </trkpt>
      <trkpt lat="44.39548" lon="7.14031">
        <ele>2103.02</ele>
        <time>2021-03-08T11:09:03Z</time>
      </trkpt>
      <trkpt lat="44.39549" lon="7.14031">
        <ele>2103.98</ele>
        <time>2021-03-08T11:09:32Z</time>
      </trkpt>
      <trkpt lat="44.39552" lon="7.14031">
        <ele>2106.87</ele>
        <time>2021-03-08T11:09:46Z</time>
      </trkpt>
      <trkpt lat="44.39553" lon="7.14031">
        <ele>2105.91</ele>
        <time>2021-03-08T11:09:56Z</time>
      </trkpt>
      <trkpt lat="44.39557" lon="7.14049">
        <ele>2102.06</ele>
        <time>2021-03-08T11:10:01Z</time>
      </trkpt>
      <trkpt lat="44.39555" lon="7.14052">
        <ele>2100.62</ele>
        <time>2021-03-08T11:10:02Z</time>
      </trkpt>
      <trkpt lat="44.39552" lon="7.14055">
        <ele>2098.7</ele>
        <time>2021-03-08T11:10:03Z</time>
      </trkpt>
      <trkpt lat="44.3955" lon="7.14054">
        <ele>2093.41</ele>
        <time>2021-03-08T11:10:11Z</time>
      </trkpt>
      <trkpt lat="44.3955" lon="7.14052">
        <ele>2094.85</ele>
        <time>2021-03-08T11:10:23Z</time>
      </trkpt>
      <trkpt lat="44.39551" lon="7.14055">
        <ele>2096.29</ele>
        <time>2021-03-08T11:10:37Z</time>
      </trkpt>
      <trkpt lat="44.39552" lon="7.14057">
        <ele>2095.33</ele>
        <time>2021-03-08T11:10:51Z</time>
      </trkpt>
      <trkpt lat="44.39552" lon="7.14059">
        <ele>2094.85</ele>
        <time>2021-03-08T11:10:52Z</time>
      </trkpt>
      <trkpt lat="44.3955" lon="7.14061">
        <ele>2094.85</ele>
        <time>2021-03-08T11:10:53Z</time>
      </trkpt>
      <trkpt lat="44.39548" lon="7.14064">
        <ele>2094.37</ele>
        <time>2021-03-08T11:10:54Z</time>
      </trkpt>
      <trkpt lat="44.39537" lon="7.14076">
        <ele>2094.37</ele>
        <time>2021-03-08T11:11:04Z</time>
      </trkpt>
      <trkpt lat="44.39537" lon="7.14079">
        <ele>2094.37</ele>
        <time>2021-03-08T11:11:08Z</time>
      </trkpt>
      <trkpt lat="44.39538" lon="7.14081">
        <ele>2093.89</ele>
        <time>2021-03-08T11:11:09Z</time>
      </trkpt>
      <trkpt lat="44.3954" lon="7.14084">
        <ele>2093.41</ele>
        <time>2021-03-08T11:11:10Z</time>
      </trkpt>
      <trkpt lat="44.39544" lon="7.14085">
        <ele>2092.45</ele>
        <time>2021-03-08T11:11:11Z</time>
      </trkpt>
      <trkpt lat="44.39548" lon="7.14086">
        <ele>2091.97</ele>
        <time>2021-03-08T11:11:12Z</time>
      </trkpt>
      <trkpt lat="44.39552" lon="7.14085">
        <ele>2091</ele>
        <time>2021-03-08T11:11:13Z</time>
      </trkpt>
      <trkpt lat="44.3958" lon="7.14086">
        <ele>2088.12</ele>
        <time>2021-03-08T11:11:22Z</time>
      </trkpt>
      <trkpt lat="44.39583" lon="7.14089">
        <ele>2086.68</ele>
        <time>2021-03-08T11:11:24Z</time>
      </trkpt>
      <trkpt lat="44.3958" lon="7.14115">
        <ele>2082.35</ele>
        <time>2021-03-08T11:11:30Z</time>
      </trkpt>
      <trkpt lat="44.39572" lon="7.14129">
        <ele>2076.1</ele>
        <time>2021-03-08T11:11:35Z</time>
      </trkpt>
      <trkpt lat="44.39571" lon="7.14133">
        <ele>2074.66</ele>
        <time>2021-03-08T11:11:36Z</time>
      </trkpt>
      <trkpt lat="44.39568" lon="7.14135">
        <ele>2073.7</ele>
        <time>2021-03-08T11:11:37Z</time>
      </trkpt>
      <trkpt lat="44.39565" lon="7.14137">
        <ele>2072.26</ele>
        <time>2021-03-08T11:11:38Z</time>
      </trkpt>
      <trkpt lat="44.39565" lon="7.1414">
        <ele>2071.3</ele>
        <time>2021-03-08T11:11:39Z</time>
      </trkpt>
      <trkpt lat="44.39567" lon="7.14144">
        <ele>2069.86</ele>
        <time>2021-03-08T11:11:40Z</time>
      </trkpt>
      <trkpt lat="44.39566" lon="7.14148">
        <ele>2068.41</ele>
        <time>2021-03-08T11:11:41Z</time>
      </trkpt>
      <trkpt lat="44.39563" lon="7.14152">
        <ele>2067.93</ele>
        <time>2021-03-08T11:11:42Z</time>
      </trkpt>
      <trkpt lat="44.39561" lon="7.14153">
        <ele>2066.97</ele>
        <time>2021-03-08T11:11:43Z</time>
      </trkpt>
      <trkpt lat="44.39558" lon="7.14155">
        <ele>2062.17</ele>
        <time>2021-03-08T11:11:52Z</time>
      </trkpt>
      <trkpt lat="44.39557" lon="7.14156">
        <ele>2062.17</ele>
        <time>2021-03-08T11:11:53Z</time>
      </trkpt>
      <trkpt lat="44.3954" lon="7.14187">
        <ele>2059.28</ele>
        <time>2021-03-08T11:12:06Z</time>
      </trkpt>
      <trkpt lat="44.39532" lon="7.14194">
        <ele>2058.8</ele>
        <time>2021-03-08T11:12:16Z</time>
      </trkpt>
      <trkpt lat="44.39533" lon="7.14194">
        <ele>2057.36</ele>
        <time>2021-03-08T11:12:22Z</time>
      </trkpt>
      <trkpt lat="44.39547" lon="7.14204">
        <ele>2053.99</ele>
        <time>2021-03-08T11:12:29Z</time>
      </trkpt>
      <trkpt lat="44.3955" lon="7.14208">
        <ele>2053.99</ele>
        <time>2021-03-08T11:12:30Z</time>
      </trkpt>
      <trkpt lat="44.39551" lon="7.14211">
        <ele>2053.99</ele>
        <time>2021-03-08T11:12:31Z</time>
      </trkpt>
      <trkpt lat="44.39552" lon="7.14216">
        <ele>2053.51</ele>
        <time>2021-03-08T11:12:32Z</time>
      </trkpt>
      <trkpt lat="44.39551" lon="7.14221">
        <ele>2053.03</ele>
        <time>2021-03-08T11:12:33Z</time>
      </trkpt>
      <trkpt lat="44.3955" lon="7.14225">
        <ele>2052.55</ele>
        <time>2021-03-08T11:12:34Z</time>
      </trkpt>
      <trkpt lat="44.3955" lon="7.1423">
        <ele>2052.55</ele>
        <time>2021-03-08T11:12:35Z</time>
      </trkpt>
      <trkpt lat="44.39551" lon="7.14234">
        <ele>2052.07</ele>
        <time>2021-03-08T11:12:36Z</time>
      </trkpt>
      <trkpt lat="44.39552" lon="7.1424">
        <ele>2052.07</ele>
        <time>2021-03-08T11:12:37Z</time>
      </trkpt>
      <trkpt lat="44.39552" lon="7.14245">
        <ele>2052.07</ele>
        <time>2021-03-08T11:12:38Z</time>
      </trkpt>
      <trkpt lat="44.3955" lon="7.14251">
        <ele>2052.07</ele>
        <time>2021-03-08T11:12:39Z</time>
      </trkpt>
      <trkpt lat="44.39549" lon="7.14271">
        <ele>2052.07</ele>
        <time>2021-03-08T11:12:43Z</time>
      </trkpt>
      <trkpt lat="44.3955" lon="7.14277">
        <ele>2052.07</ele>
        <time>2021-03-08T11:12:44Z</time>
      </trkpt>
      <trkpt lat="44.3955" lon="7.14284">
        <ele>2051.59</ele>
        <time>2021-03-08T11:12:45Z</time>
      </trkpt>
      <trkpt lat="44.39548" lon="7.14289">
        <ele>2051.59</ele>
        <time>2021-03-08T11:12:46Z</time>
      </trkpt>
      <trkpt lat="44.39546" lon="7.14294">
        <ele>2051.59</ele>
        <time>2021-03-08T11:12:47Z</time>
      </trkpt>
      <trkpt lat="44.39544" lon="7.14297">
        <ele>2051.59</ele>
        <time>2021-03-08T11:12:48Z</time>
      </trkpt>
      <trkpt lat="44.39541" lon="7.14301">
        <ele>2051.59</ele>
        <time>2021-03-08T11:12:49Z</time>
      </trkpt>
      <trkpt lat="44.39539" lon="7.14304">
        <ele>2051.59</ele>
        <time>2021-03-08T11:12:50Z</time>
      </trkpt>
      <trkpt lat="44.39532" lon="7.14322">
        <ele>2050.63</ele>
        <time>2021-03-08T11:12:55Z</time>
      </trkpt>
      <trkpt lat="44.39532" lon="7.14328">
        <ele>2050.15</ele>
        <time>2021-03-08T11:12:56Z</time>
      </trkpt>
      <trkpt lat="44.39532" lon="7.14336">
        <ele>2050.15</ele>
        <time>2021-03-08T11:12:57Z</time>
      </trkpt>
      <trkpt lat="44.39532" lon="7.14352">
        <ele>2050.15</ele>
        <time>2021-03-08T11:12:59Z</time>
      </trkpt>
      <trkpt lat="44.3953" lon="7.14369">
        <ele>2050.15</ele>
        <time>2021-03-08T11:13:02Z</time>
      </trkpt>
      <trkpt lat="44.39528" lon="7.14372">
        <ele>2050.15</ele>
        <time>2021-03-08T11:13:03Z</time>
      </trkpt>
      <trkpt lat="44.39526" lon="7.14375">
        <ele>2050.15</ele>
        <time>2021-03-08T11:13:04Z</time>
      </trkpt>
      <trkpt lat="44.39507" lon="7.144">
        <ele>2049.19</ele>
        <time>2021-03-08T11:13:16Z</time>
      </trkpt>
      <trkpt lat="44.39487" lon="7.14452">
        <ele>2046.78</ele>
        <time>2021-03-08T11:13:29Z</time>
      </trkpt>
      <trkpt lat="44.39472" lon="7.14485">
        <ele>2043.42</ele>
        <time>2021-03-08T11:13:45Z</time>
      </trkpt>
      <trkpt lat="44.39468" lon="7.14489">
        <ele>2039.57</ele>
        <time>2021-03-08T11:13:59Z</time>
      </trkpt>
      <trkpt lat="44.39464" lon="7.14494">
        <ele>2040.05</ele>
        <time>2021-03-08T11:14:14Z</time>
      </trkpt>
      <trkpt lat="44.39454" lon="7.14511">
        <ele>2040.54</ele>
        <time>2021-03-08T11:14:28Z</time>
      </trkpt>
      <trkpt lat="44.39435" lon="7.1455">
        <ele>2041.5</ele>
        <time>2021-03-08T11:14:43Z</time>
      </trkpt>
      <trkpt lat="44.3942" lon="7.14587">
        <ele>2040.05</ele>
        <time>2021-03-08T11:14:58Z</time>
      </trkpt>
      <trkpt lat="44.3941" lon="7.1461">
        <ele>2038.61</ele>
        <time>2021-03-08T11:15:05Z</time>
      </trkpt>
      <trkpt lat="44.39408" lon="7.14612">
        <ele>2038.13</ele>
        <time>2021-03-08T11:15:06Z</time>
      </trkpt>
      <trkpt lat="44.39406" lon="7.14615">
        <ele>2037.65</ele>
        <time>2021-03-08T11:15:07Z</time>
      </trkpt>
      <trkpt lat="44.39404" lon="7.14619">
        <ele>2037.17</ele>
        <time>2021-03-08T11:15:08Z</time>
      </trkpt>
      <trkpt lat="44.39403" lon="7.14624">
        <ele>2036.69</ele>
        <time>2021-03-08T11:15:09Z</time>
      </trkpt>
      <trkpt lat="44.39399" lon="7.14626">
        <ele>2036.21</ele>
        <time>2021-03-08T11:15:10Z</time>
      </trkpt>
      <trkpt lat="44.39396" lon="7.14627">
        <ele>2036.21</ele>
        <time>2021-03-08T11:15:11Z</time>
      </trkpt>
      <trkpt lat="44.39393" lon="7.1463">
        <ele>2036.21</ele>
        <time>2021-03-08T11:15:12Z</time>
      </trkpt>
      <trkpt lat="44.39394" lon="7.14634">
        <ele>2035.25</ele>
        <time>2021-03-08T11:15:16Z</time>
      </trkpt>
      <trkpt lat="44.39394" lon="7.14635">
        <ele>2034.77</ele>
        <time>2021-03-08T11:15:17Z</time>
      </trkpt>
      <trkpt lat="44.39393" lon="7.14635">
        <ele>2034.77</ele>
        <time>2021-03-08T11:15:18Z</time>
      </trkpt>
      <trkpt lat="44.39391" lon="7.14635">
        <ele>2034.29</ele>
        <time>2021-03-08T11:15:19Z</time>
      </trkpt>
      <trkpt lat="44.3939" lon="7.14633">
        <ele>2034.29</ele>
        <time>2021-03-08T11:15:32Z</time>
      </trkpt>
      <trkpt lat="44.39387" lon="7.14634">
        <ele>2033.33</ele>
        <time>2021-03-08T11:15:40Z</time>
      </trkpt>
      <trkpt lat="44.39386" lon="7.14635">
        <ele>2032.84</ele>
        <time>2021-03-08T11:15:41Z</time>
      </trkpt>
      <trkpt lat="44.39385" lon="7.14637">
        <ele>2032.36</ele>
        <time>2021-03-08T11:15:42Z</time>
      </trkpt>
      <trkpt lat="44.39385" lon="7.14641">
        <ele>2031.88</ele>
        <time>2021-03-08T11:15:43Z</time>
      </trkpt>
      <trkpt lat="44.39387" lon="7.14648">
        <ele>2030.44</ele>
        <time>2021-03-08T11:15:45Z</time>
      </trkpt>
      <trkpt lat="44.39387" lon="7.14652">
        <ele>2029.48</ele>
        <time>2021-03-08T11:15:46Z</time>
      </trkpt>
      <trkpt lat="44.39384" lon="7.14655">
        <ele>2029</ele>
        <time>2021-03-08T11:15:47Z</time>
      </trkpt>
      <trkpt lat="44.39381" lon="7.14659">
        <ele>2029</ele>
        <time>2021-03-08T11:15:48Z</time>
      </trkpt>
      <trkpt lat="44.39379" lon="7.14665">
        <ele>2028.52</ele>
        <time>2021-03-08T11:15:49Z</time>
      </trkpt>
      <trkpt lat="44.39376" lon="7.1467">
        <ele>2028.04</ele>
        <time>2021-03-08T11:15:50Z</time>
      </trkpt>
      <trkpt lat="44.39372" lon="7.14674">
        <ele>2027.56</ele>
        <time>2021-03-08T11:15:51Z</time>
      </trkpt>
      <trkpt lat="44.39369" lon="7.14679">
        <ele>2026.6</ele>
        <time>2021-03-08T11:15:52Z</time>
      </trkpt>
      <trkpt lat="44.39368" lon="7.14684">
        <ele>2026.12</ele>
        <time>2021-03-08T11:15:53Z</time>
      </trkpt>
      <trkpt lat="44.39368" lon="7.14688">
        <ele>2025.64</ele>
        <time>2021-03-08T11:15:54Z</time>
      </trkpt>
      <trkpt lat="44.39367" lon="7.14691">
        <ele>2024.67</ele>
        <time>2021-03-08T11:15:56Z</time>
      </trkpt>
      <trkpt lat="44.39358" lon="7.14709">
        <ele>2023.71</ele>
        <time>2021-03-08T11:16:00Z</time>
      </trkpt>
      <trkpt lat="44.39354" lon="7.14712">
        <ele>2023.71</ele>
        <time>2021-03-08T11:16:01Z</time>
      </trkpt>
      <trkpt lat="44.3935" lon="7.14714">
        <ele>2023.71</ele>
        <time>2021-03-08T11:16:02Z</time>
      </trkpt>
      <trkpt lat="44.39345" lon="7.14717">
        <ele>2022.75</ele>
        <time>2021-03-08T11:16:09Z</time>
      </trkpt>
      <trkpt lat="44.39346" lon="7.14714">
        <ele>2022.27</ele>
        <time>2021-03-08T11:16:26Z</time>
      </trkpt>
      <trkpt lat="44.39346" lon="7.14715">
        <ele>2021.79</ele>
        <time>2021-03-08T11:16:43Z</time>
      </trkpt>
      <trkpt lat="44.39345" lon="7.14717">
        <ele>2020.83</ele>
        <time>2021-03-08T11:16:57Z</time>
      </trkpt>
      <trkpt lat="44.39344" lon="7.14719">
        <ele>2020.83</ele>
        <time>2021-03-08T11:16:58Z</time>
      </trkpt>
      <trkpt lat="44.39328" lon="7.14754">
        <ele>2019.39</ele>
        <time>2021-03-08T11:17:08Z</time>
      </trkpt>
      <trkpt lat="44.39309" lon="7.148">
        <ele>2016.98</ele>
        <time>2021-03-08T11:17:17Z</time>
      </trkpt>
      <trkpt lat="44.39306" lon="7.14807">
        <ele>2016.5</ele>
        <time>2021-03-08T11:17:18Z</time>
      </trkpt>
      <trkpt lat="44.39304" lon="7.14813">
        <ele>2016.5</ele>
        <time>2021-03-08T11:17:19Z</time>
      </trkpt>
      <trkpt lat="44.39297" lon="7.14832">
        <ele>2015.54</ele>
        <time>2021-03-08T11:17:22Z</time>
      </trkpt>
      <trkpt lat="44.39295" lon="7.14836">
        <ele>2015.06</ele>
        <time>2021-03-08T11:17:23Z</time>
      </trkpt>
      <trkpt lat="44.39293" lon="7.14839">
        <ele>2015.06</ele>
        <time>2021-03-08T11:17:24Z</time>
      </trkpt>
      <trkpt lat="44.39288" lon="7.14846">
        <ele>2013.62</ele>
        <time>2021-03-08T11:17:33Z</time>
      </trkpt>
      <trkpt lat="44.39286" lon="7.14851">
        <ele>2013.14</ele>
        <time>2021-03-08T11:17:45Z</time>
      </trkpt>
      <trkpt lat="44.39282" lon="7.14856">
        <ele>2013.62</ele>
        <time>2021-03-08T11:17:57Z</time>
      </trkpt>
      <trkpt lat="44.39279" lon="7.14855">
        <ele>2016.02</ele>
        <time>2021-03-08T11:18:11Z</time>
      </trkpt>
      <trkpt lat="44.39272" lon="7.14854">
        <ele>2017.94</ele>
        <time>2021-03-08T11:18:25Z</time>
      </trkpt>
      <trkpt lat="44.39265" lon="7.14868">
        <ele>2018.91</ele>
        <time>2021-03-08T11:18:39Z</time>
      </trkpt>
      <trkpt lat="44.39262" lon="7.1487">
        <ele>2018.43</ele>
        <time>2021-03-08T11:18:43Z</time>
      </trkpt>
      <trkpt lat="44.39246" lon="7.14881">
        <ele>2017.94</ele>
        <time>2021-03-08T11:18:56Z</time>
      </trkpt>
      <trkpt lat="44.39223" lon="7.14875">
        <ele>2017.46</ele>
        <time>2021-03-08T11:19:11Z</time>
      </trkpt>
      <trkpt lat="44.39211" lon="7.1487">
        <ele>2016.5</ele>
        <time>2021-03-08T11:19:22Z</time>
      </trkpt>
      <trkpt lat="44.39184" lon="7.14861">
        <ele>2015.06</ele>
        <time>2021-03-08T11:19:41Z</time>
      </trkpt>
      <trkpt lat="44.3916" lon="7.14872">
        <ele>2013.14</ele>
        <time>2021-03-08T11:19:53Z</time>
      </trkpt>
      <trkpt lat="44.39139" lon="7.14891">
        <ele>2011.7</ele>
        <time>2021-03-08T11:20:08Z</time>
      </trkpt>
      <trkpt lat="44.39126" lon="7.14895">
        <ele>2012.66</ele>
        <time>2021-03-08T11:20:20Z</time>
      </trkpt>
      <trkpt lat="44.3912" lon="7.14899">
        <ele>2011.7</ele>
        <time>2021-03-08T11:20:28Z</time>
      </trkpt>
      <trkpt lat="44.391" lon="7.14911">
        <ele>2009.77</ele>
        <time>2021-03-08T11:20:37Z</time>
      </trkpt>
      <trkpt lat="44.39079" lon="7.14918">
        <ele>2008.33</ele>
        <time>2021-03-08T11:20:46Z</time>
      </trkpt>
      <trkpt lat="44.39064" lon="7.14937">
        <ele>2007.85</ele>
        <time>2021-03-08T11:20:57Z</time>
      </trkpt>
      <trkpt lat="44.39042" lon="7.14961">
        <ele>2004.49</ele>
        <time>2021-03-08T11:21:09Z</time>
      </trkpt>
      <trkpt lat="44.39038" lon="7.14966">
        <ele>2004.01</ele>
        <time>2021-03-08T11:21:25Z</time>
      </trkpt>
      <trkpt lat="44.39035" lon="7.14975">
        <ele>2003.52</ele>
        <time>2021-03-08T11:21:27Z</time>
      </trkpt>
      <trkpt lat="44.39034" lon="7.14981">
        <ele>2003.04</ele>
        <time>2021-03-08T11:21:28Z</time>
      </trkpt>
      <trkpt lat="44.39034" lon="7.14988">
        <ele>2003.04</ele>
        <time>2021-03-08T11:21:29Z</time>
      </trkpt>
      <trkpt lat="44.39035" lon="7.15008">
        <ele>2001.12</ele>
        <time>2021-03-08T11:21:37Z</time>
      </trkpt>
      <trkpt lat="44.39036" lon="7.15006">
        <ele>1999.2</ele>
        <time>2021-03-08T11:21:54Z</time>
      </trkpt>
      <trkpt lat="44.39036" lon="7.15002">
        <ele>1997.76</ele>
        <time>2021-03-08T11:22:13Z</time>
      </trkpt>
      <trkpt lat="44.39035" lon="7.15006">
        <ele>1998.72</ele>
        <time>2021-03-08T11:22:36Z</time>
      </trkpt>
      <trkpt lat="44.39037" lon="7.15014">
        <ele>2000.16</ele>
        <time>2021-03-08T11:22:51Z</time>
      </trkpt>
      <trkpt lat="44.39038" lon="7.15014">
        <ele>2000.64</ele>
        <time>2021-03-08T11:23:09Z</time>
      </trkpt>
      <trkpt lat="44.39038" lon="7.15016">
        <ele>2001.6</ele>
        <time>2021-03-08T11:23:25Z</time>
      </trkpt>
      <trkpt lat="44.39039" lon="7.15019">
        <ele>2002.08</ele>
        <time>2021-03-08T11:23:26Z</time>
      </trkpt>
      <trkpt lat="44.39041" lon="7.15021">
        <ele>2002.08</ele>
        <time>2021-03-08T11:23:27Z</time>
      </trkpt>
      <trkpt lat="44.39043" lon="7.15025">
        <ele>2002.08</ele>
        <time>2021-03-08T11:23:28Z</time>
      </trkpt>
      <trkpt lat="44.39044" lon="7.15028">
        <ele>2002.08</ele>
        <time>2021-03-08T11:23:29Z</time>
      </trkpt>
      <trkpt lat="44.39044" lon="7.15031">
        <ele>2002.56</ele>
        <time>2021-03-08T11:23:30Z</time>
      </trkpt>
      <trkpt lat="44.39044" lon="7.15034">
        <ele>2002.08</ele>
        <time>2021-03-08T11:23:31Z</time>
      </trkpt>
      <trkpt lat="44.39044" lon="7.15037">
        <ele>2002.08</ele>
        <time>2021-03-08T11:23:32Z</time>
      </trkpt>
      <trkpt lat="44.39047" lon="7.15039">
        <ele>2002.08</ele>
        <time>2021-03-08T11:23:33Z</time>
      </trkpt>
      <trkpt lat="44.39052" lon="7.15036">
        <ele>2002.08</ele>
        <time>2021-03-08T11:23:35Z</time>
      </trkpt>
      <trkpt lat="44.39055" lon="7.15033">
        <ele>2002.08</ele>
        <time>2021-03-08T11:23:36Z</time>
      </trkpt>
      <trkpt lat="44.39063" lon="7.15029">
        <ele>2002.08</ele>
        <time>2021-03-08T11:23:39Z</time>
      </trkpt>
      <trkpt lat="44.39065" lon="7.15031">
        <ele>2002.08</ele>
        <time>2021-03-08T11:23:40Z</time>
      </trkpt>
      <trkpt lat="44.39066" lon="7.15035">
        <ele>2002.08</ele>
        <time>2021-03-08T11:23:41Z</time>
      </trkpt>
      <trkpt lat="44.39078" lon="7.15036">
        <ele>2002.08</ele>
        <time>2021-03-08T11:23:44Z</time>
      </trkpt>
      <trkpt lat="44.39082" lon="7.15038">
        <ele>2002.08</ele>
        <time>2021-03-08T11:23:45Z</time>
      </trkpt>
      <trkpt lat="44.39085" lon="7.15042">
        <ele>2002.08</ele>
        <time>2021-03-08T11:23:46Z</time>
      </trkpt>
      <trkpt lat="44.3909" lon="7.15047">
        <ele>2002.08</ele>
        <time>2021-03-08T11:23:47Z</time>
      </trkpt>
      <trkpt lat="44.39094" lon="7.15048">
        <ele>2002.08</ele>
        <time>2021-03-08T11:23:48Z</time>
      </trkpt>
      <trkpt lat="44.39099" lon="7.15046">
        <ele>2002.08</ele>
        <time>2021-03-08T11:23:50Z</time>
      </trkpt>
      <trkpt lat="44.39104" lon="7.15047">
        <ele>2002.08</ele>
        <time>2021-03-08T11:23:51Z</time>
      </trkpt>
      <trkpt lat="44.39107" lon="7.15051">
        <ele>2002.08</ele>
        <time>2021-03-08T11:23:52Z</time>
      </trkpt>
      <trkpt lat="44.3911" lon="7.15058">
        <ele>2002.08</ele>
        <time>2021-03-08T11:23:53Z</time>
      </trkpt>
      <trkpt lat="44.3912" lon="7.15061">
        <ele>1990.55</ele>
        <time>2021-03-08T11:23:57Z</time>
      </trkpt>
      <trkpt lat="44.39122" lon="7.15066">
        <ele>1988.62</ele>
        <time>2021-03-08T11:23:58Z</time>
      </trkpt>
      <trkpt lat="44.39141" lon="7.15077">
        <ele>1977.09</ele>
        <time>2021-03-08T11:24:04Z</time>
      </trkpt>
      <trkpt lat="44.39139" lon="7.15078">
        <ele>1970.84</ele>
        <time>2021-03-08T11:24:11Z</time>
      </trkpt>
      <trkpt lat="44.39138" lon="7.15084">
        <ele>1968.44</ele>
        <time>2021-03-08T11:24:38Z</time>
      </trkpt>
      <trkpt lat="44.39134" lon="7.15079">
        <ele>1966.51</ele>
        <time>2021-03-08T11:25:06Z</time>
      </trkpt>
      <trkpt lat="44.39137" lon="7.15083">
        <ele>1967.96</ele>
        <time>2021-03-08T11:25:32Z</time>
      </trkpt>
      <trkpt lat="44.39136" lon="7.15083">
        <ele>1968.44</ele>
        <time>2021-03-08T11:25:35Z</time>
      </trkpt>
      <trkpt lat="44.39149" lon="7.15096">
        <ele>1964.59</ele>
        <time>2021-03-08T11:25:41Z</time>
      </trkpt>
      <trkpt lat="44.39159" lon="7.15096">
        <ele>1961.23</ele>
        <time>2021-03-08T11:25:45Z</time>
      </trkpt>
      <trkpt lat="44.39165" lon="7.15106">
        <ele>1958.82</ele>
        <time>2021-03-08T11:25:48Z</time>
      </trkpt>
      <trkpt lat="44.39169" lon="7.15106">
        <ele>1958.34</ele>
        <time>2021-03-08T11:25:49Z</time>
      </trkpt>
      <trkpt lat="44.39171" lon="7.15105">
        <ele>1957.86</ele>
        <time>2021-03-08T11:25:50Z</time>
      </trkpt>
      <trkpt lat="44.39173" lon="7.15105">
        <ele>1957.38</ele>
        <time>2021-03-08T11:25:51Z</time>
      </trkpt>
      <trkpt lat="44.39175" lon="7.15114">
        <ele>1956.9</ele>
        <time>2021-03-08T11:25:53Z</time>
      </trkpt>
      <trkpt lat="44.39181" lon="7.15109">
        <ele>1954.98</ele>
        <time>2021-03-08T11:25:59Z</time>
      </trkpt>
      <trkpt lat="44.39184" lon="7.15102">
        <ele>1954.5</ele>
        <time>2021-03-08T11:26:16Z</time>
      </trkpt>
      <trkpt lat="44.39187" lon="7.151">
        <ele>1954.5</ele>
        <time>2021-03-08T11:26:18Z</time>
      </trkpt>
      <trkpt lat="44.39222" lon="7.15083">
        <ele>1952.57</ele>
        <time>2021-03-08T11:26:30Z</time>
      </trkpt>
      <trkpt lat="44.39242" lon="7.15084">
        <ele>1950.65</ele>
        <time>2021-03-08T11:26:37Z</time>
      </trkpt>
      <trkpt lat="44.39245" lon="7.15085">
        <ele>1950.65</ele>
        <time>2021-03-08T11:26:38Z</time>
      </trkpt>
      <trkpt lat="44.39267" lon="7.15088">
        <ele>1948.25</ele>
        <time>2021-03-08T11:26:47Z</time>
      </trkpt>
      <trkpt lat="44.39272" lon="7.15088">
        <ele>1947.77</ele>
        <time>2021-03-08T11:26:48Z</time>
      </trkpt>
      <trkpt lat="44.39276" lon="7.15087">
        <ele>1947.29</ele>
        <time>2021-03-08T11:26:49Z</time>
      </trkpt>
      <trkpt lat="44.39279" lon="7.15085">
        <ele>1946.81</ele>
        <time>2021-03-08T11:26:50Z</time>
      </trkpt>
      <trkpt lat="44.39282" lon="7.15084">
        <ele>1946.81</ele>
        <time>2021-03-08T11:26:51Z</time>
      </trkpt>
      <trkpt lat="44.39285" lon="7.15084">
        <ele>1946.33</ele>
        <time>2021-03-08T11:26:52Z</time>
      </trkpt>
      <trkpt lat="44.39287" lon="7.15083">
        <ele>1945.85</ele>
        <time>2021-03-08T11:26:53Z</time>
      </trkpt>
      <trkpt lat="44.39287" lon="7.15083">
        <ele>1945.36</ele>
        <time>2021-03-08T11:27:05Z</time>
      </trkpt>
      <trkpt lat="44.39288" lon="7.15083">
        <ele>1943.92</ele>
        <time>2021-03-08T11:27:15Z</time>
      </trkpt>
      <trkpt lat="44.39289" lon="7.15083">
        <ele>1943.92</ele>
        <time>2021-03-08T11:27:16Z</time>
      </trkpt>
      <trkpt lat="44.39316" lon="7.15095">
        <ele>1941.04</ele>
        <time>2021-03-08T11:27:27Z</time>
      </trkpt>
      <trkpt lat="44.39351" lon="7.15113">
        <ele>1937.67</ele>
        <time>2021-03-08T11:27:39Z</time>
      </trkpt>
      <trkpt lat="44.39358" lon="7.15116">
        <ele>1936.71</ele>
        <time>2021-03-08T11:27:42Z</time>
      </trkpt>
      <trkpt lat="44.39362" lon="7.15119">
        <ele>1936.71</ele>
        <time>2021-03-08T11:27:43Z</time>
      </trkpt>
      <trkpt lat="44.39365" lon="7.15125">
        <ele>1936.23</ele>
        <time>2021-03-08T11:27:44Z</time>
      </trkpt>
      <trkpt lat="44.39366" lon="7.15132">
        <ele>1936.23</ele>
        <time>2021-03-08T11:27:45Z</time>
      </trkpt>
      <trkpt lat="44.39367" lon="7.15139">
        <ele>1935.75</ele>
        <time>2021-03-08T11:27:46Z</time>
      </trkpt>
      <trkpt lat="44.39367" lon="7.15146">
        <ele>1935.75</ele>
        <time>2021-03-08T11:27:47Z</time>
      </trkpt>
      <trkpt lat="44.39366" lon="7.15151">
        <ele>1935.75</ele>
        <time>2021-03-08T11:27:48Z</time>
      </trkpt>
      <trkpt lat="44.39364" lon="7.15156">
        <ele>1935.27</ele>
        <time>2021-03-08T11:27:49Z</time>
      </trkpt>
      <trkpt lat="44.39363" lon="7.1516">
        <ele>1935.27</ele>
        <time>2021-03-08T11:27:50Z</time>
      </trkpt>
      <trkpt lat="44.39362" lon="7.15164">
        <ele>1935.27</ele>
        <time>2021-03-08T11:27:51Z</time>
      </trkpt>
      <trkpt lat="44.3936" lon="7.15167">
        <ele>1935.27</ele>
        <time>2021-03-08T11:27:52Z</time>
      </trkpt>
      <trkpt lat="44.39358" lon="7.15168">
        <ele>1934.79</ele>
        <time>2021-03-08T11:27:53Z</time>
      </trkpt>
      <trkpt lat="44.39356" lon="7.1517">
        <ele>1934.79</ele>
        <time>2021-03-08T11:27:54Z</time>
      </trkpt>
      <trkpt lat="44.39355" lon="7.15173">
        <ele>1934.79</ele>
        <time>2021-03-08T11:27:55Z</time>
      </trkpt>
      <trkpt lat="44.39353" lon="7.15175">
        <ele>1934.79</ele>
        <time>2021-03-08T11:27:56Z</time>
      </trkpt>
      <trkpt lat="44.39352" lon="7.15178">
        <ele>1934.79</ele>
        <time>2021-03-08T11:27:57Z</time>
      </trkpt>
      <trkpt lat="44.39345" lon="7.15217">
        <ele>1932.39</ele>
        <time>2021-03-08T11:28:10Z</time>
      </trkpt>
      <trkpt lat="44.39339" lon="7.15227">
        <ele>1930.95</ele>
        <time>2021-03-08T11:28:23Z</time>
      </trkpt>
      <trkpt lat="44.3934" lon="7.15227">
        <ele>1929.5</ele>
        <time>2021-03-08T11:28:40Z</time>
      </trkpt>
      <trkpt lat="44.39336" lon="7.15235">
        <ele>1930.46</ele>
        <time>2021-03-08T11:28:57Z</time>
      </trkpt>
      <trkpt lat="44.39338" lon="7.15247">
        <ele>1927.1</ele>
        <time>2021-03-08T11:29:12Z</time>
      </trkpt>
      <trkpt lat="44.39339" lon="7.15246">
        <ele>1924.7</ele>
        <time>2021-03-08T11:29:26Z</time>
      </trkpt>
      <trkpt lat="44.39338" lon="7.15247">
        <ele>1923.74</ele>
        <time>2021-03-08T11:29:44Z</time>
      </trkpt>
      <trkpt lat="44.39339" lon="7.15248">
        <ele>1924.22</ele>
        <time>2021-03-08T11:29:59Z</time>
      </trkpt>
      <trkpt lat="44.39339" lon="7.15249">
        <ele>1924.22</ele>
        <time>2021-03-08T11:30:00Z</time>
      </trkpt>
      <trkpt lat="44.39348" lon="7.15258">
        <ele>1921.81</ele>
        <time>2021-03-08T11:30:12Z</time>
      </trkpt>
      <trkpt lat="44.39355" lon="7.15262">
        <ele>1922.29</ele>
        <time>2021-03-08T11:30:26Z</time>
      </trkpt>
      <trkpt lat="44.39388" lon="7.15274">
        <ele>1919.89</ele>
        <time>2021-03-08T11:30:37Z</time>
      </trkpt>
      <trkpt lat="44.39409" lon="7.15311">
        <ele>1915.56</ele>
        <time>2021-03-08T11:30:49Z</time>
      </trkpt>
      <trkpt lat="44.39414" lon="7.15321">
        <ele>1914.12</ele>
        <time>2021-03-08T11:30:55Z</time>
      </trkpt>
      <trkpt lat="44.39445" lon="7.15321">
        <ele>1910.76</ele>
        <time>2021-03-08T11:31:09Z</time>
      </trkpt>
      <trkpt lat="44.39472" lon="7.15343">
        <ele>1907.39</ele>
        <time>2021-03-08T11:31:19Z</time>
      </trkpt>
      <trkpt lat="44.39493" lon="7.15363">
        <ele>1903.07</ele>
        <time>2021-03-08T11:31:28Z</time>
      </trkpt>
      <trkpt lat="44.39506" lon="7.1537">
        <ele>1901.63</ele>
        <time>2021-03-08T11:31:31Z</time>
      </trkpt>
      <trkpt lat="44.39534" lon="7.15381">
        <ele>1900.18</ele>
        <time>2021-03-08T11:31:39Z</time>
      </trkpt>
      <trkpt lat="44.39565" lon="7.1539">
        <ele>1900.18</ele>
        <time>2021-03-08T11:31:49Z</time>
      </trkpt>
      <trkpt lat="44.3958" lon="7.15418">
        <ele>1900.18</ele>
        <time>2021-03-08T11:31:59Z</time>
      </trkpt>
      <trkpt lat="44.3958" lon="7.15422">
        <ele>1901.14</ele>
        <time>2021-03-08T11:32:09Z</time>
      </trkpt>
      <trkpt lat="44.39579" lon="7.15423">
        <ele>1899.7</ele>
        <time>2021-03-08T11:32:22Z</time>
      </trkpt>
      <trkpt lat="44.39578" lon="7.15424">
        <ele>1902.59</ele>
        <time>2021-03-08T11:32:38Z</time>
      </trkpt>
      <trkpt lat="44.39582" lon="7.1543">
        <ele>1902.11</ele>
        <time>2021-03-08T11:32:48Z</time>
      </trkpt>
      <trkpt lat="44.39584" lon="7.15432">
        <ele>1902.11</ele>
        <time>2021-03-08T11:33:01Z</time>
      </trkpt>
      <trkpt lat="44.39585" lon="7.15433">
        <ele>1902.11</ele>
        <time>2021-03-08T11:33:02Z</time>
      </trkpt>
      <trkpt lat="44.39585" lon="7.15434">
        <ele>1902.11</ele>
        <time>2021-03-08T11:33:03Z</time>
      </trkpt>
      <trkpt lat="44.39591" lon="7.1546">
        <ele>1902.59</ele>
        <time>2021-03-08T11:33:18Z</time>
      </trkpt>
      <trkpt lat="44.39597" lon="7.15481">
        <ele>1901.63</ele>
        <time>2021-03-08T11:33:32Z</time>
      </trkpt>
      <trkpt lat="44.39598" lon="7.15515">
        <ele>1901.14</ele>
        <time>2021-03-08T11:33:54Z</time>
      </trkpt>
      <trkpt lat="44.396" lon="7.15543">
        <ele>1899.7</ele>
        <time>2021-03-08T11:34:13Z</time>
      </trkpt>
      <trkpt lat="44.39602" lon="7.15559">
        <ele>1899.22</ele>
        <time>2021-03-08T11:34:27Z</time>
      </trkpt>
      <trkpt lat="44.39593" lon="7.15574">
        <ele>1898.74</ele>
        <time>2021-03-08T11:34:41Z</time>
      </trkpt>
      <trkpt lat="44.39593" lon="7.15576">
        <ele>1898.74</ele>
        <time>2021-03-08T11:34:55Z</time>
      </trkpt>
      <trkpt lat="44.39592" lon="7.15573">
        <ele>1896.34</ele>
        <time>2021-03-08T11:35:13Z</time>
      </trkpt>
      <trkpt lat="44.39594" lon="7.15572">
        <ele>1897.3</ele>
        <time>2021-03-08T11:35:39Z</time>
      </trkpt>
      <trkpt lat="44.39592" lon="7.15575">
        <ele>1897.3</ele>
        <time>2021-03-08T11:35:59Z</time>
      </trkpt>
      <trkpt lat="44.3959" lon="7.15576">
        <ele>1897.3</ele>
        <time>2021-03-08T11:36:00Z</time>
      </trkpt>
      <trkpt lat="44.39589" lon="7.15578">
        <ele>1897.3</ele>
        <time>2021-03-08T11:36:02Z</time>
      </trkpt>
      <trkpt lat="44.39588" lon="7.15578">
        <ele>1897.3</ele>
        <time>2021-03-08T11:36:03Z</time>
      </trkpt>
      <trkpt lat="44.39588" lon="7.1558">
        <ele>1897.3</ele>
        <time>2021-03-08T11:36:04Z</time>
      </trkpt>
      <trkpt lat="44.39587" lon="7.15581">
        <ele>1897.3</ele>
        <time>2021-03-08T11:36:05Z</time>
      </trkpt>
      <trkpt lat="44.39587" lon="7.15583">
        <ele>1896.82</ele>
        <time>2021-03-08T11:36:06Z</time>
      </trkpt>
      <trkpt lat="44.3958" lon="7.15618">
        <ele>1895.86</ele>
        <time>2021-03-08T11:36:22Z</time>
      </trkpt>
      <trkpt lat="44.39579" lon="7.15651">
        <ele>1895.86</ele>
        <time>2021-03-08T11:36:38Z</time>
      </trkpt>
      <trkpt lat="44.39578" lon="7.15648">
        <ele>1896.34</ele>
        <time>2021-03-08T11:36:53Z</time>
      </trkpt>
      <trkpt lat="44.39577" lon="7.15648">
        <ele>1895.86</ele>
        <time>2021-03-08T11:37:11Z</time>
      </trkpt>
      <trkpt lat="44.39577" lon="7.15652">
        <ele>1896.34</ele>
        <time>2021-03-08T11:37:15Z</time>
      </trkpt>
      <trkpt lat="44.39576" lon="7.15654">
        <ele>1895.86</ele>
        <time>2021-03-08T11:37:16Z</time>
      </trkpt>
      <trkpt lat="44.39576" lon="7.15656">
        <ele>1895.86</ele>
        <time>2021-03-08T11:37:17Z</time>
      </trkpt>
      <trkpt lat="44.39576" lon="7.15658">
        <ele>1895.38</ele>
        <time>2021-03-08T11:37:18Z</time>
      </trkpt>
      <trkpt lat="44.39575" lon="7.1566">
        <ele>1894.9</ele>
        <time>2021-03-08T11:37:19Z</time>
      </trkpt>
      <trkpt lat="44.39575" lon="7.15662">
        <ele>1894.9</ele>
        <time>2021-03-08T11:37:20Z</time>
      </trkpt>
      <trkpt lat="44.39575" lon="7.15664">
        <ele>1894.9</ele>
        <time>2021-03-08T11:37:21Z</time>
      </trkpt>
      <trkpt lat="44.39575" lon="7.15666">
        <ele>1895.38</ele>
        <time>2021-03-08T11:37:22Z</time>
      </trkpt>
      <trkpt lat="44.39578" lon="7.15684">
        <ele>1894.9</ele>
        <time>2021-03-08T11:37:39Z</time>
      </trkpt>
      <trkpt lat="44.39578" lon="7.15678">
        <ele>1894.9</ele>
        <time>2021-03-08T11:37:51Z</time>
      </trkpt>
      <trkpt lat="44.39577" lon="7.15678">
        <ele>1892.97</ele>
        <time>2021-03-08T11:38:08Z</time>
      </trkpt>
      <trkpt lat="44.39577" lon="7.15681">
        <ele>1891.53</ele>
        <time>2021-03-08T11:38:21Z</time>
      </trkpt>
      <trkpt lat="44.39577" lon="7.15682">
        <ele>1893.45</ele>
        <time>2021-03-08T11:38:59Z</time>
      </trkpt>
      <trkpt lat="44.39577" lon="7.1568">
        <ele>1892.97</ele>
        <time>2021-03-08T11:39:23Z</time>
      </trkpt>
      <trkpt lat="44.39579" lon="7.15679">
        <ele>1892.49</ele>
        <time>2021-03-08T11:39:47Z</time>
      </trkpt>
      <trkpt lat="44.39577" lon="7.15679">
        <ele>1892.49</ele>
        <time>2021-03-08T11:40:08Z</time>
      </trkpt>
      <trkpt lat="44.39576" lon="7.15681">
        <ele>1892.97</ele>
        <time>2021-03-08T11:40:34Z</time>
      </trkpt>
      <trkpt lat="44.39578" lon="7.15681">
        <ele>1888.65</ele>
        <time>2021-03-08T11:41:03Z</time>
      </trkpt>
      <trkpt lat="44.39577" lon="7.15684">
        <ele>1893.93</ele>
        <time>2021-03-08T11:41:22Z</time>
      </trkpt>
      <trkpt lat="44.39578" lon="7.15683">
        <ele>1894.9</ele>
        <time>2021-03-08T11:42:00Z</time>
      </trkpt>
      <trkpt lat="44.39579" lon="7.15682">
        <ele>1892.01</ele>
        <time>2021-03-08T11:42:32Z</time>
      </trkpt>
      <trkpt lat="44.39581" lon="7.15681">
        <ele>1891.05</ele>
        <time>2021-03-08T11:43:02Z</time>
      </trkpt>
      <trkpt lat="44.39581" lon="7.15679">
        <ele>1891.53</ele>
        <time>2021-03-08T11:43:18Z</time>
      </trkpt>
      <trkpt lat="44.39581" lon="7.1568">
        <ele>1892.01</ele>
        <time>2021-03-08T11:43:30Z</time>
      </trkpt>
      <trkpt lat="44.39582" lon="7.1569">
        <ele>1891.53</ele>
        <time>2021-03-08T11:43:40Z</time>
      </trkpt>
      <trkpt lat="44.39589" lon="7.15702">
        <ele>1890.09</ele>
        <time>2021-03-08T11:43:52Z</time>
      </trkpt>
      <trkpt lat="44.39592" lon="7.15708">
        <ele>1889.13</ele>
        <time>2021-03-08T11:44:01Z</time>
      </trkpt>
      <trkpt lat="44.39598" lon="7.1573">
        <ele>1887.21</ele>
        <time>2021-03-08T11:44:15Z</time>
      </trkpt>
      <trkpt lat="44.39597" lon="7.15744">
        <ele>1887.69</ele>
        <time>2021-03-08T11:44:31Z</time>
      </trkpt>
      <trkpt lat="44.39592" lon="7.15768">
        <ele>1887.21</ele>
        <time>2021-03-08T11:44:48Z</time>
      </trkpt>
      <trkpt lat="44.39589" lon="7.15773">
        <ele>1887.21</ele>
        <time>2021-03-08T11:44:52Z</time>
      </trkpt>
      <trkpt lat="44.39589" lon="7.15775">
        <ele>1887.21</ele>
        <time>2021-03-08T11:44:53Z</time>
      </trkpt>
      <trkpt lat="44.39588" lon="7.15777">
        <ele>1887.21</ele>
        <time>2021-03-08T11:44:54Z</time>
      </trkpt>
      <trkpt lat="44.39587" lon="7.15778">
        <ele>1887.21</ele>
        <time>2021-03-08T11:44:55Z</time>
      </trkpt>
      <trkpt lat="44.39586" lon="7.15779">
        <ele>1886.72</ele>
        <time>2021-03-08T11:44:56Z</time>
      </trkpt>
      <trkpt lat="44.39578" lon="7.15807">
        <ele>1884.32</ele>
        <time>2021-03-08T11:45:14Z</time>
      </trkpt>
      <trkpt lat="44.39572" lon="7.15834">
        <ele>1879.51</ele>
        <time>2021-03-08T11:45:32Z</time>
      </trkpt>
      <trkpt lat="44.3958" lon="7.15853">
        <ele>1875.67</ele>
        <time>2021-03-08T11:45:48Z</time>
      </trkpt>
      <trkpt lat="44.39588" lon="7.15869">
        <ele>1872.3</ele>
        <time>2021-03-08T11:46:04Z</time>
      </trkpt>
      <trkpt lat="44.39591" lon="7.15872">
        <ele>1872.79</ele>
        <time>2021-03-08T11:46:07Z</time>
      </trkpt>
      <trkpt lat="44.39603" lon="7.15877">
        <ele>1869.9</ele>
        <time>2021-03-08T11:46:20Z</time>
      </trkpt>
      <trkpt lat="44.39607" lon="7.15878">
        <ele>1868.46</ele>
        <time>2021-03-08T11:46:27Z</time>
      </trkpt>
      <trkpt lat="44.39612" lon="7.15877">
        <ele>1867.98</ele>
        <time>2021-03-08T11:46:32Z</time>
      </trkpt>
      <trkpt lat="44.39621" lon="7.15878">
        <ele>1867.5</ele>
        <time>2021-03-08T11:46:42Z</time>
      </trkpt>
      <trkpt lat="44.39634" lon="7.15874">
        <ele>1863.65</ele>
        <time>2021-03-08T11:46:55Z</time>
      </trkpt>
      <trkpt lat="44.39652" lon="7.15882">
        <ele>1862.69</ele>
        <time>2021-03-08T11:47:14Z</time>
      </trkpt>
      <trkpt lat="44.39662" lon="7.15897">
        <ele>1863.17</ele>
        <time>2021-03-08T11:47:28Z</time>
      </trkpt>
      <trkpt lat="44.3967" lon="7.15915">
        <ele>1862.21</ele>
        <time>2021-03-08T11:47:41Z</time>
      </trkpt>
      <trkpt lat="44.39679" lon="7.15929">
        <ele>1861.73</ele>
        <time>2021-03-08T11:47:54Z</time>
      </trkpt>
      <trkpt lat="44.39687" lon="7.1595">
        <ele>1861.25</ele>
        <time>2021-03-08T11:48:09Z</time>
      </trkpt>
      <trkpt lat="44.39688" lon="7.15976">
        <ele>1856.92</ele>
        <time>2021-03-08T11:48:27Z</time>
      </trkpt>
      <trkpt lat="44.39687" lon="7.1598">
        <ele>1856.92</ele>
        <time>2021-03-08T11:48:43Z</time>
      </trkpt>
      <trkpt lat="44.39689" lon="7.15995">
        <ele>1855</ele>
        <time>2021-03-08T11:48:56Z</time>
      </trkpt>
      <trkpt lat="44.39693" lon="7.16011">
        <ele>1854.04</ele>
        <time>2021-03-08T11:49:09Z</time>
      </trkpt>
      <trkpt lat="44.39701" lon="7.16045">
        <ele>1851.16</ele>
        <time>2021-03-08T11:49:29Z</time>
      </trkpt>
      <trkpt lat="44.39704" lon="7.16047">
        <ele>1850.68</ele>
        <time>2021-03-08T11:49:32Z</time>
      </trkpt>
      <trkpt lat="44.39705" lon="7.16048">
        <ele>1850.19</ele>
        <time>2021-03-08T11:49:33Z</time>
      </trkpt>
      <trkpt lat="44.39712" lon="7.1605">
        <ele>1850.19</ele>
        <time>2021-03-08T11:49:42Z</time>
      </trkpt>
      <trkpt lat="44.39714" lon="7.1605">
        <ele>1850.19</ele>
        <time>2021-03-08T11:49:43Z</time>
      </trkpt>
      <trkpt lat="44.39726" lon="7.16052">
        <ele>1849.71</ele>
        <time>2021-03-08T11:49:58Z</time>
      </trkpt>
      <trkpt lat="44.39735" lon="7.16057">
        <ele>1848.75</ele>
        <time>2021-03-08T11:50:08Z</time>
      </trkpt>
      <trkpt lat="44.39736" lon="7.16058">
        <ele>1848.27</ele>
        <time>2021-03-08T11:50:09Z</time>
      </trkpt>
      <trkpt lat="44.39737" lon="7.1606">
        <ele>1848.27</ele>
        <time>2021-03-08T11:50:10Z</time>
      </trkpt>
      <trkpt lat="44.39738" lon="7.16062">
        <ele>1847.79</ele>
        <time>2021-03-08T11:50:11Z</time>
      </trkpt>
      <trkpt lat="44.39739" lon="7.16064">
        <ele>1847.79</ele>
        <time>2021-03-08T11:50:12Z</time>
      </trkpt>
      <trkpt lat="44.3974" lon="7.16066">
        <ele>1847.79</ele>
        <time>2021-03-08T11:50:13Z</time>
      </trkpt>
      <trkpt lat="44.3974" lon="7.16067">
        <ele>1847.31</ele>
        <time>2021-03-08T11:50:14Z</time>
      </trkpt>
      <trkpt lat="44.39741" lon="7.16069">
        <ele>1847.31</ele>
        <time>2021-03-08T11:50:15Z</time>
      </trkpt>
      <trkpt lat="44.39742" lon="7.1607">
        <ele>1847.31</ele>
        <time>2021-03-08T11:50:16Z</time>
      </trkpt>
      <trkpt lat="44.39751" lon="7.1609">
        <ele>1844.91</ele>
        <time>2021-03-08T11:50:30Z</time>
      </trkpt>
      <trkpt lat="44.39758" lon="7.16113">
        <ele>1843.95</ele>
        <time>2021-03-08T11:50:44Z</time>
      </trkpt>
      <trkpt lat="44.39761" lon="7.16136">
        <ele>1841.54</ele>
        <time>2021-03-08T11:50:59Z</time>
      </trkpt>
      <trkpt lat="44.39767" lon="7.16165">
        <ele>1838.18</ele>
        <time>2021-03-08T11:51:17Z</time>
      </trkpt>
      <trkpt lat="44.39781" lon="7.16184">
        <ele>1834.33</ele>
        <time>2021-03-08T11:51:33Z</time>
      </trkpt>
      <trkpt lat="44.39791" lon="7.16205">
        <ele>1833.37</ele>
        <time>2021-03-08T11:51:48Z</time>
      </trkpt>
      <trkpt lat="44.398" lon="7.16225">
        <ele>1831.93</ele>
        <time>2021-03-08T11:52:03Z</time>
      </trkpt>
      <trkpt lat="44.398" lon="7.16226">
        <ele>1831.93</ele>
        <time>2021-03-08T11:52:04Z</time>
      </trkpt>
      <trkpt lat="44.39801" lon="7.16227">
        <ele>1831.93</ele>
        <time>2021-03-08T11:52:05Z</time>
      </trkpt>
      <trkpt lat="44.39809" lon="7.16248">
        <ele>1828.08</ele>
        <time>2021-03-08T11:52:21Z</time>
      </trkpt>
      <trkpt lat="44.3982" lon="7.16273">
        <ele>1825.2</ele>
        <time>2021-03-08T11:52:40Z</time>
      </trkpt>
      <trkpt lat="44.39833" lon="7.16289">
        <ele>1824.72</ele>
        <time>2021-03-08T11:52:55Z</time>
      </trkpt>
      <trkpt lat="44.39849" lon="7.16304">
        <ele>1825.2</ele>
        <time>2021-03-08T11:53:11Z</time>
      </trkpt>
      <trkpt lat="44.39861" lon="7.16312">
        <ele>1823.28</ele>
        <time>2021-03-08T11:53:25Z</time>
      </trkpt>
      <trkpt lat="44.39864" lon="7.16312">
        <ele>1823.28</ele>
        <time>2021-03-08T11:53:28Z</time>
      </trkpt>
      <trkpt lat="44.3988" lon="7.16312">
        <ele>1822.32</ele>
        <time>2021-03-08T11:53:44Z</time>
      </trkpt>
      <trkpt lat="44.399" lon="7.16322">
        <ele>1820.87</ele>
        <time>2021-03-08T11:53:59Z</time>
      </trkpt>
      <trkpt lat="44.39923" lon="7.16336">
        <ele>1818.47</ele>
        <time>2021-03-08T11:54:18Z</time>
      </trkpt>
      <trkpt lat="44.39944" lon="7.16345">
        <ele>1817.51</ele>
        <time>2021-03-08T11:54:34Z</time>
      </trkpt>
      <trkpt lat="44.39964" lon="7.16353">
        <ele>1817.03</ele>
        <time>2021-03-08T11:54:50Z</time>
      </trkpt>
      <trkpt lat="44.3998" lon="7.16362">
        <ele>1816.55</ele>
        <time>2021-03-08T11:55:05Z</time>
      </trkpt>
      <trkpt lat="44.39994" lon="7.16381">
        <ele>1816.07</ele>
        <time>2021-03-08T11:55:21Z</time>
      </trkpt>
      <trkpt lat="44.40013" lon="7.16386">
        <ele>1814.15</ele>
        <time>2021-03-08T11:55:37Z</time>
      </trkpt>
      <trkpt lat="44.40035" lon="7.16365">
        <ele>1809.34</ele>
        <time>2021-03-08T11:55:56Z</time>
      </trkpt>
      <trkpt lat="44.40057" lon="7.16368">
        <ele>1806.45</ele>
        <time>2021-03-08T11:56:13Z</time>
      </trkpt>
      <trkpt lat="44.40081" lon="7.16379">
        <ele>1805.01</ele>
        <time>2021-03-08T11:56:32Z</time>
      </trkpt>
      <trkpt lat="44.40095" lon="7.16401">
        <ele>1805.49</ele>
        <time>2021-03-08T11:56:47Z</time>
      </trkpt>
      <trkpt lat="44.40109" lon="7.16413">
        <ele>1805.01</ele>
        <time>2021-03-08T11:56:59Z</time>
      </trkpt>
      <trkpt lat="44.4011" lon="7.16413">
        <ele>1805.01</ele>
        <time>2021-03-08T11:57:00Z</time>
      </trkpt>
      <trkpt lat="44.40111" lon="7.16413">
        <ele>1805.01</ele>
        <time>2021-03-08T11:57:01Z</time>
      </trkpt>
      <trkpt lat="44.40138" lon="7.16414">
        <ele>1802.61</ele>
        <time>2021-03-08T11:57:21Z</time>
      </trkpt>
      <trkpt lat="44.40165" lon="7.16411">
        <ele>1801.65</ele>
        <time>2021-03-08T11:57:41Z</time>
      </trkpt>
      <trkpt lat="44.4019" lon="7.16425">
        <ele>1800.21</ele>
        <time>2021-03-08T11:58:01Z</time>
      </trkpt>
      <trkpt lat="44.4021" lon="7.16445">
        <ele>1801.65</ele>
        <time>2021-03-08T11:58:19Z</time>
      </trkpt>
      <trkpt lat="44.40219" lon="7.16468">
        <ele>1803.09</ele>
        <time>2021-03-08T11:58:34Z</time>
      </trkpt>
      <trkpt lat="44.40217" lon="7.16495">
        <ele>1802.61</ele>
        <time>2021-03-08T11:58:50Z</time>
      </trkpt>
      <trkpt lat="44.40216" lon="7.16521">
        <ele>1803.09</ele>
        <time>2021-03-08T11:59:06Z</time>
      </trkpt>
      <trkpt lat="44.4021" lon="7.16546">
        <ele>1803.57</ele>
        <time>2021-03-08T11:59:21Z</time>
      </trkpt>
      <trkpt lat="44.40203" lon="7.16569">
        <ele>1804.53</ele>
        <time>2021-03-08T11:59:35Z</time>
      </trkpt>
      <trkpt lat="44.40204" lon="7.16599">
        <ele>1805.01</ele>
        <time>2021-03-08T11:59:51Z</time>
      </trkpt>
      <trkpt lat="44.40214" lon="7.16621">
        <ele>1805.97</ele>
        <time>2021-03-08T12:00:07Z</time>
      </trkpt>
      <trkpt lat="44.40212" lon="7.16628">
        <ele>1805.49</ele>
        <time>2021-03-08T12:00:13Z</time>
      </trkpt>
      <trkpt lat="44.40212" lon="7.16629">
        <ele>1805.49</ele>
        <time>2021-03-08T12:00:14Z</time>
      </trkpt>
      <trkpt lat="44.40211" lon="7.16629">
        <ele>1805.49</ele>
        <time>2021-03-08T12:00:15Z</time>
      </trkpt>
      <trkpt lat="44.40189" lon="7.16639">
        <ele>1805.01</ele>
        <time>2021-03-08T12:00:35Z</time>
      </trkpt>
      <trkpt lat="44.40167" lon="7.16642">
        <ele>1804.05</ele>
        <time>2021-03-08T12:00:53Z</time>
      </trkpt>
      <trkpt lat="44.40146" lon="7.16654">
        <ele>1796.84</ele>
        <time>2021-03-08T12:01:10Z</time>
      </trkpt>
      <trkpt lat="44.40132" lon="7.16664">
        <ele>1796.84</ele>
        <time>2021-03-08T12:01:23Z</time>
      </trkpt>
      <trkpt lat="44.40112" lon="7.16667">
        <ele>1797.8</ele>
        <time>2021-03-08T12:01:40Z</time>
      </trkpt>
      <trkpt lat="44.40103" lon="7.16671">
        <ele>1795.88</ele>
        <time>2021-03-08T12:01:53Z</time>
      </trkpt>
      <trkpt lat="44.40085" lon="7.16687">
        <ele>1793</ele>
        <time>2021-03-08T12:02:10Z</time>
      </trkpt>
      <trkpt lat="44.40065" lon="7.16708">
        <ele>1789.63</ele>
        <time>2021-03-08T12:02:29Z</time>
      </trkpt>
      <trkpt lat="44.40054" lon="7.16738">
        <ele>1785.79</ele>
        <time>2021-03-08T12:02:47Z</time>
      </trkpt>
      <trkpt lat="44.40053" lon="7.16768">
        <ele>1782.42</ele>
        <time>2021-03-08T12:03:04Z</time>
      </trkpt>
      <trkpt lat="44.40054" lon="7.16797">
        <ele>1781.46</ele>
        <time>2021-03-08T12:03:20Z</time>
      </trkpt>
      <trkpt lat="44.40056" lon="7.16822">
        <ele>1779.54</ele>
        <time>2021-03-08T12:03:36Z</time>
      </trkpt>
      <trkpt lat="44.40048" lon="7.16844">
        <ele>1775.21</ele>
        <time>2021-03-08T12:03:52Z</time>
      </trkpt>
      <trkpt lat="44.40033" lon="7.16858">
        <ele>1773.29</ele>
        <time>2021-03-08T12:04:08Z</time>
      </trkpt>
      <trkpt lat="44.40017" lon="7.16885">
        <ele>1769.44</ele>
        <time>2021-03-08T12:04:28Z</time>
      </trkpt>
      <trkpt lat="44.40012" lon="7.16912">
        <ele>1768</ele>
        <time>2021-03-08T12:04:45Z</time>
      </trkpt>
      <trkpt lat="44.40012" lon="7.16931">
        <ele>1766.56</ele>
        <time>2021-03-08T12:04:56Z</time>
      </trkpt>
      <trkpt lat="44.40012" lon="7.16933">
        <ele>1766.08</ele>
        <time>2021-03-08T12:04:57Z</time>
      </trkpt>
      <trkpt lat="44.40013" lon="7.16935">
        <ele>1766.08</ele>
        <time>2021-03-08T12:04:58Z</time>
      </trkpt>
      <trkpt lat="44.40013" lon="7.16937">
        <ele>1766.08</ele>
        <time>2021-03-08T12:04:59Z</time>
      </trkpt>
      <trkpt lat="44.40013" lon="7.16939">
        <ele>1765.6</ele>
        <time>2021-03-08T12:05:00Z</time>
      </trkpt>
      <trkpt lat="44.40016" lon="7.16953">
        <ele>1763.68</ele>
        <time>2021-03-08T12:05:09Z</time>
      </trkpt>
      <trkpt lat="44.40017" lon="7.16957">
        <ele>1762.71</ele>
        <time>2021-03-08T12:05:12Z</time>
      </trkpt>
      <trkpt lat="44.40017" lon="7.16959">
        <ele>1762.71</ele>
        <time>2021-03-08T12:05:13Z</time>
      </trkpt>
      <trkpt lat="44.40018" lon="7.16961">
        <ele>1763.2</ele>
        <time>2021-03-08T12:05:14Z</time>
      </trkpt>
      <trkpt lat="44.40018" lon="7.16963">
        <ele>1762.71</ele>
        <time>2021-03-08T12:05:15Z</time>
      </trkpt>
      <trkpt lat="44.40019" lon="7.16965">
        <ele>1762.71</ele>
        <time>2021-03-08T12:05:16Z</time>
      </trkpt>
      <trkpt lat="44.40019" lon="7.16967">
        <ele>1762.23</ele>
        <time>2021-03-08T12:05:17Z</time>
      </trkpt>
      <trkpt lat="44.40028" lon="7.16989">
        <ele>1759.83</ele>
        <time>2021-03-08T12:05:32Z</time>
      </trkpt>
      <trkpt lat="44.40029" lon="7.17015">
        <ele>1759.35</ele>
        <time>2021-03-08T12:05:46Z</time>
      </trkpt>
      <trkpt lat="44.40026" lon="7.17036">
        <ele>1757.43</ele>
        <time>2021-03-08T12:06:01Z</time>
      </trkpt>
      <trkpt lat="44.40031" lon="7.17041">
        <ele>1757.91</ele>
        <time>2021-03-08T12:06:14Z</time>
      </trkpt>
      <trkpt lat="44.40031" lon="7.17042">
        <ele>1756.95</ele>
        <time>2021-03-08T12:06:28Z</time>
      </trkpt>
      <trkpt lat="44.40032" lon="7.17041">
        <ele>1755.99</ele>
        <time>2021-03-08T12:06:40Z</time>
      </trkpt>
      <trkpt lat="44.40034" lon="7.17043">
        <ele>1756.95</ele>
        <time>2021-03-08T12:07:03Z</time>
      </trkpt>
      <trkpt lat="44.40032" lon="7.17044">
        <ele>1758.87</ele>
        <time>2021-03-08T12:07:26Z</time>
      </trkpt>
      <trkpt lat="44.40032" lon="7.17044">
        <ele>1758.87</ele>
        <time>2021-03-08T12:07:27Z</time>
      </trkpt>
    </trkseg>
  </trk>
</gpx>